Darstellungsparameter: Aktuell verwendete Einstellungen:
Skalierung der Graphiken ... ?
xyx+y,   Skalierungsfaktor:      Skalierung: Modus: x, Faktor: 1
Darstellungszeitraum ... ?
Vom - - bis: - -   Zeitraum: 06.07.2016 - 05.08.2016
Min/Max/Avg-Anzeige ... ?
Zeige MMA aktuell
Zeige MMA Monat
Zeige MMA alles
Zeige --A aktuell
Zeige --A Monat
Zeige --A alles
Keine MMA-Anzeige
MMA:
Keine MMA-Graphiken
MMA-Basis: 06.07.2016 - 05.08.2016
Quicknavigation für Darstellung... ?
Tage:      1T, 2T, 3T, 5T -1T -2T -3T -5T +1T +2T +3T +5T
Wochen: 1W, 2W, 3W -1W -2W -3W +1W +2W +3W
Monate: 1M, 3M, 6M -1M -3M -6M +1M +3M +6M
Jahre:    1J, 3J, 5J, 10J -1J -3J -5J -10J +1J +3J +5J +10J
Nutze für die Darstellung ... ?
Originaldaten oder Mittelwerte auf ...
Stundenbasis Tagesbasis Wochenbasis
Monatsbasis Jahresbasis      Datenbasis: Original-Daten
Darstellen als:
Statistik (Auto) Statistik J:M      Darstellung:
Zur Graphik,    zurück zur Übersicht aller Sensoren.
 
Tabellarische Datenbersicht: ?
 
Sensor: Nr:Datum:Temp:Feuchte:Taupunkt:
Aussen-T/F 1 06-07-2016 00:00:00 15.9 C 78 % 12.07 C
2 06-07-2016 00:05:00 15.8 C 78 % 11.97 C
3 06-07-2016 00:10:00 15.7 C 78 % 11.88 C
4 06-07-2016 00:15:00 15.6 C 78 % 11.78 C
5 06-07-2016 00:20:00 15.5 C 78 % 11.68 C
6 06-07-2016 00:25:00 15.4 C 79 % 11.78 C
7 06-07-2016 00:30:00 15.3 C 79 % 11.68 C
8 06-07-2016 00:35:00 15.3 C 79 % 11.68 C
9 06-07-2016 00:40:00 15.2 C 79 % 11.59 C
10 06-07-2016 00:45:00 15.2 C 79 % 11.59 C
11 06-07-2016 00:50:00 15.2 C 80 % 11.78 C
12 06-07-2016 00:55:00 15.1 C 80 % 11.68 C
13 06-07-2016 01:00:00 14.9 C 81 % 11.67 C
14 06-07-2016 01:05:00 14.7 C 81 % 11.48 C
15 06-07-2016 01:10:00 14.4 C 82 % 11.37 C
16 06-07-2016 01:15:00 14.3 C 83 % 11.45 C
17 06-07-2016 01:20:00 14.1 C 84 % 11.44 C
18 06-07-2016 01:25:00 13.9 C 84 % 11.24 C
19 06-07-2016 01:30:00 13.8 C 85 % 11.32 C
20 06-07-2016 01:35:00 13.6 C 85 % 11.13 C
21 06-07-2016 01:40:00 13.4 C 86 % 11.11 C
22 06-07-2016 01:45:00 13.3 C 86 % 11.01 C
23 06-07-2016 01:50:00 13.2 C 87 % 11.09 C
24 06-07-2016 01:55:00 13.2 C 87 % 11.09 C
25 06-07-2016 02:00:00 13.1 C 87 % 10.99 C
Sensor: Nr:Datum:Temp:Feuchte:Taupunkt:
Aussen-T/F 26 06-07-2016 02:05:00 13 C 87 % 10.89 C
27 06-07-2016 02:10:00 12.9 C 87 % 10.79 C
28 06-07-2016 02:15:00 12.9 C 87 % 10.79 C
29 06-07-2016 02:20:00 12.9 C 87 % 10.79 C
30 06-07-2016 02:25:00 12.9 C 87 % 10.79 C
31 06-07-2016 02:30:00 12.8 C 87 % 10.69 C
32 06-07-2016 02:35:00 12.8 C 87 % 10.69 C
33 06-07-2016 02:40:00 12.8 C 87 % 10.69 C
34 06-07-2016 02:45:00 12.7 C 87 % 10.59 C
35 06-07-2016 02:50:00 12.7 C 87 % 10.59 C
36 06-07-2016 02:55:00 12.7 C 87 % 10.59 C
37 06-07-2016 03:00:00 12.6 C 88 % 10.67 C
38 06-07-2016 03:05:00 12.5 C 88 % 10.57 C
39 06-07-2016 03:10:00 12.4 C 88 % 10.47 C
40 06-07-2016 03:15:00 12.3 C 88 % 10.37 C
41 06-07-2016 03:20:00 12.3 C 89 % 10.54 C
42 06-07-2016 03:25:00 12.2 C 89 % 10.44 C
43 06-07-2016 03:30:00 12.1 C 89 % 10.34 C
44 06-07-2016 03:35:00 11.9 C 89 % 10.15 C
45 06-07-2016 03:40:00 11.8 C 89 % 10.05 C
46 06-07-2016 03:45:00 11.7 C 90 % 10.12 C
47 06-07-2016 03:50:00 11.6 C 90 % 10.02 C
48 06-07-2016 03:55:00 11.5 C 90 % 9.92 C
49 06-07-2016 04:00:00 11.4 C 90 % 9.82 C
50 06-07-2016 04:05:00 11.3 C 91 % 9.89 C
Sensor: Nr:Datum:Temp:Feuchte:Taupunkt:
Aussen-T/F 51 06-07-2016 04:10:00 11.3 C 91 % 9.89 C
52 06-07-2016 04:15:00 11.2 C 91 % 9.79 C
53 06-07-2016 04:20:00 11.1 C 91 % 9.69 C
54 06-07-2016 04:25:00 11.1 C 91 % 9.69 C
55 06-07-2016 04:30:00 11 C 91 % 9.59 C
56 06-07-2016 04:35:00 11 C 91 % 9.59 C
57 06-07-2016 04:40:00 10.9 C 91 % 9.49 C
58 06-07-2016 04:45:00 10.9 C 91 % 9.49 C
59 06-07-2016 04:50:00 10.8 C 92 % 9.55 C
60 06-07-2016 04:55:00 10.8 C 92 % 9.55 C
61 06-07-2016 05:00:00 10.8 C 92 % 9.55 C
62 06-07-2016 05:05:00 10.8 C 92 % 9.55 C
63 06-07-2016 05:10:00 10.7 C 92 % 9.45 C
64 06-07-2016 05:15:00 10.7 C 92 % 9.45 C
65 06-07-2016 05:20:00 10.7 C 92 % 9.45 C
66 06-07-2016 05:25:00 10.7 C 92 % 9.45 C
67 06-07-2016 05:30:00 10.7 C 92 % 9.45 C
68 06-07-2016 05:35:00 10.6 C 92 % 9.36 C
69 06-07-2016 05:40:00 10.6 C 92 % 9.36 C
70 06-07-2016 05:45:00 10.6 C 92 % 9.36 C
71 06-07-2016 05:50:00 10.6 C 92 % 9.36 C
72 06-07-2016 05:55:00 10.6 C 92 % 9.36 C
73 06-07-2016 06:00:00 10.6 C 92 % 9.36 C
74 06-07-2016 06:05:00 10.6 C 92 % 9.36 C
75 06-07-2016 06:10:00 10.6 C 92 % 9.36 C
Sensor: Nr:Datum:Temp:Feuchte:Taupunkt:
Aussen-T/F 76 06-07-2016 06:15:00 10.6 C 92 % 9.36 C
77 06-07-2016 06:20:00 10.6 C 92 % 9.36 C
78 06-07-2016 06:25:00 10.6 C 92 % 9.36 C
79 06-07-2016 06:30:00 10.6 C 92 % 9.36 C
80 06-07-2016 06:35:00 10.6 C 93 % 9.52 C
81 06-07-2016 06:40:00 10.6 C 92 % 9.36 C
82 06-07-2016 06:45:00 10.6 C 92 % 9.36 C
83 06-07-2016 06:50:00 10.6 C 92 % 9.36 C
84 06-07-2016 06:55:00 10.7 C 93 % 9.62 C
85 06-07-2016 07:00:00 10.7 C 93 % 9.62 C
86 06-07-2016 07:05:00 10.7 C 93 % 9.62 C
87 06-07-2016 07:10:00 10.8 C 93 % 9.71 C
88 06-07-2016 07:15:00 10.8 C 93 % 9.71 C
89 06-07-2016 07:20:00 10.9 C 93 % 9.81 C
90 06-07-2016 07:25:00 11 C 93 % 9.91 C
91 06-07-2016 07:30:00 11.1 C 93 % 10.01 C
92 06-07-2016 07:35:00 11.3 C 93 % 10.21 C
93 06-07-2016 07:40:00 11.4 C 93 % 10.31 C
94 06-07-2016 07:45:00 11.4 C 92 % 10.15 C
95 06-07-2016 07:50:00 11.5 C 92 % 10.25 C
96 06-07-2016 07:55:00 11.7 C 92 % 10.44 C
97 06-07-2016 08:00:00 11.9 C 91 % 10.48 C
98 06-07-2016 08:05:00 12.2 C 91 % 10.78 C
99 06-07-2016 08:10:00 12.3 C 90 % 10.71 C
100 06-07-2016 08:15:00 12.4 C 90 % 10.81 C
Sensor: Nr:Datum:Temp:Feuchte:Taupunkt:
Aussen-T/F 101 06-07-2016 08:20:00 12.6 C 89 % 10.84 C
102 06-07-2016 08:25:00 12.9 C 87 % 10.79 C
103 06-07-2016 08:30:00 13.2 C 85 % 10.74 C
104 06-07-2016 08:35:00 13.5 C 85 % 11.03 C
105 06-07-2016 08:40:00 13.7 C 85 % 11.23 C
106 06-07-2016 08:45:00 13.8 C 83 % 10.97 C
107 06-07-2016 08:50:00 14.1 C 85 % 11.62 C
108 06-07-2016 08:55:00 14.3 C 83 % 11.45 C
109 06-07-2016 09:00:00 14.4 C 81 % 11.18 C
110 06-07-2016 09:05:00 14.6 C 81 % 11.38 C
111 06-07-2016 09:10:00 14.8 C 82 % 11.76 C
112 06-07-2016 09:15:00 14.9 C 82 % 11.86 C
113 06-07-2016 09:20:00 15.1 C 80 % 11.68 C
114 06-07-2016 09:25:00 15.1 C 78 % 11.3 C
115 06-07-2016 09:30:00 15.2 C 77 % 11.2 C
116 06-07-2016 09:35:00 15.2 C 77 % 11.2 C
117 06-07-2016 09:40:00 15.3 C 77 % 11.3 C
118 06-07-2016 09:45:00 15.4 C 78 % 11.59 C
119 06-07-2016 09:50:00 15.5 C 76 % 11.29 C
120 06-07-2016 09:55:00 15.7 C 77 % 11.68 C
121 06-07-2016 10:00:00 16 C 78 % 12.17 C
122 06-07-2016 10:05:00 16.2 C 75 % 11.77 C
123 06-07-2016 10:10:00 16.4 C 78 % 12.56 C
124 06-07-2016 10:15:00 16.6 C 76 % 12.36 C
125 06-07-2016 10:20:00 16.8 C 74 % 12.14 C
Sensor: Nr:Datum:Temp:Feuchte:Taupunkt:
Aussen-T/F 126 06-07-2016 10:25:00 17 C 74 % 12.34 C
127 06-07-2016 10:30:00 17.3 C 73 % 12.42 C
128 06-07-2016 10:35:00 17.5 C 73 % 12.61 C
129 06-07-2016 10:40:00 17.8 C 70 % 12.26 C
130 06-07-2016 10:45:00 17.9 C 70 % 12.35 C
131 06-07-2016 10:50:00 17.9 C 70 % 12.35 C
132 06-07-2016 10:55:00 17.9 C 69 % 12.14 C
133 06-07-2016 11:00:00 17.9 C 73 % 12.99 C
134 06-07-2016 11:05:00 17.9 C 72 % 12.78 C
135 06-07-2016 11:10:00 17.8 C 76 % 13.52 C
136 06-07-2016 11:15:00 17.7 C 72 % 12.59 C
137 06-07-2016 11:20:00 17.5 C 71 % 12.19 C
138 06-07-2016 11:25:00 17.4 C 72 % 12.3 C
139 06-07-2016 11:30:00 17.4 C 72 % 12.3 C
140 06-07-2016 11:35:00 17.6 C 71 % 12.28 C
141 06-07-2016 11:40:00 17.6 C 72 % 12.5 C
142 06-07-2016 11:45:00 17.7 C 74 % 13.01 C
143 06-07-2016 11:50:00 17.7 C 75 % 13.22 C
144 06-07-2016 11:55:00 17.8 C 77 % 13.72 C
145 06-07-2016 12:00:00 17.7 C 77 % 13.62 C
146 06-07-2016 12:05:00 17.6 C 74 % 12.91 C
147 06-07-2016 12:10:00 17.6 C 72 % 12.5 C
148 06-07-2016 12:15:00 17.8 C 72 % 12.69 C
149 06-07-2016 12:20:00 18 C 71 % 12.67 C
150 06-07-2016 12:25:00 18.3 C 71 % 12.95 C
Sensor: Nr:Datum:Temp:Feuchte:Taupunkt:
Aussen-T/F 151 06-07-2016 12:30:00 18.4 C 68 % 12.39 C
152 06-07-2016 12:35:00 18.6 C 71 % 13.24 C
153 06-07-2016 12:40:00 18.8 C 72 % 13.65 C
154 06-07-2016 12:45:00 18.8 C 69 % 13 C
155 06-07-2016 12:50:00 18.9 C 68 % 12.87 C
156 06-07-2016 12:55:00 18.9 C 69 % 13.09 C
157 06-07-2016 13:00:00 18.9 C 68 % 12.87 C
158 06-07-2016 13:05:00 18.8 C 68 % 12.77 C
159 06-07-2016 13:10:00 18.8 C 72 % 13.65 C
160 06-07-2016 13:15:00 18.9 C 72 % 13.74 C
161 06-07-2016 13:20:00 19 C 69 % 13.19 C
162 06-07-2016 13:25:00 19.1 C 67 % 12.83 C
163 06-07-2016 13:30:00 19.3 C 67 % 13.02 C
164 06-07-2016 13:35:00 19.7 C 67 % 13.4 C
165 06-07-2016 13:40:00 19.9 C 67 % 13.59 C
166 06-07-2016 13:45:00 19.9 C 63 % 12.65 C
167 06-07-2016 13:50:00 19.9 C 65 % 13.13 C
168 06-07-2016 13:55:00 19.9 C 67 % 13.59 C
169 06-07-2016 14:00:00 19.8 C 65 % 13.03 C
170 06-07-2016 14:05:00 19.8 C 66 % 13.27 C
171 06-07-2016 14:10:00 19.7 C 65 % 12.94 C
172 06-07-2016 14:15:00 19.6 C 65 % 12.84 C
173 06-07-2016 14:20:00 19.6 C 66 % 13.08 C
174 06-07-2016 14:25:00 19.6 C 72 % 14.42 C
175 06-07-2016 14:30:00 19.7 C 65 % 12.94 C
Sensor: Nr:Datum:Temp:Feuchte:Taupunkt:
Aussen-T/F 176 06-07-2016 14:35:00 19.8 C 65 % 13.03 C
177 06-07-2016 14:40:00 19.9 C 64 % 12.89 C
178 06-07-2016 14:45:00 20 C 68 % 13.92 C
179 06-07-2016 14:50:00 20 C 66 % 13.46 C
180 06-07-2016 14:55:00 20.1 C 70 % 14.46 C
181 06-07-2016 15:00:00 20.2 C 67 % 13.88 C
182 06-07-2016 15:05:00 20.4 C 65 % 13.6 C
183 06-07-2016 15:10:00 20.6 C 64 % 13.55 C
184 06-07-2016 15:15:00 20.6 C 63 % 13.31 C
185 06-07-2016 15:20:00 20.7 C 62 % 13.16 C
186 06-07-2016 15:25:00 20.8 C 61 % 13.01 C
187 06-07-2016 15:30:00 21.1 C 58 % 12.52 C
188 06-07-2016 15:35:00 21.1 C 62 % 13.54 C
189 06-07-2016 15:40:00 20.9 C 64 % 13.84 C
190 06-07-2016 15:45:00 20.9 C 61 % 13.1 C
191 06-07-2016 15:50:00 21.2 C 59 % 12.87 C
192 06-07-2016 15:55:00 21.3 C 57 % 12.44 C
193 06-07-2016 16:00:00 21.3 C 55 % 11.9 C
194 06-07-2016 16:05:00 21.4 C 56 % 12.27 C
195 06-07-2016 16:10:00 21.6 C 59 % 13.25 C
196 06-07-2016 16:15:00 21.8 C 57 % 12.91 C
197 06-07-2016 16:20:00 22.3 C 52 % 11.97 C
198 06-07-2016 16:25:00 22.6 C 49 % 11.35 C
199 06-07-2016 16:30:00 22.3 C 49 % 11.08 C
200 06-07-2016 16:35:00 22.2 C 50 % 11.29 C
Sensor: Nr:Datum:Temp:Feuchte:Taupunkt:
Aussen-T/F 201 06-07-2016 16:40:00 22.4 C 50 % 11.47 C
202 06-07-2016 16:45:00 22.7 C 51 % 12.05 C
203 06-07-2016 16:50:00 22.9 C 49 % 11.63 C
204 06-07-2016 16:55:00 22.9 C 49 % 11.63 C
205 06-07-2016 17:00:00 22.7 C 46 % 10.49 C
206 06-07-2016 17:05:00 22.3 C 47 % 10.45 C
207 06-07-2016 17:10:00 22.2 C 50 % 11.29 C
208 06-07-2016 17:15:00 22.4 C 47 % 10.54 C
209 06-07-2016 17:20:00 22.6 C 48 % 11.04 C
210 06-07-2016 17:25:00 22.9 C 46 % 10.67 C
211 06-07-2016 17:30:00 23.5 C 44 % 10.55 C
212 06-07-2016 17:35:00 23.7 C 45 % 11.07 C
213 06-07-2016 17:40:00 23.6 C 43 % 10.3 C
214 06-07-2016 17:45:00 23.2 C 48 % 11.59 C
215 06-07-2016 17:50:00 23.3 C 46 % 11.04 C
216 06-07-2016 17:55:00 23.3 C 48 % 11.68 C
217 06-07-2016 18:00:00 23.3 C 46 % 11.04 C
218 06-07-2016 18:05:00 23.2 C 47 % 11.27 C
219 06-07-2016 18:10:00 22.8 C 49 % 11.53 C
220 06-07-2016 18:15:00 22.7 C 48 % 11.13 C
221 06-07-2016 18:20:00 22.8 C 48 % 11.22 C
222 06-07-2016 18:25:00 22.8 C 50 % 11.84 C
223 06-07-2016 18:30:00 23 C 48 % 11.41 C
224 06-07-2016 18:35:00 23.1 C 48 % 11.5 C
225 06-07-2016 18:40:00 23.2 C 47 % 11.27 C
Sensor: Nr:Datum:Temp:Feuchte:Taupunkt:
Aussen-T/F 226 06-07-2016 18:45:00 23.2 C 48 % 11.59 C
227 06-07-2016 18:50:00 23.2 C 49 % 11.9 C
228 06-07-2016 18:55:00 23.1 C 49 % 11.81 C
229 06-07-2016 19:00:00 23 C 49 % 11.72 C
230 06-07-2016 19:05:00 22.8 C 50 % 11.84 C
231 06-07-2016 19:10:00 22.7 C 51 % 12.05 C
232 06-07-2016 19:15:00 22.7 C 51 % 12.05 C
233 06-07-2016 19:20:00 22.6 C 52 % 12.25 C
234 06-07-2016 19:25:00 22.3 C 53 % 12.26 C
235 06-07-2016 19:30:00 22.2 C 53 % 12.17 C
236 06-07-2016 19:35:00 22.1 C 52 % 11.79 C
237 06-07-2016 19:40:00 21.9 C 53 % 11.89 C
238 06-07-2016 19:45:00 21.7 C 55 % 12.27 C
239 06-07-2016 19:50:00 21.5 C 55 % 12.08 C
240 06-07-2016 19:55:00 21.3 C 55 % 11.9 C
241 06-07-2016 20:00:00 21.1 C 56 % 11.99 C
242 06-07-2016 20:05:00 20.9 C 57 % 12.07 C
243 06-07-2016 20:10:00 20.8 C 58 % 12.24 C
244 06-07-2016 20:15:00 20.8 C 58 % 12.24 C
245 06-07-2016 20:20:00 20.8 C 58 % 12.24 C
246 06-07-2016 20:25:00 20.9 C 57 % 12.07 C
247 06-07-2016 20:30:00 20.8 C 57 % 11.97 C
248 06-07-2016 20:35:00 20.7 C 58 % 12.15 C
249 06-07-2016 20:40:00 20.6 C 60 % 12.57 C
250 06-07-2016 20:45:00 20.4 C 60 % 12.38 C
Sensor: Nr:Datum:Temp:Feuchte:Taupunkt:
Aussen-T/F 251 06-07-2016 20:50:00 20.3 C 63 % 13.03 C
252 06-07-2016 20:55:00 20.2 C 65 % 13.41 C
253 06-07-2016 21:00:00 19.8 C 62 % 12.31 C
254 06-07-2016 21:05:00 19.6 C 63 % 12.37 C
255 06-07-2016 21:10:00 19.3 C 65 % 12.56 C
256 06-07-2016 21:15:00 18.9 C 67 % 12.64 C
257 06-07-2016 21:20:00 18.7 C 70 % 13.12 C
258 06-07-2016 21:25:00 18.2 C 70 % 12.64 C
259 06-07-2016 21:30:00 17.8 C 73 % 12.9 C
260 06-07-2016 21:35:00 17.4 C 74 % 12.72 C
261 06-07-2016 21:40:00 17.1 C 76 % 12.84 C
262 06-07-2016 21:45:00 16.8 C 76 % 12.55 C
263 06-07-2016 21:50:00 16.6 C 77 % 12.55 C
264 06-07-2016 21:55:00 16.4 C 78 % 12.56 C
265 06-07-2016 22:00:00 16.3 C 77 % 12.26 C
266 06-07-2016 22:05:00 16.2 C 78 % 12.36 C
267 06-07-2016 22:10:00 16.1 C 78 % 12.27 C
268 06-07-2016 22:15:00 16 C 78 % 12.17 C
269 06-07-2016 22:20:00 15.9 C 79 % 12.27 C
270 06-07-2016 22:25:00 15.8 C 78 % 11.97 C
271 06-07-2016 22:30:00 15.7 C 78 % 11.88 C
272 06-07-2016 22:35:00 15.7 C 79 % 12.07 C
273 06-07-2016 22:40:00 15.6 C 79 % 11.97 C
274 06-07-2016 22:45:00 15.5 C 80 % 12.07 C
275 06-07-2016 22:50:00 15.4 C 80 % 11.97 C
Sensor: Nr:Datum:Temp:Feuchte:Taupunkt:
Aussen-T/F 276 06-07-2016 22:55:00 15.3 C 80 % 11.87 C
277 06-07-2016 23:00:00 15.3 C 79 % 11.68 C
278 06-07-2016 23:05:00 15.3 C 80 % 11.87 C
279 06-07-2016 23:10:00 15.2 C 81 % 11.96 C
280 06-07-2016 23:15:00 15.2 C 81 % 11.96 C
281 06-07-2016 23:20:00 15 C 82 % 11.95 C
282 06-07-2016 23:25:00 14.9 C 82 % 11.86 C
283 06-07-2016 23:30:00 14.8 C 83 % 11.94 C
284 06-07-2016 23:35:00 14.6 C 83 % 11.75 C
285 06-07-2016 23:40:00 14.4 C 83 % 11.55 C
286 06-07-2016 23:45:00 14.3 C 84 % 11.64 C
287 06-07-2016 23:50:00 14.2 C 84 % 11.54 C
288 06-07-2016 23:55:00 14 C 85 % 11.52 C
289 07-07-2016 00:00:00 13.8 C 85 % 11.32 C
290 07-07-2016 00:05:00 13.7 C 85 % 11.23 C
291 07-07-2016 00:10:00 13.6 C 85 % 11.13 C
292 07-07-2016 00:15:00 13.5 C 86 % 11.21 C
293 07-07-2016 00:20:00 13.4 C 86 % 11.11 C
294 07-07-2016 00:25:00 13.3 C 86 % 11.01 C
295 07-07-2016 00:30:00 13.2 C 87 % 11.09 C
296 07-07-2016 00:35:00 13.1 C 87 % 10.99 C
297 07-07-2016 00:40:00 13.1 C 87 % 10.99 C
298 07-07-2016 00:45:00 13 C 87 % 10.89 C
299 07-07-2016 00:50:00 13 C 88 % 11.06 C
300 07-07-2016 00:55:00 12.9 C 88 % 10.96 C
Sensor: Nr:Datum:Temp:Feuchte:Taupunkt:
Aussen-T/F 301 07-07-2016 01:00:00 12.9 C 88 % 10.96 C
302 07-07-2016 01:05:00 12.8 C 88 % 10.86 C
303 07-07-2016 01:10:00 12.8 C 89 % 11.03 C
304 07-07-2016 01:15:00 12.7 C 89 % 10.94 C
305 07-07-2016 01:20:00 12.7 C 89 % 10.94 C
306 07-07-2016 01:25:00 12.6 C 89 % 10.84 C
307 07-07-2016 01:30:00 12.5 C 89 % 10.74 C
308 07-07-2016 01:35:00 12.4 C 90 % 10.81 C
309 07-07-2016 01:40:00 12.4 C 90 % 10.81 C
310 07-07-2016 01:45:00 12.4 C 90 % 10.81 C
311 07-07-2016 01:50:00 12.3 C 90 % 10.71 C
312 07-07-2016 01:55:00 12.3 C 90 % 10.71 C
313 07-07-2016 02:00:00 12.3 C 91 % 10.87 C
314 07-07-2016 02:05:00 12.2 C 91 % 10.78 C
315 07-07-2016 02:10:00 12.2 C 91 % 10.78 C
316 07-07-2016 02:15:00 12.2 C 91 % 10.78 C
317 07-07-2016 02:20:00 12.2 C 91 % 10.78 C
318 07-07-2016 02:25:00 12.1 C 91 % 10.68 C
319 07-07-2016 02:30:00 12.1 C 92 % 10.84 C
320 07-07-2016 02:35:00 12.1 C 92 % 10.84 C
321 07-07-2016 02:40:00 11.9 C 92 % 10.64 C
322 07-07-2016 02:45:00 11.9 C 92 % 10.64 C
323 07-07-2016 02:50:00 11.8 C 91 % 10.38 C
324 07-07-2016 02:55:00 11.8 C 92 % 10.54 C
325 07-07-2016 03:00:00 11.7 C 92 % 10.44 C
Sensor: Nr:Datum:Temp:Feuchte:Taupunkt:
Aussen-T/F 326 07-07-2016 03:05:00 11.7 C 92 % 10.44 C
327 07-07-2016 03:10:00 11.6 C 92 % 10.35 C
328 07-07-2016 03:15:00 11.5 C 92 % 10.25 C
329 07-07-2016 03:20:00 11.4 C 92 % 10.15 C
330 07-07-2016 03:25:00 11.4 C 92 % 10.15 C
331 07-07-2016 03:30:00 11.3 C 93 % 10.21 C
332 07-07-2016 03:35:00 11.3 C 93 % 10.21 C
333 07-07-2016 03:40:00 11.3 C 93 % 10.21 C
334 07-07-2016 03:45:00 11.3 C 93 % 10.21 C
335 07-07-2016 03:50:00 11.3 C 93 % 10.21 C
336 07-07-2016 03:55:00 11.3 C 93 % 10.21 C
337 07-07-2016 04:00:00 11.3 C 93 % 10.21 C
338 07-07-2016 04:05:00 11.2 C 93 % 10.11 C
339 07-07-2016 04:10:00 11.2 C 93 % 10.11 C
340 07-07-2016 04:15:00 11.2 C 93 % 10.11 C
341 07-07-2016 04:20:00 11.2 C 93 % 10.11 C
342 07-07-2016 04:25:00 11.1 C 93 % 10.01 C
343 07-07-2016 04:30:00 11.1 C 93 % 10.01 C
344 07-07-2016 04:35:00 11 C 93 % 9.91 C
345 07-07-2016 04:40:00 11.1 C 94 % 10.17 C
346 07-07-2016 04:45:00 11.1 C 94 % 10.17 C
347 07-07-2016 04:50:00 11.1 C 94 % 10.17 C
348 07-07-2016 04:55:00 11 C 94 % 10.07 C
349 07-07-2016 05:00:00 10.9 C 94 % 9.97 C
350 07-07-2016 05:05:00 10.9 C 94 % 9.97 C
Sensor: Nr:Datum:Temp:Feuchte:Taupunkt:
Aussen-T/F 351 07-07-2016 05:10:00 10.9 C 94 % 9.97 C
352 07-07-2016 05:15:00 10.9 C 94 % 9.97 C
353 07-07-2016 05:20:00 10.8 C 94 % 9.87 C
354 07-07-2016 05:25:00 10.8 C 94 % 9.87 C
355 07-07-2016 05:30:00 10.8 C 94 % 9.87 C
356 07-07-2016 05:35:00 10.7 C 94 % 9.77 C
357 07-07-2016 05:40:00 10.7 C 94 % 9.77 C
358 07-07-2016 05:45:00 10.7 C 94 % 9.77 C
359 07-07-2016 05:50:00 10.6 C 94 % 9.68 C
360 07-07-2016 05:55:00 10.6 C 94 % 9.68 C
361 07-07-2016 06:00:00 10.6 C 94 % 9.68 C
362 07-07-2016 06:05:00 10.6 C 94 % 9.68 C
363 07-07-2016 06:10:00 10.7 C 95 % 9.93 C
364 07-07-2016 06:15:00 10.7 C 94 % 9.77 C
365 07-07-2016 06:20:00 10.7 C 94 % 9.77 C
366 07-07-2016 06:25:00 10.7 C 94 % 9.77 C
367 07-07-2016 06:30:00 10.7 C 95 % 9.93 C
368 07-07-2016 06:35:00 10.8 C 95 % 10.03 C
369 07-07-2016 06:40:00 10.8 C 95 % 10.03 C
370 07-07-2016 06:45:00 10.9 C 95 % 10.13 C
371 07-07-2016 06:50:00 10.9 C 95 % 10.13 C
372 07-07-2016 06:55:00 10.9 C 94 % 9.97 C
373 07-07-2016 07:00:00 10.9 C 94 % 9.97 C
374 07-07-2016 07:05:00 10.9 C 94 % 9.97 C
375 07-07-2016 07:10:00 10.9 C 94 % 9.97 C
Sensor: Nr:Datum:Temp:Feuchte:Taupunkt:
Aussen-T/F 376 07-07-2016 07:15:00 10.9 C 95 % 10.13 C
377 07-07-2016 07:20:00 10.9 C 95 % 10.13 C
378 07-07-2016 07:25:00 11 C 95 % 10.23 C
379 07-07-2016 07:30:00 11.1 C 95 % 10.33 C
380 07-07-2016 07:35:00 11.1 C 95 % 10.33 C
381 07-07-2016 07:40:00 11.2 C 95 % 10.43 C
382 07-07-2016 07:45:00 11.2 C 95 % 10.43 C
383 07-07-2016 07:50:00 11.3 C 95 % 10.53 C
384 07-07-2016 07:55:00 11.3 C 95 % 10.53 C
385 07-07-2016 08:00:00 11.4 C 95 % 10.63 C
386 07-07-2016 08:05:00 11.6 C 95 % 10.83 C
387 07-07-2016 08:10:00 11.7 C 95 % 10.93 C
388 07-07-2016 08:15:00 11.8 C 95 % 11.03 C
389 07-07-2016 08:20:00 11.9 C 95 % 11.13 C
390 07-07-2016 08:25:00 12 C 95 % 11.22 C
391 07-07-2016 08:30:00 12.1 C 95 % 11.32 C
392 07-07-2016 08:35:00 12.2 C 95 % 11.42 C
393 07-07-2016 08:40:00 12.3 C 95 % 11.52 C
394 07-07-2016 08:45:00 12.4 C 95 % 11.62 C
395 07-07-2016 08:50:00 12.6 C 95 % 11.82 C
396 07-07-2016 08:55:00 12.7 C 95 % 11.92 C
397 07-07-2016 09:00:00 12.8 C 95 % 12.02 C
398 07-07-2016 09:05:00 12.9 C 95 % 12.12 C
399 07-07-2016 09:10:00 13.1 C 94 % 12.16 C
400 07-07-2016 09:15:00 13.2 C 95 % 12.42 C
Sensor: Nr:Datum:Temp:Feuchte:Taupunkt:
Aussen-T/F 401 07-07-2016 09:20:00 13.3 C 94 % 12.36 C
402 07-07-2016 09:25:00 13.4 C 94 % 12.45 C
403 07-07-2016 09:30:00 13.6 C 94 % 12.65 C
404 07-07-2016 09:35:00 13.6 C 93 % 12.49 C
405 07-07-2016 09:40:00 13.8 C 93 % 12.69 C
406 07-07-2016 09:45:00 13.9 C 92 % 12.62 C
407 07-07-2016 09:50:00 14.1 C 92 % 12.82 C
408 07-07-2016 09:55:00 14.3 C 92 % 13.02 C
409 07-07-2016 10:00:00 14.4 C 91 % 12.95 C
410 07-07-2016 10:05:00 14.6 C 90 % 12.98 C
411 07-07-2016 10:10:00 14.8 C 90 % 13.18 C
412 07-07-2016 10:15:00 15.1 C 89 % 13.3 C
413 07-07-2016 10:20:00 15.4 C 88 % 13.42 C
414 07-07-2016 10:25:00 15.8 C 86 % 13.46 C
415 07-07-2016 10:30:00 16.3 C 85 % 13.77 C
416 07-07-2016 10:35:00 16.8 C 85 % 14.26 C
417 07-07-2016 10:40:00 17.2 C 84 % 14.47 C
418 07-07-2016 10:45:00 17.6 C 78 % 13.72 C
419 07-07-2016 10:50:00 18 C 80 % 14.5 C
420 07-07-2016 10:55:00 18.3 C 79 % 14.6 C
421 07-07-2016 11:00:00 18.4 C 77 % 14.3 C
422 07-07-2016 11:05:00 18.6 C 76 % 14.29 C
423 07-07-2016 11:10:00 18.7 C 80 % 15.18 C
424 07-07-2016 11:15:00 18.6 C 79 % 14.89 C
425 07-07-2016 11:20:00 18.4 C 77 % 14.3 C
Sensor: Nr:Datum:Temp:Feuchte:Taupunkt:
Aussen-T/F 426 07-07-2016 11:25:00 18.3 C 76 % 14 C
427 07-07-2016 11:30:00 18.2 C 74 % 13.49 C
428 07-07-2016 11:35:00 18.2 C 72 % 13.07 C
429 07-07-2016 11:40:00 18.3 C 75 % 13.79 C
430 07-07-2016 11:45:00 18.6 C 71 % 13.24 C
431 07-07-2016 11:50:00 18.8 C 67 % 12.55 C
432 07-07-2016 11:55:00 18.9 C 67 % 12.64 C
433 07-07-2016 12:00:00 19.2 C 68 % 13.15 C
434 07-07-2016 12:05:00 19.3 C 65 % 12.56 C
435 07-07-2016 12:10:00 19.4 C 65 % 12.66 C
436 07-07-2016 12:15:00 19.4 C 65 % 12.66 C
437 07-07-2016 12:20:00 19.4 C 64 % 12.42 C
438 07-07-2016 12:25:00 19.4 C 67 % 13.12 C
439 07-07-2016 12:30:00 19.6 C 66 % 13.08 C
440 07-07-2016 12:35:00 19.6 C 58 % 11.12 C
441 07-07-2016 12:40:00 19.7 C 60 % 11.72 C
442 07-07-2016 12:45:00 19.8 C 61 % 12.07 C
443 07-07-2016 12:50:00 19.9 C 65 % 13.13 C
444 07-07-2016 12:55:00 19.9 C 61 % 12.16 C
445 07-07-2016 13:00:00 20 C 61 % 12.26 C
446 07-07-2016 13:05:00 20 C 63 % 12.75 C
447 07-07-2016 13:10:00 20 C 55 % 10.69 C
448 07-07-2016 13:15:00 20.2 C 56 % 11.15 C
449 07-07-2016 13:20:00 20.3 C 51 % 9.84 C
450 07-07-2016 13:25:00 20.6 C 52 % 10.41 C
Sensor: Nr:Datum:Temp:Feuchte:Taupunkt:
Aussen-T/F 451 07-07-2016 13:30:00 20.7 C 53 % 10.78 C
452 07-07-2016 13:35:00 20.9 C 50 % 10.1 C
453 07-07-2016 13:40:00 21.1 C 49 % 9.98 C
454 07-07-2016 13:45:00 21.3 C 51 % 10.76 C
455 07-07-2016 13:50:00 21.5 C 49 % 10.34 C
456 07-07-2016 13:55:00 21.7 C 49 % 10.53 C
457 07-07-2016 14:00:00 21.7 C 49 % 10.53 C
458 07-07-2016 14:05:00 21.7 C 49 % 10.53 C
459 07-07-2016 14:10:00 21.9 C 51 % 11.31 C
460 07-07-2016 14:15:00 22.1 C 48 % 10.58 C
461 07-07-2016 14:20:00 22.3 C 49 % 11.08 C
462 07-07-2016 14:25:00 22.6 C 49 % 11.35 C
463 07-07-2016 14:30:00 22.7 C 47 % 10.81 C
464 07-07-2016 14:35:00 22.8 C 52 % 12.43 C
465 07-07-2016 14:40:00 23.1 C 53 % 13 C
466 07-07-2016 14:45:00 23.2 C 48 % 11.59 C
467 07-07-2016 14:50:00 23.5 C 48 % 11.86 C
468 07-07-2016 14:55:00 23.7 C 49 % 12.36 C
469 07-07-2016 15:00:00 23.8 C 46 % 11.49 C
470 07-07-2016 15:05:00 23.8 C 50 % 12.76 C
471 07-07-2016 15:10:00 23.8 C 48 % 12.14 C
472 07-07-2016 15:15:00 23.8 C 49 % 12.45 C
473 07-07-2016 15:20:00 23.8 C 47 % 11.82 C
474 07-07-2016 15:25:00 23.8 C 54 % 13.94 C
475 07-07-2016 15:30:00 23.7 C 49 % 12.36 C
Sensor: Nr:Datum:Temp:Feuchte:Taupunkt:
Aussen-T/F 476 07-07-2016 15:35:00 23.7 C 47 % 11.73 C
477 07-07-2016 15:40:00 23.8 C 59 % 15.31 C
478 07-07-2016 15:45:00 23.9 C 51 % 13.15 C
479 07-07-2016 15:50:00 24.1 C 43 % 10.75 C
480 07-07-2016 15:55:00 24.3 C 44 % 11.27 C
481 07-07-2016 16:00:00 24.6 C 52 % 14.09 C
482 07-07-2016 16:05:00 24.7 C 54 % 14.77 C
483 07-07-2016 16:10:00 24.9 C 57 % 15.8 C
484 07-07-2016 16:15:00 25.1 C 53 % 14.85 C
485 07-07-2016 16:20:00 25.2 C 44 % 12.09 C
486 07-07-2016 16:25:00 25.1 C 45 % 12.34 C
487 07-07-2016 16:30:00 24.9 C 58 % 16.07 C
488 07-07-2016 16:35:00 24.8 C 42 % 11.02 C
489 07-07-2016 16:40:00 24.8 C 57 % 15.7 C
490 07-07-2016 16:45:00 24.9 C 54 % 14.95 C
491 07-07-2016 16:50:00 24.9 C 59 % 16.34 C
492 07-07-2016 16:55:00 24.9 C 63 % 17.37 C
493 07-07-2016 17:00:00 24.9 C 63 % 17.37 C
494 07-07-2016 17:05:00 24.8 C 62 % 17.02 C
495 07-07-2016 17:10:00 24.9 C 66 % 18.11 C
496 07-07-2016 17:15:00 24.9 C 60 % 16.6 C
497 07-07-2016 17:20:00 24.8 C 63 % 17.28 C
498 07-07-2016 17:25:00 24.8 C 61 % 16.77 C
499 07-07-2016 17:30:00 24.8 C 66 % 18.01 C
500 07-07-2016 17:35:00 24.9 C 64 % 17.62 C
Sensor: Nr:Datum:Temp:Feuchte:Taupunkt:
Aussen-T/F 501 07-07-2016 17:40:00 25.1 C 61 % 17.05 C
502 07-07-2016 17:45:00 24.9 C 61 % 16.86 C
503 07-07-2016 17:50:00 24.6 C 63 % 17.09 C
504 07-07-2016 17:55:00 24.2 C 63 % 16.71 C
505 07-07-2016 18:00:00 23.8 C 64 % 16.58 C
506 07-07-2016 18:05:00 23.5 C 67 % 17.02 C
507 07-07-2016 18:10:00 23.3 C 68 % 17.06 C
508 07-07-2016 18:15:00 23.3 C 67 % 16.83 C
509 07-07-2016 18:20:00 23.2 C 69 % 17.2 C
510 07-07-2016 18:25:00 23.3 C 70 % 17.52 C
511 07-07-2016 18:30:00 23.4 C 69 % 17.39 C
512 07-07-2016 18:35:00 23.8 C 70 % 18 C
513 07-07-2016 18:40:00 24 C 68 % 17.73 C
514 07-07-2016 18:45:00 24.1 C 65 % 17.11 C
515 07-07-2016 18:50:00 24.1 C 67 % 17.59 C
516 07-07-2016 18:55:00 23.9 C 67 % 17.4 C
517 07-07-2016 19:00:00 23.7 C 66 % 16.97 C
518 07-07-2016 19:05:00 23.5 C 67 % 17.02 C
519 07-07-2016 19:10:00 23.4 C 68 % 17.16 C
520 07-07-2016 19:15:00 23.6 C 64 % 16.39 C
521 07-07-2016 19:20:00 24 C 67 % 17.49 C
522 07-07-2016 19:25:00 24.4 C 68 % 18.11 C
523 07-07-2016 19:30:00 24.6 C 65 % 17.58 C
524 07-07-2016 19:35:00 24.2 C 64 % 16.96 C
525 07-07-2016 19:40:00 23.6 C 66 % 16.88 C
Sensor: Nr:Datum:Temp:Feuchte:Taupunkt:
Aussen-T/F 526 07-07-2016 19:45:00 23.1 C 68 % 16.87 C
527 07-07-2016 19:50:00 22.5 C 69 % 16.53 C
528 07-07-2016 19:55:00 22 C 70 % 16.28 C
529 07-07-2016 20:00:00 21.6 C 71 % 16.12 C
530 07-07-2016 20:05:00 21.3 C 73 % 16.26 C
531 07-07-2016 20:10:00 21.2 C 73 % 16.17 C
532 07-07-2016 20:15:00 21 C 74 % 16.19 C
533 07-07-2016 20:20:00 20.9 C 74 % 16.09 C
534 07-07-2016 20:25:00 20.8 C 75 % 16.21 C
535 07-07-2016 20:30:00 20.8 C 75 % 16.21 C
536 07-07-2016 20:35:00 20.8 C 75 % 16.21 C
537 07-07-2016 20:40:00 20.8 C 74 % 16 C
538 07-07-2016 20:45:00 20.7 C 75 % 16.11 C
539 07-07-2016 20:50:00 20.5 C 75 % 15.92 C
540 07-07-2016 20:55:00 20.3 C 75 % 15.72 C
541 07-07-2016 21:00:00 20.1 C 76 % 15.74 C
542 07-07-2016 21:05:00 19.8 C 76 % 15.45 C
543 07-07-2016 21:10:00 19.6 C 76 % 15.26 C
544 07-07-2016 21:15:00 19.4 C 77 % 15.27 C
545 07-07-2016 21:20:00 19.3 C 76 % 14.97 C
546 07-07-2016 21:25:00 19.1 C 76 % 14.77 C
547 07-07-2016 21:30:00 19 C 76 % 14.68 C
548 07-07-2016 21:35:00 18.9 C 76 % 14.58 C
549 07-07-2016 21:40:00 18.8 C 77 % 14.68 C
550 07-07-2016 21:45:00 18.7 C 78 % 14.79 C
Sensor: Nr:Datum:Temp:Feuchte:Taupunkt:
Aussen-T/F 551 07-07-2016 21:50:00 18.5 C 78 % 14.59 C
552 07-07-2016 21:55:00 18.3 C 79 % 14.6 C
553 07-07-2016 22:00:00 18.1 C 79 % 14.4 C
554 07-07-2016 22:05:00 17.8 C 81 % 14.5 C
555 07-07-2016 22:10:00 17.7 C 81 % 14.4 C
556 07-07-2016 22:15:00 17.6 C 81 % 14.3 C
557 07-07-2016 22:20:00 17.5 C 81 % 14.2 C
558 07-07-2016 22:25:00 17.4 C 82 % 14.3 C
559 07-07-2016 22:30:00 17.2 C 82 % 14.1 C
560 07-07-2016 22:35:00 17.1 C 82 % 14 C
561 07-07-2016 22:40:00 16.9 C 83 % 14 C
562 07-07-2016 22:45:00 16.8 C 83 % 13.9 C
563 07-07-2016 22:50:00 16.7 C 83 % 13.8 C
564 07-07-2016 22:55:00 16.6 C 84 % 13.89 C
565 07-07-2016 23:00:00 16.5 C 84 % 13.79 C
566 07-07-2016 23:05:00 16.3 C 84 % 13.59 C
567 07-07-2016 23:10:00 16.2 C 85 % 13.68 C
568 07-07-2016 23:15:00 15.9 C 85 % 13.38 C
569 07-07-2016 23:20:00 15.8 C 86 % 13.46 C
570 07-07-2016 23:25:00 15.8 C 86 % 13.46 C
571 07-07-2016 23:30:00 15.7 C 87 % 13.54 C
572 07-07-2016 23:35:00 15.7 C 88 % 13.72 C
573 07-07-2016 23:40:00 15.7 C 88 % 13.72 C
574 07-07-2016 23:45:00 15.6 C 88 % 13.62 C
575 07-07-2016 23:50:00 15.4 C 88 % 13.42 C
Sensor: Nr:Datum:Temp:Feuchte:Taupunkt:
Aussen-T/F 576 07-07-2016 23:55:00 15.4 C 88 % 13.42 C
577 08-07-2016 00:00:00 15.3 C 88 % 13.33 C
578 08-07-2016 00:05:00 15.2 C 87 % 13.05 C
579 08-07-2016 00:10:00 15.1 C 88 % 13.13 C
580 08-07-2016 00:15:00 14.9 C 88 % 12.93 C
581 08-07-2016 00:20:00 14.8 C 88 % 12.83 C
582 08-07-2016 00:25:00 14.8 C 88 % 12.83 C
583 08-07-2016 00:30:00 14.7 C 89 % 12.91 C
584 08-07-2016 00:35:00 14.6 C 89 % 12.81 C
585 08-07-2016 00:40:00 14.5 C 89 % 12.71 C
586 08-07-2016 00:45:00 14.4 C 89 % 12.61 C
587 08-07-2016 00:50:00 14.3 C 89 % 12.51 C
588 08-07-2016 00:55:00 14.3 C 89 % 12.51 C
589 08-07-2016 01:00:00 14.3 C 89 % 12.51 C
590 08-07-2016 01:05:00 14.2 C 89 % 12.41 C
591 08-07-2016 01:10:00 14.2 C 89 % 12.41 C
592 08-07-2016 01:15:00 14.1 C 89 % 12.32 C
593 08-07-2016 01:20:00 14 C 89 % 12.22 C
594 08-07-2016 01:25:00 13.9 C 89 % 12.12 C
595 08-07-2016 01:30:00 13.8 C 89 % 12.02 C
596 08-07-2016 01:35:00 13.8 C 89 % 12.02 C
597 08-07-2016 01:40:00 13.8 C 90 % 12.19 C
598 08-07-2016 01:45:00 13.8 C 90 % 12.19 C
599 08-07-2016 01:50:00 13.8 C 90 % 12.19 C
600 08-07-2016 01:55:00 13.9 C 90 % 12.29 C
Sensor: Nr:Datum:Temp:Feuchte:Taupunkt:
Aussen-T/F 601 08-07-2016 02:00:00 13.8 C 90 % 12.19 C
602 08-07-2016 02:05:00 13.8 C 90 % 12.19 C
603 08-07-2016 02:10:00 13.8 C 91 % 12.36 C
604 08-07-2016 02:15:00 13.9 C 91 % 12.46 C
605 08-07-2016 02:20:00 13.9 C 92 % 12.62 C
606 08-07-2016 02:25:00 14 C 92 % 12.72 C
607 08-07-2016 02:30:00 14 C 91 % 12.56 C
608 08-07-2016 02:35:00 13.9 C 91 % 12.46 C
609 08-07-2016 02:40:00 13.9 C 91 % 12.46 C
610 08-07-2016 02:45:00 13.8 C 92 % 12.52 C
611 08-07-2016 02:50:00 13.7 C 91 % 12.26 C
612 08-07-2016 02:55:00 13.6 C 91 % 12.16 C
613 08-07-2016 03:00:00 13.5 C 92 % 12.23 C
614 08-07-2016 03:05:00 13.4 C 91 % 11.96 C
615 08-07-2016 03:10:00 13.2 C 91 % 11.76 C
616 08-07-2016 03:15:00 13.1 C 92 % 11.83 C
617 08-07-2016 03:20:00 13.1 C 92 % 11.83 C
618 08-07-2016 03:25:00 13.1 C 92 % 11.83 C
619 08-07-2016 03:30:00 13 C 92 % 11.73 C
620 08-07-2016 03:35:00 12.9 C 92 % 11.63 C
621 08-07-2016 03:40:00 12.9 C 92 % 11.63 C
622 08-07-2016 03:45:00 12.8 C 92 % 11.53 C
623 08-07-2016 03:50:00 12.9 C 93 % 11.8 C
624 08-07-2016 03:55:00 12.9 C 93 % 11.8 C
625 08-07-2016 04:00:00 12.8 C 93 % 11.7 C
Sensor: Nr:Datum:Temp:Feuchte:Taupunkt:
Aussen-T/F 626 08-07-2016 04:05:00 12.8 C 93 % 11.7 C
627 08-07-2016 04:10:00 12.8 C 93 % 11.7 C
628 08-07-2016 04:15:00 12.8 C 93 % 11.7 C
629 08-07-2016 04:20:00 12.8 C 93 % 11.7 C
630 08-07-2016 04:25:00 12.8 C 93 % 11.7 C
631 08-07-2016 04:30:00 12.8 C 93 % 11.7 C
632 08-07-2016 04:35:00 12.8 C 93 % 11.7 C
633 08-07-2016 04:40:00 12.9 C 94 % 11.96 C
634 08-07-2016 04:45:00 12.9 C 94 % 11.96 C
635 08-07-2016 04:50:00 12.9 C 93 % 11.8 C
636 08-07-2016 04:55:00 12.8 C 93 % 11.7 C
637 08-07-2016 05:00:00 12.7 C 93 % 11.6 C
638 08-07-2016 05:05:00 12.7 C 94 % 11.76 C
639 08-07-2016 05:10:00 12.8 C 93 % 11.7 C
640 08-07-2016 05:15:00 12.7 C 93 % 11.6 C
641 08-07-2016 05:20:00 12.7 C 93 % 11.6 C
642 08-07-2016 05:25:00 12.6 C 93 % 11.5 C
643 08-07-2016 05:30:00 12.6 C 93 % 11.5 C
644 08-07-2016 05:35:00 12.5 C 93 % 11.4 C
645 08-07-2016 05:40:00 12.5 C 94 % 11.56 C
646 08-07-2016 05:45:00 12.5 C 94 % 11.56 C
647 08-07-2016 05:50:00 12.4 C 94 % 11.46 C
648 08-07-2016 05:55:00 12.5 C 94 % 11.56 C
649 08-07-2016 06:00:00 12.6 C 94 % 11.66 C
650 08-07-2016 06:05:00 12.7 C 94 % 11.76 C
Sensor: Nr:Datum:Temp:Feuchte:Taupunkt:
Aussen-T/F 651 08-07-2016 06:10:00 12.7 C 94 % 11.76 C
652 08-07-2016 06:15:00 12.7 C 94 % 11.76 C
653 08-07-2016 06:20:00 12.7 C 94 % 11.76 C
654 08-07-2016 06:25:00 12.7 C 94 % 11.76 C
655 08-07-2016 06:30:00 12.8 C 95 % 12.02 C
656 08-07-2016 06:35:00 12.9 C 95 % 12.12 C
657 08-07-2016 06:40:00 12.9 C 95 % 12.12 C
658 08-07-2016 06:45:00 13 C 94 % 12.06 C
659 08-07-2016 06:50:00 13 C 94 % 12.06 C
660 08-07-2016 06:55:00 13 C 94 % 12.06 C
661 08-07-2016 07:00:00 13 C 94 % 12.06 C
662 08-07-2016 07:05:00 13 C 94 % 12.06 C
663 08-07-2016 07:10:00 12.9 C 94 % 11.96 C
664 08-07-2016 07:15:00 13 C 94 % 12.06 C
665 08-07-2016 07:20:00 13 C 94 % 12.06 C
666 08-07-2016 07:25:00 13.1 C 94 % 12.16 C
667 08-07-2016 07:30:00 13.1 C 94 % 12.16 C
668 08-07-2016 07:35:00 13.2 C 94 % 12.26 C
669 08-07-2016 07:40:00 13.2 C 94 % 12.26 C
670 08-07-2016 07:45:00 13.3 C 94 % 12.36 C
671 08-07-2016 07:50:00 13.3 C 94 % 12.36 C
672 08-07-2016 07:55:00 13.4 C 94 % 12.45 C
673 08-07-2016 08:00:00 13.6 C 94 % 12.65 C
674 08-07-2016 08:05:00 13.7 C 94 % 12.75 C
675 08-07-2016 08:10:00 13.8 C 94 % 12.85 C
Sensor: Nr:Datum:Temp:Feuchte:Taupunkt:
Aussen-T/F 676 08-07-2016 08:15:00 13.9 C 94 % 12.95 C
677 08-07-2016 08:20:00 14.1 C 94 % 13.15 C
678 08-07-2016 08:25:00 14.3 C 94 % 13.35 C
679 08-07-2016 08:30:00 14.4 C 94 % 13.45 C
680 08-07-2016 08:35:00 14.6 C 93 % 13.48 C
681 08-07-2016 08:40:00 14.8 C 93 % 13.68 C
682 08-07-2016 08:45:00 14.9 C 93 % 13.78 C
683 08-07-2016 08:50:00 15.1 C 93 % 13.98 C
684 08-07-2016 08:55:00 15.2 C 92 % 13.91 C
685 08-07-2016 09:00:00 15.4 C 91 % 13.94 C
686 08-07-2016 09:05:00 15.6 C 91 % 14.14 C
687 08-07-2016 09:10:00 15.7 C 91 % 14.24 C
688 08-07-2016 09:15:00 15.8 C 91 % 14.33 C
689 08-07-2016 09:20:00 15.9 C 91 % 14.43 C
690 08-07-2016 09:25:00 16 C 91 % 14.53 C
691 08-07-2016 09:30:00 16.2 C 91 % 14.73 C
692 08-07-2016 09:35:00 16.3 C 91 % 14.83 C
693 08-07-2016 09:40:00 16.4 C 91 % 14.93 C
694 08-07-2016 09:45:00 16.6 C 91 % 15.13 C
695 08-07-2016 09:50:00 16.8 C 91 % 15.32 C
696 08-07-2016 09:55:00 17.1 C 91 % 15.62 C
697 08-07-2016 10:00:00 17.3 C 91 % 15.82 C
698 08-07-2016 10:05:00 17.6 C 90 % 15.94 C
699 08-07-2016 10:10:00 17.8 C 90 % 16.14 C
700 08-07-2016 10:15:00 18.2 C 89 % 16.36 C
Sensor: Nr:Datum:Temp:Feuchte:Taupunkt:
Aussen-T/F 701 08-07-2016 10:20:00 18.5 C 89 % 16.65 C
702 08-07-2016 10:25:00 18.8 C 89 % 16.95 C
703 08-07-2016 10:30:00 19.1 C 88 % 17.07 C
704 08-07-2016 10:35:00 19.4 C 88 % 17.36 C
705 08-07-2016 10:40:00 19.8 C 87 % 17.57 C
706 08-07-2016 10:45:00 20.2 C 83 % 17.22 C
707 08-07-2016 10:50:00 20.7 C 80 % 17.13 C
708 08-07-2016 10:55:00 21 C 81 % 17.61 C
709 08-07-2016 11:00:00 21.2 C 78 % 17.21 C
710 08-07-2016 11:05:00 21.4 C 73 % 16.36 C
711 08-07-2016 11:10:00 21.7 C 71 % 16.21 C
712 08-07-2016 11:15:00 22 C 73 % 16.94 C
713 08-07-2016 11:20:00 22.2 C 71 % 16.69 C
714 08-07-2016 11:25:00 22.4 C 66 % 15.74 C
715 08-07-2016 11:30:00 22.7 C 71 % 17.17 C
716 08-07-2016 11:35:00 22.9 C 69 % 16.91 C
717 08-07-2016 11:40:00 23.1 C 67 % 16.64 C
718 08-07-2016 11:45:00 23.2 C 69 % 17.2 C
719 08-07-2016 11:50:00 23.3 C 69 % 17.29 C
720 08-07-2016 11:55:00 23.2 C 67 % 16.73 C
721 08-07-2016 12:00:00 23.2 C 66 % 16.5 C
722 08-07-2016 12:05:00 23.2 C 67 % 16.73 C
723 08-07-2016 12:10:00 23.3 C 68 % 17.06 C
724 08-07-2016 12:15:00 23.4 C 68 % 17.16 C
725 08-07-2016 12:20:00 23.5 C 65 % 16.54 C
Sensor: Nr:Datum:Temp:Feuchte:Taupunkt:
Aussen-T/F 726 08-07-2016 12:25:00 23.8 C 68 % 17.54 C
727 08-07-2016 12:30:00 24.1 C 62 % 16.37 C
728 08-07-2016 12:35:00 24.4 C 62 % 16.65 C
729 08-07-2016 12:40:00 24.6 C 60 % 16.32 C
730 08-07-2016 12:45:00 24.8 C 60 % 16.51 C
731 08-07-2016 12:50:00 25 C 64 % 17.72 C
732 08-07-2016 12:55:00 25.1 C 63 % 17.56 C
733 08-07-2016 13:00:00 25.1 C 63 % 17.56 C
734 08-07-2016 13:05:00 25.2 C 61 % 17.14 C
735 08-07-2016 13:10:00 25.2 C 60 % 16.88 C
736 08-07-2016 13:15:00 25.3 C 62 % 17.5 C
737 08-07-2016 13:20:00 25.4 C 64 % 18.09 C
738 08-07-2016 13:25:00 25.3 C 64 % 18 C
739 08-07-2016 13:30:00 25.3 C 67 % 18.73 C
740 08-07-2016 13:35:00 25.2 C 61 % 17.14 C
741 08-07-2016 13:40:00 25.2 C 68 % 18.87 C
742 08-07-2016 13:45:00 25.2 C 68 % 18.87 C
743 08-07-2016 13:50:00 25.2 C 64 % 17.9 C
744 08-07-2016 13:55:00 25.4 C 59 % 16.81 C
745 08-07-2016 14:00:00 25.6 C 68 % 19.25 C
746 08-07-2016 14:05:00 25.7 C 63 % 18.13 C
747 08-07-2016 14:10:00 25.9 C 62 % 18.06 C
748 08-07-2016 14:15:00 26.1 C 57 % 16.92 C
749 08-07-2016 14:20:00 26.2 C 54 % 16.16 C
750 08-07-2016 14:25:00 26.2 C 58 % 17.28 C
Sensor: Nr:Datum:Temp:Feuchte:Taupunkt:
Aussen-T/F 751 08-07-2016 14:30:00 26.1 C 56 % 16.64 C
752 08-07-2016 14:35:00 26 C 56 % 16.54 C
753 08-07-2016 14:40:00 25.9 C 59 % 17.27 C
754 08-07-2016 14:45:00 25.8 C 54 % 15.79 C
755 08-07-2016 14:50:00 25.7 C 60 % 17.35 C
756 08-07-2016 14:55:00 25.4 C 59 % 16.81 C
757 08-07-2016 15:00:00 25.3 C 62 % 17.5 C
758 08-07-2016 15:05:00 25.1 C 64 % 17.81 C
759 08-07-2016 15:10:00 24.8 C 65 % 17.77 C
760 08-07-2016 15:15:00 24.6 C 67 % 18.06 C
761 08-07-2016 15:20:00 24.4 C 68 % 18.11 C
762 08-07-2016 15:25:00 24.4 C 62 % 16.65 C
763 08-07-2016 15:30:00 24.4 C 62 % 16.65 C
764 08-07-2016 15:35:00 24.4 C 65 % 17.39 C
765 08-07-2016 15:40:00 24.3 C 66 % 17.54 C
766 08-07-2016 15:45:00 24.1 C 69 % 18.06 C
767 08-07-2016 15:50:00 23.7 C 65 % 16.73 C
768 08-07-2016 15:55:00 23.5 C 66 % 16.78 C
769 08-07-2016 16:00:00 23.4 C 67 % 16.92 C
770 08-07-2016 16:05:00 23.3 C 70 % 17.52 C
771 08-07-2016 16:10:00 23.3 C 67 % 16.83 C
772 08-07-2016 16:15:00 23.3 C 65 % 16.35 C
773 08-07-2016 16:20:00 23.4 C 68 % 17.16 C
774 08-07-2016 16:25:00 23.5 C 69 % 17.48 C
775 08-07-2016 16:30:00 23.6 C 67 % 17.11 C
Sensor: Nr:Datum:Temp:Feuchte:Taupunkt:
Aussen-T/F 776 08-07-2016 16:35:00 23.7 C 67 % 17.21 C
777 08-07-2016 16:40:00 23.7 C 67 % 17.21 C
778 08-07-2016 16:45:00 23.7 C 64 % 16.49 C
779 08-07-2016 16:50:00 23.7 C 68 % 17.44 C
780 08-07-2016 16:55:00 23.6 C 69 % 17.58 C
781 08-07-2016 17:00:00 23.4 C 70 % 17.62 C
782 08-07-2016 17:05:00 23.3 C 68 % 17.06 C
783 08-07-2016 17:10:00 23.4 C 73 % 18.28 C
784 08-07-2016 17:15:00 23.6 C 73 % 18.48 C
785 08-07-2016 17:20:00 23.9 C 71 % 18.32 C
786 08-07-2016 17:25:00 24.1 C 68 % 17.82 C
787 08-07-2016 17:30:00 24.2 C 68 % 17.92 C
788 08-07-2016 17:35:00 24.1 C 70 % 18.29 C
789 08-07-2016 17:40:00 23.8 C 70 % 18 C
790 08-07-2016 17:45:00 23.4 C 71 % 17.84 C
791 08-07-2016 17:50:00 23.2 C 72 % 17.87 C
792 08-07-2016 17:55:00 23 C 75 % 18.33 C
793 08-07-2016 18:00:00 22.8 C 75 % 18.14 C
794 08-07-2016 18:05:00 22.6 C 75 % 17.94 C
795 08-07-2016 18:10:00 22.4 C 77 % 18.17 C
796 08-07-2016 18:15:00 22.3 C 77 % 18.07 C
797 08-07-2016 18:20:00 22.2 C 76 % 17.77 C
798 08-07-2016 18:25:00 22.2 C 77 % 17.98 C
799 08-07-2016 18:30:00 22.1 C 77 % 17.88 C
800 08-07-2016 18:35:00 22.1 C 76 % 17.67 C
Sensor: Nr:Datum:Temp:Feuchte:Taupunkt:
Aussen-T/F 801 08-07-2016 18:40:00 22.1 C 76 % 17.67 C
802 08-07-2016 18:45:00 22.1 C 77 % 17.88 C
803 08-07-2016 18:50:00 22.1 C 76 % 17.67 C
804 08-07-2016 18:55:00 22.1 C 77 % 17.88 C
805 08-07-2016 19:00:00 22.1 C 77 % 17.88 C
806 08-07-2016 19:05:00 22.2 C 79 % 18.38 C
807 08-07-2016 19:10:00 22.2 C 79 % 18.38 C
808 08-07-2016 19:15:00 22.3 C 78 % 18.28 C
809 08-07-2016 19:20:00 22.3 C 78 % 18.28 C
810 08-07-2016 19:25:00 22.4 C 79 % 18.58 C
811 08-07-2016 19:30:00 22.4 C 78 % 18.37 C
812 08-07-2016 19:35:00 22.3 C 77 % 18.07 C
813 08-07-2016 19:40:00 22.3 C 77 % 18.07 C
814 08-07-2016 19:45:00 22.3 C 77 % 18.07 C
815 08-07-2016 19:50:00 22.2 C 77 % 17.98 C
816 08-07-2016 19:55:00 22.2 C 77 % 17.98 C
817 08-07-2016 20:00:00 22.2 C 78 % 18.18 C
818 08-07-2016 20:05:00 22.2 C 78 % 18.18 C
819 08-07-2016 20:10:00 22.1 C 78 % 18.08 C
820 08-07-2016 20:15:00 22.1 C 78 % 18.08 C
821 08-07-2016 20:20:00 22 C 78 % 17.99 C
822 08-07-2016 20:25:00 21.9 C 79 % 18.09 C
823 08-07-2016 20:30:00 22.1 C 79 % 18.29 C
824 08-07-2016 20:35:00 22.2 C 79 % 18.38 C
825 08-07-2016 20:40:00 22.2 C 78 % 18.18 C
Sensor: Nr:Datum:Temp:Feuchte:Taupunkt:
Aussen-T/F 826 08-07-2016 20:45:00 22.2 C 77 % 17.98 C
827 08-07-2016 20:50:00 22.1 C 77 % 17.88 C
828 08-07-2016 20:55:00 21.9 C 77 % 17.68 C
829 08-07-2016 21:00:00 21.8 C 78 % 17.79 C
830 08-07-2016 21:05:00 21.7 C 78 % 17.7 C
831 08-07-2016 21:10:00 21.6 C 77 % 17.39 C
832 08-07-2016 21:15:00 21.6 C 78 % 17.6 C
833 08-07-2016 21:20:00 21.5 C 78 % 17.5 C
834 08-07-2016 21:25:00 21.4 C 76 % 16.99 C
835 08-07-2016 21:30:00 21.3 C 78 % 17.31 C
836 08-07-2016 21:35:00 21.2 C 77 % 17.01 C
837 08-07-2016 21:40:00 21.1 C 75 % 16.5 C
838 08-07-2016 21:45:00 21.1 C 75 % 16.5 C
839 08-07-2016 21:50:00 21 C 76 % 16.61 C
840 08-07-2016 21:55:00 20.9 C 77 % 16.72 C
841 08-07-2016 22:00:00 20.8 C 78 % 16.82 C
842 08-07-2016 22:05:00 20.6 C 78 % 16.63 C
843 08-07-2016 22:10:00 20.3 C 79 % 16.54 C
844 08-07-2016 22:15:00 20.2 C 79 % 16.44 C
845 08-07-2016 22:20:00 20 C 80 % 16.44 C
846 08-07-2016 22:25:00 19.8 C 79 % 16.05 C
847 08-07-2016 22:30:00 19.9 C 79 % 16.15 C
848 08-07-2016 22:35:00 19.9 C 80 % 16.35 C
849 08-07-2016 22:40:00 19.8 C 80 % 16.25 C
850 08-07-2016 22:45:00 19.7 C 79 % 15.96 C
Sensor: Nr:Datum:Temp:Feuchte:Taupunkt:
Aussen-T/F 851 08-07-2016 22:50:00 19.8 C 80 % 16.25 C
852 08-07-2016 22:55:00 19.8 C 79 % 16.05 C
853 08-07-2016 23:00:00 19.8 C 80 % 16.25 C
854 08-07-2016 23:05:00 19.7 C 80 % 16.15 C
855 08-07-2016 23:10:00 19.5 C 81 % 16.15 C
856 08-07-2016 23:15:00 19.3 C 81 % 15.96 C
857 08-07-2016 23:20:00 19.3 C 82 % 16.15 C
858 08-07-2016 23:25:00 19.2 C 82 % 16.05 C
859 08-07-2016 23:30:00 19.2 C 82 % 16.05 C
860 08-07-2016 23:35:00 19.1 C 83 % 16.15 C
861 08-07-2016 23:40:00 19 C 83 % 16.05 C
862 08-07-2016 23:45:00 18.9 C 83 % 15.95 C
863 08-07-2016 23:50:00 18.9 C 83 % 15.95 C
864 08-07-2016 23:55:00 18.8 C 83 % 15.85 C
865 09-07-2016 00:00:00 18.8 C 83 % 15.85 C
866 09-07-2016 00:05:00 18.7 C 83 % 15.75 C
867 09-07-2016 00:10:00 18.7 C 84 % 15.94 C
868 09-07-2016 00:15:00 18.7 C 84 % 15.94 C
869 09-07-2016 00:20:00 18.7 C 84 % 15.94 C
870 09-07-2016 00:25:00 18.6 C 84 % 15.84 C
871 09-07-2016 00:30:00 18.5 C 84 % 15.75 C
872 09-07-2016 00:35:00 18.4 C 84 % 15.65 C
873 09-07-2016 00:40:00 18.3 C 84 % 15.55 C
874 09-07-2016 00:45:00 18.2 C 84 % 15.45 C
875 09-07-2016 00:50:00 18.1 C 85 % 15.54 C
Sensor: Nr:Datum:Temp:Feuchte:Taupunkt:
Aussen-T/F 876 09-07-2016 00:55:00 18 C 85 % 15.44 C
877 09-07-2016 01:00:00 17.9 C 85 % 15.34 C
878 09-07-2016 01:05:00 17.9 C 86 % 15.53 C
879 09-07-2016 01:10:00 17.9 C 85 % 15.34 C
880 09-07-2016 01:15:00 17.9 C 85 % 15.34 C
881 09-07-2016 01:20:00 17.9 C 85 % 15.34 C
882 09-07-2016 01:25:00 17.9 C 86 % 15.53 C
883 09-07-2016 01:30:00 17.9 C 86 % 15.53 C
884 09-07-2016 01:35:00 17.9 C 86 % 15.53 C
885 09-07-2016 01:40:00 17.9 C 86 % 15.53 C
886 09-07-2016 01:45:00 17.8 C 85 % 15.25 C
887 09-07-2016 01:50:00 17.7 C 85 % 15.15 C
888 09-07-2016 01:55:00 17.7 C 85 % 15.15 C
889 09-07-2016 02:00:00 17.7 C 85 % 15.15 C
890 09-07-2016 02:05:00 17.6 C 86 % 15.23 C
891 09-07-2016 02:10:00 17.6 C 86 % 15.23 C
892 09-07-2016 02:15:00 17.6 C 86 % 15.23 C
893 09-07-2016 02:20:00 17.5 C 87 % 15.31 C
894 09-07-2016 02:25:00 17.4 C 86 % 15.03 C
895 09-07-2016 02:30:00 17.3 C 86 % 14.94 C
896 09-07-2016 02:35:00 17.3 C 87 % 15.12 C
897 09-07-2016 02:40:00 17.3 C 87 % 15.12 C
898 09-07-2016 02:45:00 17.3 C 87 % 15.12 C
899 09-07-2016 02:50:00 17.2 C 88 % 15.2 C
900 09-07-2016 02:55:00 17.3 C 88 % 15.29 C
Sensor: Nr:Datum:Temp:Feuchte:Taupunkt:
Aussen-T/F 901 09-07-2016 03:00:00 17.3 C 88 % 15.29 C
902 09-07-2016 03:05:00 17.3 C 88 % 15.29 C
903 09-07-2016 03:10:00 17.3 C 87 % 15.12 C
904 09-07-2016 03:15:00 17.2 C 86 % 14.84 C
905 09-07-2016 03:20:00 17.3 C 86 % 14.94 C
906 09-07-2016 03:25:00 17.3 C 86 % 14.94 C
907 09-07-2016 03:30:00 17.3 C 86 % 14.94 C
908 09-07-2016 03:35:00 17.3 C 86 % 14.94 C
909 09-07-2016 03:40:00 17.4 C 85 % 14.85 C
910 09-07-2016 03:45:00 17.4 C 85 % 14.85 C
911 09-07-2016 03:50:00 17.4 C 85 % 14.85 C
912 09-07-2016 03:55:00 17.4 C 85 % 14.85 C
913 09-07-2016 04:00:00 17.4 C 85 % 14.85 C
914 09-07-2016 04:05:00 17.4 C 85 % 14.85 C
915 09-07-2016 04:10:00 17.4 C 86 % 15.03 C
916 09-07-2016 04:15:00 17.3 C 86 % 14.94 C
917 09-07-2016 04:20:00 17.3 C 86 % 14.94 C
918 09-07-2016 04:25:00 17.3 C 86 % 14.94 C
919 09-07-2016 04:30:00 17.2 C 86 % 14.84 C
920 09-07-2016 04:35:00 17.2 C 86 % 14.84 C
921 09-07-2016 04:40:00 17.2 C 86 % 14.84 C
922 09-07-2016 04:45:00 17.2 C 86 % 14.84 C
923 09-07-2016 04:50:00 17.2 C 86 % 14.84 C
924 09-07-2016 04:55:00 17.2 C 86 % 14.84 C
925 09-07-2016 05:00:00 17.2 C 86 % 14.84 C
Sensor: Nr:Datum:Temp:Feuchte:Taupunkt:
Aussen-T/F 926 09-07-2016 05:05:00 17.2 C 86 % 14.84 C
927 09-07-2016 05:10:00 17.2 C 86 % 14.84 C
928 09-07-2016 05:15:00 17.2 C 86 % 14.84 C
929 09-07-2016 05:20:00 17.2 C 87 % 15.02 C
930 09-07-2016 05:25:00 17.2 C 86 % 14.84 C
931 09-07-2016 05:30:00 17.2 C 87 % 15.02 C
932 09-07-2016 05:35:00 17.2 C 87 % 15.02 C
933 09-07-2016 05:40:00 17.2 C 87 % 15.02 C
934 09-07-2016 05:45:00 17.2 C 87 % 15.02 C
935 09-07-2016 05:50:00 17.2 C 87 % 15.02 C
936 09-07-2016 05:55:00 17.2 C 87 % 15.02 C
937 09-07-2016 06:00:00 17.2 C 87 % 15.02 C
938 09-07-2016 06:05:00 17.3 C 88 % 15.29 C
939 09-07-2016 06:10:00 17.3 C 88 % 15.29 C
940 09-07-2016 06:15:00 17.3 C 88 % 15.29 C
941 09-07-2016 06:20:00 17.3 C 87 % 15.12 C
942 09-07-2016 06:25:00 17.3 C 87 % 15.12 C
943 09-07-2016 06:30:00 17.4 C 88 % 15.39 C
944 09-07-2016 06:35:00 17.4 C 88 % 15.39 C
945 09-07-2016 06:40:00 17.4 C 87 % 15.21 C
946 09-07-2016 06:45:00 17.5 C 87 % 15.31 C
947 09-07-2016 06:50:00 17.6 C 86 % 15.23 C
948 09-07-2016 06:55:00 17.7 C 86 % 15.33 C
949 09-07-2016 07:00:00 17.7 C 86 % 15.33 C
950 09-07-2016 07:05:00 17.8 C 86 % 15.43 C
Sensor: Nr:Datum:Temp:Feuchte:Taupunkt:
Aussen-T/F 951 09-07-2016 07:10:00 17.8 C 85 % 15.25 C
952 09-07-2016 07:15:00 17.9 C 85 % 15.34 C
953 09-07-2016 07:20:00 18.1 C 84 % 15.35 C
954 09-07-2016 07:25:00 18.2 C 84 % 15.45 C
955 09-07-2016 07:30:00 18.2 C 84 % 15.45 C
956 09-07-2016 07:35:00 18.2 C 84 % 15.45 C
957 09-07-2016 07:40:00 18.3 C 84 % 15.55 C
958 09-07-2016 07:45:00 18.3 C 85 % 15.74 C
959 09-07-2016 07:50:00 18.3 C 85 % 15.74 C
960 09-07-2016 07:55:00 18.3 C 85 % 15.74 C
961 09-07-2016 08:00:00 18.3 C 86 % 15.92 C
962 09-07-2016 08:05:00 18.3 C 85 % 15.74 C
963 09-07-2016 08:10:00 18.4 C 85 % 15.83 C
964 09-07-2016 08:15:00 18.5 C 85 % 15.93 C
965 09-07-2016 08:20:00 18.7 C 85 % 16.13 C
966 09-07-2016 08:25:00 18.8 C 84 % 16.04 C
967 09-07-2016 08:30:00 18.8 C 84 % 16.04 C
968 09-07-2016 08:35:00 18.9 C 85 % 16.32 C
969 09-07-2016 08:40:00 19 C 83 % 16.05 C
970 09-07-2016 08:45:00 19.1 C 84 % 16.33 C
971 09-07-2016 08:50:00 19.2 C 83 % 16.24 C
972 09-07-2016 08:55:00 19.3 C 82 % 16.15 C
973 09-07-2016 09:00:00 19.4 C 81 % 16.06 C
974 09-07-2016 09:05:00 19.6 C 81 % 16.25 C
975 09-07-2016 09:10:00 19.7 C 79 % 15.96 C
Sensor: Nr:Datum:Temp:Feuchte:Taupunkt:
Aussen-T/F 976 09-07-2016 09:15:00 19.8 C 80 % 16.25 C
977 09-07-2016 09:20:00 19.9 C 80 % 16.35 C
978 09-07-2016 09:25:00 20 C 78 % 16.05 C
979 09-07-2016 09:30:00 20.1 C 78 % 16.14 C
980 09-07-2016 09:35:00 20.1 C 78 % 16.14 C
981 09-07-2016 09:40:00 20.1 C 79 % 16.34 C
982 09-07-2016 09:45:00 20.2 C 77 % 16.04 C
983 09-07-2016 09:50:00 20.3 C 77 % 16.14 C
984 09-07-2016 09:55:00 20.6 C 78 % 16.63 C
985 09-07-2016 10:00:00 20.6 C 75 % 16.01 C
986 09-07-2016 10:05:00 20.6 C 76 % 16.22 C
987 09-07-2016 10:10:00 20.6 C 76 % 16.22 C
988 09-07-2016 10:15:00 20.8 C 76 % 16.41 C
989 09-07-2016 10:20:00 21.1 C 75 % 16.5 C
990 09-07-2016 10:25:00 21.2 C 73 % 16.17 C
991 09-07-2016 10:30:00 21.2 C 73 % 16.17 C
992 09-07-2016 10:35:00 21.3 C 74 % 16.48 C
993 09-07-2016 10:40:00 21.3 C 73 % 16.26 C
994 09-07-2016 10:45:00 21.5 C 72 % 16.24 C
995 09-07-2016 10:50:00 21.5 C 74 % 16.67 C
996 09-07-2016 10:55:00 21.5 C 73 % 16.46 C
997 09-07-2016 11:00:00 21.5 C 72 % 16.24 C
998 09-07-2016 11:05:00 21.7 C 72 % 16.43 C
999 09-07-2016 11:10:00 21.8 C 73 % 16.75 C
1000 09-07-2016 11:15:00 21.9 C 70 % 16.18 C
Sensor: Nr:Datum:Temp:Feuchte:Taupunkt:
Aussen-T/F 1001 09-07-2016 11:20:00 22 C 74 % 17.15 C
1002 09-07-2016 11:25:00 21.9 C 70 % 16.18 C
1003 09-07-2016 11:30:00 21.8 C 70 % 16.09 C
1004 09-07-2016 11:35:00 21.7 C 70 % 15.99 C
1005 09-07-2016 11:40:00 21.7 C 72 % 16.43 C
1006 09-07-2016 11:45:00 21.8 C 72 % 16.53 C
1007 09-07-2016 11:50:00 21.9 C 71 % 16.4 C
1008 09-07-2016 11:55:00 22.1 C 72 % 16.82 C
1009 09-07-2016 12:00:00 22.1 C 71 % 16.6 C
1010 09-07-2016 12:05:00 22.2 C 69 % 16.24 C
1011 09-07-2016 12:10:00 22.2 C 68 % 16.01 C
1012 09-07-2016 12:15:00 22.2 C 72 % 16.91 C
1013 09-07-2016 12:20:00 22.2 C 68 % 16.01 C
1014 09-07-2016 12:25:00 22.3 C 70 % 16.56 C
1015 09-07-2016 12:30:00 22.5 C 68 % 16.3 C
1016 09-07-2016 12:35:00 22.6 C 67 % 16.16 C
1017 09-07-2016 12:40:00 22.8 C 69 % 16.82 C
1018 09-07-2016 12:45:00 23.1 C 68 % 16.87 C
1019 09-07-2016 12:50:00 23.2 C 67 % 16.73 C
1020 09-07-2016 12:55:00 23.2 C 66 % 16.5 C
1021 09-07-2016 13:00:00 23.2 C 69 % 17.2 C
1022 09-07-2016 13:05:00 23.1 C 69 % 17.1 C
1023 09-07-2016 13:10:00 23.1 C 72 % 17.78 C
1024 09-07-2016 13:15:00 23.1 C 69 % 17.1 C
1025 09-07-2016 13:20:00 23.2 C 65 % 16.26 C
Sensor: Nr:Datum:Temp:Feuchte:Taupunkt:
Aussen-T/F 1026 09-07-2016 13:25:00 23.3 C 66 % 16.59 C
1027 09-07-2016 13:30:00 23.5 C 65 % 16.54 C
1028 09-07-2016 13:35:00 23.6 C 63 % 16.14 C
1029 09-07-2016 13:40:00 23.7 C 64 % 16.49 C
1030 09-07-2016 13:45:00 23.7 C 63 % 16.24 C
1031 09-07-2016 13:50:00 23.7 C 64 % 16.49 C
1032 09-07-2016 13:55:00 23.8 C 66 % 17.07 C
1033 09-07-2016 14:00:00 23.8 C 65 % 16.83 C
1034 09-07-2016 14:05:00 23.8 C 61 % 15.83 C
1035 09-07-2016 14:10:00 23.8 C 64 % 16.58 C
1036 09-07-2016 14:15:00 23.8 C 66 % 17.07 C
1037 09-07-2016 14:20:00 23.9 C 63 % 16.43 C
1038 09-07-2016 14:25:00 24.2 C 64 % 16.96 C
1039 09-07-2016 14:30:00 24.3 C 64 % 17.05 C
1040 09-07-2016 14:35:00 24.3 C 65 % 17.3 C
1041 09-07-2016 14:40:00 24.3 C 66 % 17.54 C
1042 09-07-2016 14:45:00 24.4 C 66 % 17.64 C
1043 09-07-2016 14:50:00 24.4 C 65 % 17.39 C
1044 09-07-2016 14:55:00 24.4 C 65 % 17.39 C
1045 09-07-2016 15:00:00 24.7 C 63 % 17.18 C
1046 09-07-2016 15:05:00 24.8 C 64 % 17.53 C
1047 09-07-2016 15:10:00 24.9 C 61 % 16.86 C
1048 09-07-2016 15:15:00 25.1 C 61 % 17.05 C
1049 09-07-2016 15:20:00 25.5 C 58 % 16.63 C
1050 09-07-2016 15:25:00 25.8 C 58 % 16.91 C
Sensor: Nr:Datum:Temp:Feuchte:Taupunkt:
Aussen-T/F 1051 09-07-2016 15:30:00 26.1 C 58 % 17.19 C
1052 09-07-2016 15:35:00 26.3 C 59 % 17.65 C
1053 09-07-2016 15:40:00 26.7 C 56 % 17.19 C
1054 09-07-2016 15:45:00 26.9 C 55 % 17.09 C
1055 09-07-2016 15:50:00 26.7 C 57 % 17.47 C
1056 09-07-2016 15:55:00 26.4 C 58 % 17.47 C
1057 09-07-2016 16:00:00 26.1 C 62 % 18.25 C
1058 09-07-2016 16:05:00 25.9 C 65 % 18.81 C
1059 09-07-2016 16:10:00 25.6 C 64 % 18.28 C
1060 09-07-2016 16:15:00 25.4 C 70 % 19.53 C
1061 09-07-2016 16:20:00 25.5 C 66 % 18.68 C
1062 09-07-2016 16:25:00 25.5 C 64 % 18.19 C
1063 09-07-2016 16:30:00 25.5 C 65 % 18.44 C
1064 09-07-2016 16:35:00 25.4 C 69 % 19.3 C
1065 09-07-2016 16:40:00 25.6 C 61 % 17.52 C
1066 09-07-2016 16:45:00 25.7 C 62 % 17.87 C
1067 09-07-2016 16:50:00 25.5 C 63 % 17.94 C
1068 09-07-2016 16:55:00 25.4 C 64 % 18.09 C
1069 09-07-2016 17:00:00 25.9 C 60 % 17.54 C
1070 09-07-2016 17:05:00 26.2 C 59 % 17.55 C
1071 09-07-2016 17:10:00 26.4 C 63 % 18.79 C
1072 09-07-2016 17:15:00 26.4 C 64 % 19.04 C
1073 09-07-2016 17:20:00 26.3 C 63 % 18.69 C
1074 09-07-2016 17:25:00 26 C 66 % 19.15 C
1075 09-07-2016 17:30:00 25.7 C 67 % 19.11 C
Sensor: Nr:Datum:Temp:Feuchte:Taupunkt:
Aussen-T/F 1076 09-07-2016 17:35:00 25.6 C 71 % 19.95 C
1077 09-07-2016 17:40:00 25.9 C 61 % 17.8 C
1078 09-07-2016 17:45:00 26.6 C 58 % 17.66 C
1079 09-07-2016 17:50:00 27.2 C 55 % 17.37 C
1080 09-07-2016 17:55:00 27.6 C 58 % 18.59 C
1081 09-07-2016 18:00:00 27.5 C 60 % 19.04 C
1082 09-07-2016 18:05:00 27.3 C 62 % 19.38 C
1083 09-07-2016 18:10:00 27.1 C 62 % 19.19 C
1084 09-07-2016 18:15:00 26.9 C 64 % 19.51 C
1085 09-07-2016 18:20:00 26.7 C 65 % 19.57 C
1086 09-07-2016 18:25:00 26.3 C 65 % 19.19 C
1087 09-07-2016 18:30:00 26 C 69 % 19.87 C
1088 09-07-2016 18:35:00 25.7 C 69 % 19.58 C
1089 09-07-2016 18:40:00 25.5 C 71 % 19.85 C
1090 09-07-2016 18:45:00 25.4 C 71 % 19.76 C
1091 09-07-2016 18:50:00 25.3 C 71 % 19.66 C
1092 09-07-2016 18:55:00 25.1 C 72 % 19.69 C
1093 09-07-2016 19:00:00 24.8 C 72 % 19.41 C
1094 09-07-2016 19:05:00 24.5 C 73 % 19.34 C
1095 09-07-2016 19:10:00 24.4 C 73 % 19.24 C
1096 09-07-2016 19:15:00 24.8 C 71 % 19.18 C
1097 09-07-2016 19:20:00 25.2 C 70 % 19.34 C
1098 09-07-2016 19:25:00 25.1 C 68 % 18.78 C
1099 09-07-2016 19:30:00 24.8 C 69 % 18.72 C
1100 09-07-2016 19:35:00 24.7 C 72 % 19.31 C
Sensor: Nr:Datum:Temp:Feuchte:Taupunkt:
Aussen-T/F 1101 09-07-2016 19:40:00 24.7 C 71 % 19.09 C
1102 09-07-2016 19:45:00 24.6 C 72 % 19.21 C
1103 09-07-2016 19:50:00 24.6 C 71 % 18.99 C
1104 09-07-2016 19:55:00 24.6 C 71 % 18.99 C
1105 09-07-2016 20:00:00 24.7 C 72 % 19.31 C
1106 09-07-2016 20:05:00 24.8 C 71 % 19.18 C
1107 09-07-2016 20:10:00 24.8 C 71 % 19.18 C
1108 09-07-2016 20:15:00 24.7 C 70 % 18.86 C
1109 09-07-2016 20:20:00 24.6 C 71 % 18.99 C
1110 09-07-2016 20:25:00 24.5 C 72 % 19.12 C
1111 09-07-2016 20:30:00 24.4 C 71 % 18.8 C
1112 09-07-2016 20:35:00 24.3 C 71 % 18.7 C
1113 09-07-2016 20:40:00 24.2 C 72 % 18.83 C
1114 09-07-2016 20:45:00 23.9 C 72 % 18.54 C
1115 09-07-2016 20:50:00 23.6 C 72 % 18.26 C
1116 09-07-2016 20:55:00 23.3 C 73 % 18.19 C
1117 09-07-2016 21:00:00 23.1 C 73 % 17.99 C
1118 09-07-2016 21:05:00 22.8 C 74 % 17.92 C
1119 09-07-2016 21:10:00 22.5 C 75 % 17.85 C
1120 09-07-2016 21:15:00 22.2 C 75 % 17.56 C
1121 09-07-2016 21:20:00 21.9 C 75 % 17.27 C
1122 09-07-2016 21:25:00 21.7 C 76 % 17.28 C
1123 09-07-2016 21:30:00 21.5 C 77 % 17.3 C
1124 09-07-2016 21:35:00 21.3 C 77 % 17.1 C
1125 09-07-2016 21:40:00 21.2 C 77 % 17.01 C
Sensor: Nr:Datum:Temp:Feuchte:Taupunkt:
Aussen-T/F 1126 09-07-2016 21:45:00 21.1 C 78 % 17.11 C
1127 09-07-2016 21:50:00 20.9 C 78 % 16.92 C
1128 09-07-2016 21:55:00 20.7 C 78 % 16.73 C
1129 09-07-2016 22:00:00 20.6 C 78 % 16.63 C
1130 09-07-2016 22:05:00 20.6 C 78 % 16.63 C
1131 09-07-2016 22:10:00 20.4 C 79 % 16.64 C
1132 09-07-2016 22:15:00 20.3 C 80 % 16.74 C
1133 09-07-2016 22:20:00 20.2 C 80 % 16.64 C
1134 09-07-2016 22:25:00 20 C 81 % 16.64 C
1135 09-07-2016 22:30:00 19.8 C 81 % 16.45 C
1136 09-07-2016 22:35:00 19.6 C 82 % 16.44 C
1137 09-07-2016 22:40:00 19.4 C 82 % 16.25 C
1138 09-07-2016 22:45:00 19.3 C 82 % 16.15 C
1139 09-07-2016 22:50:00 19.2 C 83 % 16.24 C
1140 09-07-2016 22:55:00 19.1 C 83 % 16.15 C
1141 09-07-2016 23:00:00 19.1 C 83 % 16.15 C
1142 09-07-2016 23:05:00 19 C 83 % 16.05 C
1143 09-07-2016 23:10:00 18.9 C 84 % 16.14 C
1144 09-07-2016 23:15:00 18.9 C 84 % 16.14 C
1145 09-07-2016 23:20:00 18.8 C 84 % 16.04 C
1146 09-07-2016 23:25:00 18.8 C 84 % 16.04 C
1147 09-07-2016 23:30:00 18.7 C 84 % 15.94 C
1148 09-07-2016 23:35:00 18.6 C 85 % 16.03 C
1149 09-07-2016 23:40:00 18.5 C 85 % 15.93 C
1150 09-07-2016 23:45:00 18.4 C 85 % 15.83 C
Sensor: Nr:Datum:Temp:Feuchte:Taupunkt:
Aussen-T/F 1151 09-07-2016 23:50:00 18.4 C 85 % 15.83 C
1152 09-07-2016 23:55:00 18.3 C 85 % 15.74 C
1153 10-07-2016 00:00:00 18.3 C 86 % 15.92 C
1154 10-07-2016 00:05:00 18.2 C 86 % 15.82 C
1155 10-07-2016 00:10:00 18.2 C 86 % 15.82 C
1156 10-07-2016 00:15:00 18.2 C 86 % 15.82 C
1157 10-07-2016 00:20:00 18.1 C 87 % 15.9 C
1158 10-07-2016 00:25:00 18 C 87 % 15.8 C
1159 10-07-2016 00:30:00 17.9 C 87 % 15.71 C
1160 10-07-2016 00:35:00 17.8 C 87 % 15.61 C
1161 10-07-2016 00:40:00 17.7 C 88 % 15.69 C
1162 10-07-2016 00:45:00 17.7 C 88 % 15.69 C
1163 10-07-2016 00:50:00 17.6 C 88 % 15.59 C
1164 10-07-2016 00:55:00 17.6 C 88 % 15.59 C
1165 10-07-2016 01:00:00 17.6 C 88 % 15.59 C
1166 10-07-2016 01:05:00 17.5 C 88 % 15.49 C
1167 10-07-2016 01:10:00 17.4 C 88 % 15.39 C
1168 10-07-2016 01:15:00 17.3 C 88 % 15.29 C
1169 10-07-2016 01:20:00 17.2 C 88 % 15.2 C
1170 10-07-2016 01:25:00 17.1 C 89 % 15.27 C
1171 10-07-2016 01:30:00 17.1 C 89 % 15.27 C
1172 10-07-2016 01:35:00 17 C 89 % 15.17 C
1173 10-07-2016 01:40:00 16.9 C 89 % 15.08 C
1174 10-07-2016 01:45:00 16.8 C 90 % 15.15 C
1175 10-07-2016 01:50:00 16.8 C 90 % 15.15 C
Sensor: Nr:Datum:Temp:Feuchte:Taupunkt:
Aussen-T/F 1176 10-07-2016 01:55:00 16.8 C 90 % 15.15 C
1177 10-07-2016 02:00:00 16.8 C 90 % 15.15 C
1178 10-07-2016 02:05:00 16.7 C 90 % 15.05 C
1179 10-07-2016 02:10:00 16.7 C 90 % 15.05 C
1180 10-07-2016 02:15:00 16.7 C 90 % 15.05 C
1181 10-07-2016 02:20:00 16.6 C 90 % 14.95 C
1182 10-07-2016 02:25:00 16.6 C 90 % 14.95 C
1183 10-07-2016 02:30:00 16.5 C 90 % 14.85 C
1184 10-07-2016 02:35:00 16.4 C 90 % 14.76 C
1185 10-07-2016 02:40:00 16.3 C 91 % 14.83 C
1186 10-07-2016 02:45:00 16.2 C 91 % 14.73 C
1187 10-07-2016 02:50:00 16.2 C 91 % 14.73 C
1188 10-07-2016 02:55:00 16.1 C 91 % 14.63 C
1189 10-07-2016 03:00:00 15.9 C 91 % 14.43 C
1190 10-07-2016 03:05:00 15.8 C 91 % 14.33 C
1191 10-07-2016 03:10:00 15.8 C 92 % 14.5 C
1192 10-07-2016 03:15:00 15.7 C 92 % 14.4 C
1193 10-07-2016 03:20:00 15.6 C 92 % 14.31 C
1194 10-07-2016 03:25:00 15.6 C 92 % 14.31 C
1195 10-07-2016 03:30:00 15.5 C 92 % 14.21 C
1196 10-07-2016 03:35:00 15.4 C 92 % 14.11 C
1197 10-07-2016 03:40:00 15.3 C 92 % 14.01 C
1198 10-07-2016 03:45:00 15.2 C 92 % 13.91 C
1199 10-07-2016 03:50:00 15.2 C 93 % 14.08 C
1200 10-07-2016 03:55:00 15.2 C 93 % 14.08 C
Sensor: Nr:Datum:Temp:Feuchte:Taupunkt:
Aussen-T/F 1201 10-07-2016 04:00:00 15.1 C 93 % 13.98 C
1202 10-07-2016 04:05:00 15 C 93 % 13.88 C
1203 10-07-2016 04:10:00 15 C 93 % 13.88 C
1204 10-07-2016 04:15:00 15 C 93 % 13.88 C
1205 10-07-2016 04:20:00 14.9 C 93 % 13.78 C
1206 10-07-2016 04:25:00 14.9 C 93 % 13.78 C
1207 10-07-2016 04:30:00 14.9 C 93 % 13.78 C
1208 10-07-2016 04:35:00 14.8 C 94 % 13.84 C
1209 10-07-2016 04:40:00 14.8 C 94 % 13.84 C
1210 10-07-2016 04:45:00 14.8 C 94 % 13.84 C
1211 10-07-2016 04:50:00 14.7 C 94 % 13.74 C
1212 10-07-2016 04:55:00 14.7 C 93 % 13.58 C
1213 10-07-2016 05:00:00 14.6 C 94 % 13.65 C
1214 10-07-2016 05:05:00 14.6 C 94 % 13.65 C
1215 10-07-2016 05:10:00 14.6 C 94 % 13.65 C
1216 10-07-2016 05:15:00 14.6 C 94 % 13.65 C
1217 10-07-2016 05:20:00 14.7 C 94 % 13.74 C
1218 10-07-2016 05:25:00 14.6 C 94 % 13.65 C
1219 10-07-2016 05:30:00 14.6 C 94 % 13.65 C
1220 10-07-2016 05:35:00 14.5 C 94 % 13.55 C
1221 10-07-2016 05:40:00 14.5 C 94 % 13.55 C
1222 10-07-2016 05:45:00 14.4 C 94 % 13.45 C
1223 10-07-2016 05:50:00 14.5 C 94 % 13.55 C
1224 10-07-2016 05:55:00 14.5 C 94 % 13.55 C
1225 10-07-2016 06:00:00 14.5 C 94 % 13.55 C
Sensor: Nr:Datum:Temp:Feuchte:Taupunkt:
Aussen-T/F 1226 10-07-2016 06:05:00 14.6 C 95 % 13.81 C
1227 10-07-2016 06:10:00 14.6 C 95 % 13.81 C
1228 10-07-2016 06:15:00 14.6 C 95 % 13.81 C
1229 10-07-2016 06:20:00 14.7 C 95 % 13.91 C
1230 10-07-2016 06:25:00 14.7 C 95 % 13.91 C
1231 10-07-2016 06:30:00 14.7 C 95 % 13.91 C
1232 10-07-2016 06:35:00 14.8 C 95 % 14.01 C
1233 10-07-2016 06:40:00 14.9 C 95 % 14.11 C
1234 10-07-2016 06:45:00 14.9 C 95 % 14.11 C
1235 10-07-2016 06:50:00 14.9 C 95 % 14.11 C
1236 10-07-2016 06:55:00 15 C 95 % 14.21 C
1237 10-07-2016 07:00:00 15 C 95 % 14.21 C
1238 10-07-2016 07:05:00 15.1 C 95 % 14.31 C
1239 10-07-2016 07:10:00 15.1 C 95 % 14.31 C
1240 10-07-2016 07:15:00 15.2 C 95 % 14.4 C
1241 10-07-2016 07:20:00 15.2 C 95 % 14.4 C
1242 10-07-2016 07:25:00 15.3 C 95 % 14.5 C
1243 10-07-2016 07:30:00 15.3 C 95 % 14.5 C
1244 10-07-2016 07:35:00 15.4 C 95 % 14.6 C
1245 10-07-2016 07:40:00 15.5 C 95 % 14.7 C
1246 10-07-2016 07:45:00 15.6 C 95 % 14.8 C
1247 10-07-2016 07:50:00 15.7 C 95 % 14.9 C
1248 10-07-2016 07:55:00 15.7 C 95 % 14.9 C
1249 10-07-2016 08:00:00 15.8 C 95 % 15 C
1250 10-07-2016 08:05:00 15.9 C 95 % 15.1 C
Sensor: Nr:Datum:Temp:Feuchte:Taupunkt:
Aussen-T/F 1251 10-07-2016 08:10:00 16 C 95 % 15.2 C
1252 10-07-2016 08:15:00 16.1 C 95 % 15.3 C
1253 10-07-2016 08:20:00 16.3 C 95 % 15.5 C
1254 10-07-2016 08:25:00 16.4 C 95 % 15.6 C
1255 10-07-2016 08:30:00 16.6 C 95 % 15.8 C
1256 10-07-2016 08:35:00 16.7 C 94 % 15.73 C
1257 10-07-2016 08:40:00 16.8 C 94 % 15.83 C
1258 10-07-2016 08:45:00 16.8 C 94 % 15.83 C
1259 10-07-2016 08:50:00 16.9 C 94 % 15.93 C
1260 10-07-2016 08:55:00 17 C 94 % 16.03 C
1261 10-07-2016 09:00:00 17.2 C 94 % 16.23 C
1262 10-07-2016 09:05:00 17.2 C 94 % 16.23 C
1263 10-07-2016 09:10:00 17.3 C 94 % 16.33 C
1264 10-07-2016 09:15:00 17.4 C 93 % 16.26 C
1265 10-07-2016 09:20:00 17.4 C 93 % 16.26 C
1266 10-07-2016 09:25:00 17.5 C 92 % 16.19 C
1267 10-07-2016 09:30:00 17.7 C 93 % 16.55 C
1268 10-07-2016 09:35:00 17.8 C 92 % 16.48 C
1269 10-07-2016 09:40:00 17.9 C 92 % 16.58 C
1270 10-07-2016 09:45:00 18.1 C 92 % 16.78 C
1271 10-07-2016 09:50:00 18.2 C 91 % 16.71 C
1272 10-07-2016 09:55:00 18.3 C 92 % 16.98 C
1273 10-07-2016 10:00:00 18.5 C 91 % 17 C
1274 10-07-2016 10:05:00 18.7 C 91 % 17.2 C
1275 10-07-2016 10:10:00 18.9 C 90 % 17.22 C
Sensor: Nr:Datum:Temp:Feuchte:Taupunkt:
Aussen-T/F 1276 10-07-2016 10:15:00 19.1 C 91 % 17.6 C
1277 10-07-2016 10:20:00 19.3 C 91 % 17.79 C
1278 10-07-2016 10:25:00 19.7 C 91 % 18.19 C
1279 10-07-2016 10:30:00 20.1 C 90 % 18.41 C
1280 10-07-2016 10:35:00 20.5 C 89 % 18.62 C
1281 10-07-2016 10:40:00 20.9 C 88 % 18.84 C
1282 10-07-2016 10:45:00 21.3 C 87 % 19.05 C
1283 10-07-2016 10:50:00 21.8 C 85 % 19.16 C
1284 10-07-2016 10:55:00 22.2 C 85 % 19.56 C
1285 10-07-2016 11:00:00 22.4 C 83 % 19.37 C
1286 10-07-2016 11:05:00 22.6 C 83 % 19.56 C
1287 10-07-2016 11:10:00 22.5 C 84 % 19.66 C
1288 10-07-2016 11:15:00 22.3 C 85 % 19.65 C
1289 10-07-2016 11:20:00 22.2 C 85 % 19.56 C
1290 10-07-2016 11:25:00 22.2 C 86 % 19.75 C
1291 10-07-2016 11:30:00 22.2 C 83 % 19.17 C
1292 10-07-2016 11:35:00 22.5 C 85 % 19.85 C
1293 10-07-2016 11:40:00 22.7 C 82 % 19.47 C
1294 10-07-2016 11:45:00 22.9 C 81 % 19.46 C
1295 10-07-2016 11:50:00 23.2 C 82 % 19.95 C
1296 10-07-2016 11:55:00 23.3 C 80 % 19.65 C
1297 10-07-2016 12:00:00 23.4 C 81 % 19.95 C
1298 10-07-2016 12:05:00 23.5 C 78 % 19.44 C
1299 10-07-2016 12:10:00 23.7 C 78 % 19.63 C
1300 10-07-2016 12:15:00 24.2 C 70 % 18.38 C
Sensor: Nr:Datum:Temp:Feuchte:Taupunkt:
Aussen-T/F 1301 10-07-2016 12:20:00 24.7 C 75 % 19.97 C
1302 10-07-2016 12:25:00 24.9 C 72 % 19.5 C
1303 10-07-2016 12:30:00 25.1 C 70 % 19.24 C
1304 10-07-2016 12:35:00 25.3 C 68 % 18.97 C
1305 10-07-2016 12:40:00 25.5 C 70 % 19.62 C
1306 10-07-2016 12:45:00 25.7 C 66 % 18.87 C
1307 10-07-2016 12:50:00 25.8 C 68 % 19.44 C
1308 10-07-2016 12:55:00 25.8 C 66 % 18.96 C
1309 10-07-2016 13:00:00 25.9 C 65 % 18.81 C
1310 10-07-2016 13:05:00 26.1 C 66 % 19.25 C
1311 10-07-2016 13:10:00 26.2 C 67 % 19.59 C
1312 10-07-2016 13:15:00 26.3 C 71 % 20.62 C
1313 10-07-2016 13:20:00 26.3 C 69 % 20.16 C
1314 10-07-2016 13:25:00 26.3 C 70 % 20.39 C
1315 10-07-2016 13:30:00 26.4 C 64 % 19.04 C
1316 10-07-2016 13:35:00 26.6 C 65 % 19.48 C
1317 10-07-2016 13:40:00 26.7 C 73 % 21.45 C
1318 10-07-2016 13:45:00 26.7 C 71 % 21 C
1319 10-07-2016 13:50:00 26.6 C 72 % 21.13 C
1320 10-07-2016 13:55:00 26.6 C 68 % 20.2 C
1321 10-07-2016 14:00:00 26.8 C 63 % 19.16 C
1322 10-07-2016 14:05:00 27 C 69 % 20.82 C
1323 10-07-2016 14:10:00 27.2 C 64 % 19.79 C
1324 10-07-2016 14:15:00 27.3 C 64 % 19.89 C
1325 10-07-2016 14:20:00 27.3 C 65 % 20.14 C
Sensor: Nr:Datum:Temp:Feuchte:Taupunkt:
Aussen-T/F 1326 10-07-2016 14:25:00 27.5 C 64 % 20.08 C
1327 10-07-2016 14:30:00 27.6 C 61 % 19.4 C
1328 10-07-2016 14:35:00 27.8 C 61 % 19.59 C
1329 10-07-2016 14:40:00 28.1 C 60 % 19.6 C
1330 10-07-2016 14:45:00 28.4 C 59 % 19.61 C
1331 10-07-2016 14:50:00 28.7 C 60 % 20.16 C
1332 10-07-2016 14:55:00 28.8 C 57 % 19.43 C
1333 10-07-2016 15:00:00 28.9 C 59 % 20.08 C
1334 10-07-2016 15:05:00 28.9 C 59 % 20.08 C
1335 10-07-2016 15:10:00 29.1 C 58 % 19.99 C
1336 10-07-2016 15:15:00 29.4 C 55 % 19.41 C
1337 10-07-2016 15:20:00 29.4 C 58 % 20.27 C
1338 10-07-2016 15:25:00 29.8 C 56 % 20.07 C
1339 10-07-2016 15:30:00 30.2 C 61 % 21.84 C
1340 10-07-2016 15:35:00 30.3 C 56 % 20.54 C
1341 10-07-2016 15:40:00 30.7 C 53 % 20.02 C
1342 10-07-2016 15:45:00 31.1 C 55 % 20.99 C
1343 10-07-2016 15:50:00 31.2 C 54 % 20.78 C
1344 10-07-2016 15:55:00 31.4 C 49 % 19.39 C
1345 10-07-2016 16:00:00 31.4 C 52 % 20.35 C
1346 10-07-2016 16:05:00 31.4 C 48 % 19.06 C
1347 10-07-2016 16:10:00 31.4 C 53 % 20.66 C
1348 10-07-2016 16:15:00 31.8 C 54 % 21.34 C
1349 10-07-2016 16:20:00 32.2 C 49 % 20.12 C
1350 10-07-2016 16:25:00 32.4 C 53 % 21.58 C
Sensor: Nr:Datum:Temp:Feuchte:Taupunkt:
Aussen-T/F 1351 10-07-2016 16:30:00 32.7 C 51 % 21.23 C
1352 10-07-2016 16:35:00 32.9 C 47 % 20.09 C
1353 10-07-2016 16:40:00 33.2 C 45 % 19.66 C
1354 10-07-2016 16:45:00 33.2 C 46 % 20.01 C
1355 10-07-2016 16:50:00 32.9 C 48 % 20.43 C
1356 10-07-2016 16:55:00 33.1 C 47 % 20.27 C
1357 10-07-2016 17:00:00 33.1 C 54 % 22.54 C
1358 10-07-2016 17:05:00 32.9 C 54 % 22.35 C
1359 10-07-2016 17:10:00 32.6 C 51 % 21.14 C
1360 10-07-2016 17:15:00 32.2 C 53 % 21.4 C
1361 10-07-2016 17:20:00 31.8 C 54 % 21.34 C
1362 10-07-2016 17:25:00 31.7 C 59 % 22.7 C
1363 10-07-2016 17:30:00 32 C 46 % 18.93 C
1364 10-07-2016 17:35:00 32.3 C 47 % 19.54 C
1365 10-07-2016 17:40:00 32.5 C 51 % 21.05 C
1366 10-07-2016 17:45:00 32.7 C 54 % 22.17 C
1367 10-07-2016 17:50:00 32.6 C 47 % 19.81 C
1368 10-07-2016 17:55:00 32.3 C 50 % 20.54 C
1369 10-07-2016 18:00:00 32.3 C 54 % 21.8 C
1370 10-07-2016 18:05:00 31.8 C 49 % 19.76 C
1371 10-07-2016 18:10:00 31.1 C 53 % 20.39 C
1372 10-07-2016 18:15:00 30.4 C 54 % 20.04 C
1373 10-07-2016 18:20:00 29.9 C 59 % 21.01 C
1374 10-07-2016 18:25:00 29.5 C 59 % 20.64 C
1375 10-07-2016 18:30:00 29.3 C 64 % 21.78 C
Sensor: Nr:Datum:Temp:Feuchte:Taupunkt:
Aussen-T/F 1376 10-07-2016 18:35:00 29.3 C 63 % 21.52 C
1377 10-07-2016 18:40:00 29.4 C 63 % 21.61 C
1378 10-07-2016 18:45:00 29.4 C 64 % 21.87 C
1379 10-07-2016 18:50:00 29.4 C 64 % 21.87 C
1380 10-07-2016 18:55:00 29.2 C 65 % 21.94 C
1381 10-07-2016 19:00:00 28.8 C 65 % 21.56 C
1382 10-07-2016 19:05:00 28.4 C 67 % 21.68 C
1383 10-07-2016 19:10:00 27.9 C 67 % 21.2 C
1384 10-07-2016 19:15:00 27.5 C 68 % 21.06 C
1385 10-07-2016 19:20:00 27.2 C 69 % 21.01 C
1386 10-07-2016 19:25:00 26.9 C 70 % 20.96 C
1387 10-07-2016 19:30:00 26.7 C 71 % 21 C
1388 10-07-2016 19:35:00 26.5 C 71 % 20.81 C
1389 10-07-2016 19:40:00 26.3 C 72 % 20.85 C
1390 10-07-2016 19:45:00 26.1 C 72 % 20.65 C
1391 10-07-2016 19:50:00 25.8 C 73 % 20.59 C
1392 10-07-2016 19:55:00 25.7 C 74 % 20.71 C
1393 10-07-2016 20:00:00 25.5 C 75 % 20.74 C
1394 10-07-2016 20:05:00 25.3 C 76 % 20.76 C
1395 10-07-2016 20:10:00 25.3 C 76 % 20.76 C
1396 10-07-2016 20:15:00 25.2 C 77 % 20.88 C
1397 10-07-2016 20:20:00 25.1 C 77 % 20.78 C
1398 10-07-2016 20:25:00 25 C 78 % 20.89 C
1399 10-07-2016 20:30:00 24.9 C 77 % 20.59 C
1400 10-07-2016 20:35:00 24.8 C 78 % 20.7 C
Sensor: Nr:Datum:Temp:Feuchte:Taupunkt:
Aussen-T/F 1401 10-07-2016 20:40:00 24.7 C 78 % 20.6 C
1402 10-07-2016 20:45:00 24.6 C 77 % 20.3 C
1403 10-07-2016 20:50:00 24.5 C 77 % 20.2 C
1404 10-07-2016 20:55:00 24.4 C 76 % 19.89 C
1405 10-07-2016 21:00:00 24.3 C 76 % 19.8 C
1406 10-07-2016 21:05:00 24.2 C 76 % 19.7 C
1407 10-07-2016 21:10:00 24 C 77 % 19.72 C
1408 10-07-2016 21:15:00 23.8 C 76 % 19.31 C
1409 10-07-2016 21:20:00 23.7 C 77 % 19.43 C
1410 10-07-2016 21:25:00 23.4 C 77 % 19.14 C
1411 10-07-2016 21:30:00 23.3 C 78 % 19.25 C
1412 10-07-2016 21:35:00 23.1 C 78 % 19.05 C
1413 10-07-2016 21:40:00 23 C 78 % 18.96 C
1414 10-07-2016 21:45:00 22.8 C 78 % 18.76 C
1415 10-07-2016 21:50:00 22.8 C 79 % 18.97 C
1416 10-07-2016 21:55:00 22.7 C 79 % 18.87 C
1417 10-07-2016 22:00:00 22.7 C 79 % 18.87 C
1418 10-07-2016 22:05:00 22.6 C 80 % 18.97 C
1419 10-07-2016 22:10:00 22.6 C 80 % 18.97 C
1420 10-07-2016 22:15:00 22.5 C 80 % 18.88 C
1421 10-07-2016 22:20:00 22.4 C 80 % 18.78 C
1422 10-07-2016 22:25:00 22.3 C 81 % 18.88 C
1423 10-07-2016 22:30:00 22.3 C 81 % 18.88 C
1424 10-07-2016 22:35:00 22.2 C 81 % 18.78 C
1425 10-07-2016 22:40:00 22.1 C 81 % 18.69 C
Sensor: Nr:Datum:Temp:Feuchte:Taupunkt:
Aussen-T/F 1426 10-07-2016 22:45:00 22 C 81 % 18.59 C
1427 10-07-2016 22:50:00 21.9 C 82 % 18.69 C
1428 10-07-2016 22:55:00 21.9 C 82 % 18.69 C
1429 10-07-2016 23:00:00 21.8 C 82 % 18.59 C
1430 10-07-2016 23:05:00 21.7 C 82 % 18.49 C
1431 10-07-2016 23:10:00 21.7 C 82 % 18.49 C
1432 10-07-2016 23:15:00 21.6 C 82 % 18.39 C
1433 10-07-2016 23:20:00 21.5 C 83 % 18.49 C
1434 10-07-2016 23:25:00 21.4 C 83 % 18.39 C
1435 10-07-2016 23:30:00 21.3 C 83 % 18.29 C
1436 10-07-2016 23:35:00 21.3 C 84 % 18.49 C
1437 10-07-2016 23:40:00 21.2 C 84 % 18.39 C
1438 10-07-2016 23:45:00 21.2 C 84 % 18.39 C
1439 10-07-2016 23:50:00 21.1 C 84 % 18.29 C
1440 10-07-2016 23:55:00 21.1 C 84 % 18.29 C
1441 11-07-2016 00:00:00 21 C 84 % 18.19 C
1442 11-07-2016 00:05:00 21 C 84 % 18.19 C
1443 11-07-2016 00:10:00 20.9 C 85 % 18.28 C
1444 11-07-2016 00:15:00 20.9 C 84 % 18.09 C
1445 11-07-2016 00:20:00 20.8 C 85 % 18.18 C
1446 11-07-2016 00:25:00 20.8 C 85 % 18.18 C
1447 11-07-2016 00:30:00 20.7 C 85 % 18.09 C
1448 11-07-2016 00:35:00 20.7 C 85 % 18.09 C
1449 11-07-2016 00:40:00 20.6 C 85 % 17.99 C
1450 11-07-2016 00:45:00 20.6 C 86 % 18.18 C
Sensor: Nr:Datum:Temp:Feuchte:Taupunkt:
Aussen-T/F 1451 11-07-2016 00:50:00 20.5 C 86 % 18.08 C
1452 11-07-2016 00:55:00 20.4 C 86 % 17.98 C
1453 11-07-2016 01:00:00 20.4 C 86 % 17.98 C
1454 11-07-2016 01:05:00 20.4 C 86 % 17.98 C
1455 11-07-2016 01:10:00 20.3 C 86 % 17.88 C
1456 11-07-2016 01:15:00 20.3 C 86 % 17.88 C
1457 11-07-2016 01:20:00 20.3 C 86 % 17.88 C
1458 11-07-2016 01:25:00 20.3 C 87 % 18.06 C
1459 11-07-2016 01:30:00 20.2 C 87 % 17.97 C
1460 11-07-2016 01:35:00 20.2 C 87 % 17.97 C
1461 11-07-2016 01:40:00 20.2 C 87 % 17.97 C
1462 11-07-2016 01:45:00 20.1 C 87 % 17.87 C
1463 11-07-2016 01:50:00 20.1 C 87 % 17.87 C
1464 11-07-2016 01:55:00 19.9 C 87 % 17.67 C
1465 11-07-2016 02:00:00 19.9 C 87 % 17.67 C
1466 11-07-2016 02:05:00 19.8 C 87 % 17.57 C
1467 11-07-2016 02:10:00 19.7 C 87 % 17.47 C
1468 11-07-2016 02:15:00 19.6 C 87 % 17.38 C
1469 11-07-2016 02:20:00 19.6 C 87 % 17.38 C
1470 11-07-2016 02:25:00 19.4 C 87 % 17.18 C
1471 11-07-2016 02:30:00 19.3 C 88 % 17.26 C
1472 11-07-2016 02:35:00 19.3 C 88 % 17.26 C
1473 11-07-2016 02:40:00 19.2 C 88 % 17.16 C
1474 11-07-2016 02:45:00 19.1 C 88 % 17.07 C
1475 11-07-2016 02:50:00 19.1 C 89 % 17.24 C
Sensor: Nr:Datum:Temp:Feuchte:Taupunkt:
Aussen-T/F 1476 11-07-2016 02:55:00 19.1 C 89 % 17.24 C
1477 11-07-2016 03:00:00 19.2 C 89 % 17.34 C
1478 11-07-2016 03:05:00 19.1 C 89 % 17.24 C
1479 11-07-2016 03:10:00 19.2 C 90 % 17.52 C
1480 11-07-2016 03:15:00 19.2 C 90 % 17.52 C
1481 11-07-2016 03:20:00 19.3 C 90 % 17.62 C
1482 11-07-2016 03:25:00 19.3 C 90 % 17.62 C
1483 11-07-2016 03:30:00 19.3 C 90 % 17.62 C
1484 11-07-2016 03:35:00 19.2 C 90 % 17.52 C
1485 11-07-2016 03:40:00 19.2 C 89 % 17.34 C
1486 11-07-2016 03:45:00 19.1 C 89 % 17.24 C
1487 11-07-2016 03:50:00 19.1 C 90 % 17.42 C
1488 11-07-2016 03:55:00 19 C 90 % 17.32 C
1489 11-07-2016 04:00:00 19 C 89 % 17.15 C
1490 11-07-2016 04:05:00 18.9 C 89 % 17.05 C
1491 11-07-2016 04:10:00 18.9 C 89 % 17.05 C
1492 11-07-2016 04:15:00 18.9 C 89 % 17.05 C
1493 11-07-2016 04:20:00 18.8 C 89 % 16.95 C
1494 11-07-2016 04:25:00 18.7 C 89 % 16.85 C
1495 11-07-2016 04:30:00 18.6 C 90 % 16.93 C
1496 11-07-2016 04:35:00 18.5 C 90 % 16.83 C
1497 11-07-2016 04:40:00 18.4 C 90 % 16.73 C
1498 11-07-2016 04:45:00 18.4 C 90 % 16.73 C
1499 11-07-2016 04:50:00 18.4 C 91 % 16.9 C
1500 11-07-2016 04:55:00 18.6 C 91 % 17.1 C
Sensor: Nr:Datum:Temp:Feuchte:Taupunkt:
Aussen-T/F 1501 11-07-2016 05:00:00 18.6 C 91 % 17.1 C
1502 11-07-2016 05:05:00 18.6 C 91 % 17.1 C
1503 11-07-2016 05:10:00 18.6 C 91 % 17.1 C
1504 11-07-2016 05:15:00 18.6 C 91 % 17.1 C
1505 11-07-2016 05:20:00 18.6 C 91 % 17.1 C
1506 11-07-2016 05:25:00 18.7 C 91 % 17.2 C
1507 11-07-2016 05:30:00 18.7 C 91 % 17.2 C
1508 11-07-2016 05:35:00 18.8 C 91 % 17.3 C
1509 11-07-2016 05:40:00 18.8 C 91 % 17.3 C
1510 11-07-2016 05:45:00 18.8 C 91 % 17.3 C
1511 11-07-2016 05:50:00 18.8 C 91 % 17.3 C
1512 11-07-2016 05:55:00 18.9 C 91 % 17.4 C
1513 11-07-2016 06:00:00 18.9 C 91 % 17.4 C
1514 11-07-2016 06:05:00 18.9 C 90 % 17.22 C
1515 11-07-2016 06:10:00 18.9 C 90 % 17.22 C
1516 11-07-2016 06:15:00 18.9 C 90 % 17.22 C
1517 11-07-2016 06:20:00 18.9 C 90 % 17.22 C
1518 11-07-2016 06:25:00 18.9 C 90 % 17.22 C
1519 11-07-2016 06:30:00 18.9 C 91 % 17.4 C
1520 11-07-2016 06:35:00 19 C 91 % 17.5 C
1521 11-07-2016 06:40:00 19 C 91 % 17.5 C
1522 11-07-2016 06:45:00 19 C 91 % 17.5 C
1523 11-07-2016 06:50:00 19 C 91 % 17.5 C
1524 11-07-2016 06:55:00 19 C 91 % 17.5 C
1525 11-07-2016 07:00:00 19 C 91 % 17.5 C
Sensor: Nr:Datum:Temp:Feuchte:Taupunkt:
Aussen-T/F 1526 11-07-2016 07:05:00 19.1 C 91 % 17.6 C
1527 11-07-2016 07:10:00 19.1 C 91 % 17.6 C
1528 11-07-2016 07:15:00 19.1 C 91 % 17.6 C
1529 11-07-2016 07:20:00 19.1 C 91 % 17.6 C
1530 11-07-2016 07:25:00 19.2 C 91 % 17.69 C
1531 11-07-2016 07:30:00 19.2 C 91 % 17.69 C
1532 11-07-2016 07:35:00 19.3 C 92 % 17.97 C
1533 11-07-2016 07:40:00 19.4 C 92 % 18.07 C
1534 11-07-2016 07:45:00 19.5 C 91 % 17.99 C
1535 11-07-2016 07:50:00 19.6 C 91 % 18.09 C
1536 11-07-2016 07:55:00 19.7 C 91 % 18.19 C
1537 11-07-2016 08:00:00 19.8 C 91 % 18.29 C
1538 11-07-2016 08:05:00 19.9 C 91 % 18.39 C
1539 11-07-2016 08:10:00 20 C 91 % 18.49 C
1540 11-07-2016 08:15:00 20.1 C 91 % 18.58 C
1541 11-07-2016 08:20:00 20.1 C 90 % 18.41 C
1542 11-07-2016 08:25:00 20.1 C 90 % 18.41 C
1543 11-07-2016 08:30:00 20.2 C 90 % 18.51 C
1544 11-07-2016 08:35:00 20.2 C 90 % 18.51 C
1545 11-07-2016 08:40:00 20.3 C 90 % 18.61 C
1546 11-07-2016 08:45:00 20.4 C 88 % 18.34 C
1547 11-07-2016 08:50:00 20.6 C 86 % 18.18 C
1548 11-07-2016 08:55:00 20.8 C 86 % 18.37 C
1549 11-07-2016 09:00:00 21.2 C 84 % 18.39 C
1550 11-07-2016 09:05:00 21.3 C 85 % 18.67 C
Sensor: Nr:Datum:Temp:Feuchte:Taupunkt:
Aussen-T/F 1551 11-07-2016 09:10:00 21.5 C 83 % 18.49 C
1552 11-07-2016 09:15:00 21.7 C 81 % 18.3 C
1553 11-07-2016 09:20:00 22 C 80 % 18.39 C
1554 11-07-2016 09:25:00 22.2 C 78 % 18.18 C
1555 11-07-2016 09:30:00 22.3 C 78 % 18.28 C
1556 11-07-2016 09:35:00 22.4 C 77 % 18.17 C
1557 11-07-2016 09:40:00 22.7 C 74 % 17.83 C
1558 11-07-2016 09:45:00 22.8 C 74 % 17.92 C
1559 11-07-2016 09:50:00 23 C 73 % 17.9 C
1560 11-07-2016 09:55:00 23.1 C 75 % 18.43 C
1561 11-07-2016 10:00:00 23.1 C 74 % 18.21 C
1562 11-07-2016 10:05:00 23.1 C 73 % 17.99 C
1563 11-07-2016 10:10:00 23.2 C 73 % 18.09 C
1564 11-07-2016 10:15:00 23.4 C 72 % 18.06 C
1565 11-07-2016 10:20:00 23.5 C 70 % 17.71 C
1566 11-07-2016 10:25:00 23.6 C 69 % 17.58 C
1567 11-07-2016 10:30:00 23.7 C 67 % 17.21 C
1568 11-07-2016 10:35:00 24.1 C 68 % 17.82 C
1569 11-07-2016 10:40:00 24.3 C 65 % 17.3 C
1570 11-07-2016 10:45:00 24.5 C 68 % 18.2 C
1571 11-07-2016 10:50:00 24.4 C 64 % 17.15 C
1572 11-07-2016 10:55:00 24.3 C 63 % 16.81 C
1573 11-07-2016 11:00:00 24.1 C 62 % 16.37 C
1574 11-07-2016 11:05:00 23.8 C 64 % 16.58 C
1575 11-07-2016 11:10:00 23.6 C 66 % 16.88 C
Sensor: Nr:Datum:Temp:Feuchte:Taupunkt:
Aussen-T/F 1576 11-07-2016 11:15:00 23.4 C 66 % 16.69 C
1577 11-07-2016 11:20:00 23.3 C 66 % 16.59 C
1578 11-07-2016 11:25:00 23.3 C 70 % 17.52 C
1579 11-07-2016 11:30:00 23.2 C 70 % 17.42 C
1580 11-07-2016 11:35:00 23.2 C 70 % 17.42 C
1581 11-07-2016 11:40:00 23.3 C 71 % 17.75 C
1582 11-07-2016 11:45:00 23.5 C 69 % 17.48 C
1583 11-07-2016 11:50:00 23.6 C 68 % 17.35 C
1584 11-07-2016 11:55:00 23.7 C 69 % 17.67 C
1585 11-07-2016 12:00:00 23.7 C 68 % 17.44 C
1586 11-07-2016 12:05:00 23.7 C 69 % 17.67 C
1587 11-07-2016 12:10:00 23.6 C 68 % 17.35 C
1588 11-07-2016 12:15:00 23.6 C 69 % 17.58 C
1589 11-07-2016 12:20:00 23.6 C 69 % 17.58 C
1590 11-07-2016 12:25:00 23.7 C 68 % 17.44 C
1591 11-07-2016 12:30:00 23.8 C 67 % 17.3 C
1592 11-07-2016 12:35:00 23.8 C 69 % 17.77 C
1593 11-07-2016 12:40:00 23.9 C 70 % 18.09 C
1594 11-07-2016 12:45:00 24.1 C 66 % 17.35 C
1595 11-07-2016 12:50:00 24.3 C 65 % 17.3 C
1596 11-07-2016 12:55:00 24.4 C 64 % 17.15 C
1597 11-07-2016 13:00:00 24.5 C 62 % 16.74 C
1598 11-07-2016 13:05:00 24.4 C 61 % 16.39 C
1599 11-07-2016 13:10:00 24.4 C 64 % 17.15 C
1600 11-07-2016 13:15:00 24.4 C 65 % 17.39 C
Sensor: Nr:Datum:Temp:Feuchte:Taupunkt:
Aussen-T/F 1601 11-07-2016 13:20:00 24.4 C 65 % 17.39 C
1602 11-07-2016 13:25:00 24.4 C 63 % 16.9 C
1603 11-07-2016 13:30:00 24.4 C 63 % 16.9 C
1604 11-07-2016 13:35:00 24.4 C 62 % 16.65 C
1605 11-07-2016 13:40:00 24.4 C 64 % 17.15 C
1606 11-07-2016 13:45:00 24.4 C 61 % 16.39 C
1607 11-07-2016 13:50:00 24.4 C 62 % 16.65 C
1608 11-07-2016 13:55:00 24.4 C 62 % 16.65 C
1609 11-07-2016 14:00:00 24.5 C 58 % 15.7 C
1610 11-07-2016 14:05:00 24.5 C 56 % 15.15 C
1611 11-07-2016 14:10:00 24.6 C 58 % 15.79 C
1612 11-07-2016 14:15:00 24.7 C 54 % 14.77 C
1613 11-07-2016 14:20:00 24.6 C 55 % 14.96 C
1614 11-07-2016 14:25:00 24.4 C 56 % 15.06 C
1615 11-07-2016 14:30:00 24.4 C 56 % 15.06 C
1616 11-07-2016 14:35:00 24.4 C 57 % 15.33 C
1617 11-07-2016 14:40:00 24.4 C 56 % 15.06 C
1618 11-07-2016 14:45:00 24.3 C 55 % 14.68 C
1619 11-07-2016 14:50:00 24.2 C 57 % 15.14 C
1620 11-07-2016 14:55:00 24.3 C 56 % 14.96 C
1621 11-07-2016 15:00:00 24.3 C 58 % 15.51 C
1622 11-07-2016 15:05:00 24.3 C 55 % 14.68 C
1623 11-07-2016 15:10:00 24.4 C 59 % 15.87 C
1624 11-07-2016 15:15:00 24.5 C 55 % 14.87 C
1625 11-07-2016 15:20:00 24.5 C 57 % 15.42 C
Sensor: Nr:Datum:Temp:Feuchte:Taupunkt:
Aussen-T/F 1626 11-07-2016 15:25:00 24.3 C 57 % 15.24 C
1627 11-07-2016 15:30:00 24.3 C 58 % 15.51 C
1628 11-07-2016 15:35:00 24.2 C 57 % 15.14 C
1629 11-07-2016 15:40:00 24.2 C 56 % 14.87 C
1630 11-07-2016 15:45:00 24.2 C 56 % 14.87 C
1631 11-07-2016 15:50:00 24.1 C 58 % 15.32 C
1632 11-07-2016 15:55:00 24.2 C 58 % 15.42 C
1633 11-07-2016 16:00:00 24.2 C 56 % 14.87 C
1634 11-07-2016 16:05:00 24.3 C 58 % 15.51 C
1635 11-07-2016 16:10:00 24.3 C 57 % 15.24 C
1636 11-07-2016 16:15:00 24.3 C 58 % 15.51 C
1637 11-07-2016 16:20:00 24.3 C 60 % 16.04 C
1638 11-07-2016 16:25:00 24.3 C 58 % 15.51 C
1639 11-07-2016 16:30:00 24.3 C 59 % 15.78 C
1640 11-07-2016 16:35:00 24.4 C 63 % 16.9 C
1641 11-07-2016 16:40:00 24.4 C 60 % 16.13 C
1642 11-07-2016 16:45:00 24.4 C 63 % 16.9 C
1643 11-07-2016 16:50:00 24.6 C 61 % 16.58 C
1644 11-07-2016 16:55:00 24.7 C 59 % 16.15 C
1645 11-07-2016 17:00:00 24.7 C 60 % 16.41 C
1646 11-07-2016 17:05:00 24.7 C 59 % 16.15 C
1647 11-07-2016 17:10:00 24.5 C 62 % 16.74 C
1648 11-07-2016 17:15:00 24.3 C 62 % 16.55 C
1649 11-07-2016 17:20:00 24.2 C 64 % 16.96 C
1650 11-07-2016 17:25:00 24.1 C 63 % 16.62 C
Sensor: Nr:Datum:Temp:Feuchte:Taupunkt:
Aussen-T/F 1651 11-07-2016 17:30:00 24.1 C 63 % 16.62 C
1652 11-07-2016 17:35:00 24.1 C 64 % 16.86 C
1653 11-07-2016 17:40:00 23.9 C 70 % 18.09 C
1654 11-07-2016 17:45:00 23.8 C 66 % 17.07 C
1655 11-07-2016 17:50:00 23.9 C 64 % 16.68 C
1656 11-07-2016 17:55:00 24.2 C 61 % 16.2 C
1657 11-07-2016 18:00:00 24.4 C 59 % 15.87 C
1658 11-07-2016 18:05:00 24.3 C 59 % 15.78 C
1659 11-07-2016 18:10:00 24.2 C 59 % 15.68 C
1660 11-07-2016 18:15:00 24.1 C 58 % 15.32 C
1661 11-07-2016 18:20:00 24 C 61 % 16.02 C
1662 11-07-2016 18:25:00 24 C 58 % 15.23 C
1663 11-07-2016 18:30:00 24.2 C 57 % 15.14 C
1664 11-07-2016 18:35:00 24.2 C 56 % 14.87 C
1665 11-07-2016 18:40:00 24.1 C 56 % 14.78 C
1666 11-07-2016 18:45:00 24.1 C 57 % 15.05 C
1667 11-07-2016 18:50:00 24.3 C 59 % 15.78 C
1668 11-07-2016 18:55:00 24.4 C 56 % 15.06 C
1669 11-07-2016 19:00:00 24.4 C 56 % 15.06 C
1670 11-07-2016 19:05:00 24.2 C 54 % 14.31 C
1671 11-07-2016 19:10:00 23.9 C 54 % 14.03 C
1672 11-07-2016 19:15:00 23.6 C 56 % 14.31 C
1673 11-07-2016 19:20:00 23.6 C 56 % 14.31 C
1674 11-07-2016 19:25:00 23.7 C 56 % 14.4 C
1675 11-07-2016 19:30:00 23.6 C 55 % 14.03 C
Sensor: Nr:Datum:Temp:Feuchte:Taupunkt:
Aussen-T/F 1676 11-07-2016 19:35:00 23.4 C 56 % 14.13 C
1677 11-07-2016 19:40:00 23.2 C 57 % 14.21 C
1678 11-07-2016 19:45:00 23.1 C 58 % 14.39 C
1679 11-07-2016 19:50:00 23.2 C 59 % 14.75 C
1680 11-07-2016 19:55:00 23.3 C 59 % 14.84 C
1681 11-07-2016 20:00:00 23.2 C 59 % 14.75 C
1682 11-07-2016 20:05:00 22.8 C 58 % 14.11 C
1683 11-07-2016 20:10:00 22.6 C 60 % 14.44 C
1684 11-07-2016 20:15:00 22.2 C 61 % 14.32 C
1685 11-07-2016 20:20:00 21.9 C 61 % 14.04 C
1686 11-07-2016 20:25:00 21.7 C 63 % 14.35 C
1687 11-07-2016 20:30:00 21.4 C 62 % 13.82 C
1688 11-07-2016 20:35:00 21.3 C 64 % 14.22 C
1689 11-07-2016 20:40:00 21.2 C 64 % 14.12 C
1690 11-07-2016 20:45:00 21.1 C 64 % 14.03 C
1691 11-07-2016 20:50:00 20.9 C 64 % 13.84 C
1692 11-07-2016 20:55:00 20.8 C 65 % 13.98 C
1693 11-07-2016 21:00:00 20.8 C 65 % 13.98 C
1694 11-07-2016 21:05:00 20.7 C 66 % 14.12 C
1695 11-07-2016 21:10:00 20.6 C 66 % 14.03 C
1696 11-07-2016 21:15:00 20.5 C 66 % 13.93 C
1697 11-07-2016 21:20:00 20.4 C 65 % 13.6 C
1698 11-07-2016 21:25:00 20.4 C 66 % 13.84 C
1699 11-07-2016 21:30:00 20.3 C 67 % 13.97 C
1700 11-07-2016 21:35:00 20.2 C 67 % 13.88 C
Sensor: Nr:Datum:Temp:Feuchte:Taupunkt:
Aussen-T/F 1701 11-07-2016 21:40:00 20.1 C 66 % 13.55 C
1702 11-07-2016 21:45:00 20.1 C 66 % 13.55 C
1703 11-07-2016 21:50:00 20.1 C 67 % 13.78 C
1704 11-07-2016 21:55:00 20 C 67 % 13.69 C
1705 11-07-2016 22:00:00 19.9 C 68 % 13.82 C
1706 11-07-2016 22:05:00 19.9 C 69 % 14.05 C
1707 11-07-2016 22:10:00 19.8 C 68 % 13.73 C
1708 11-07-2016 22:15:00 19.8 C 70 % 14.17 C
1709 11-07-2016 22:20:00 19.7 C 70 % 14.08 C
1710 11-07-2016 22:25:00 19.7 C 71 % 14.3 C
1711 11-07-2016 22:30:00 19.6 C 70 % 13.98 C
1712 11-07-2016 22:35:00 19.6 C 71 % 14.2 C
1713 11-07-2016 22:40:00 19.4 C 71 % 14.01 C
1714 11-07-2016 22:45:00 19.4 C 71 % 14.01 C
1715 11-07-2016 22:50:00 19.3 C 73 % 14.34 C
1716 11-07-2016 22:55:00 19.3 C 72 % 14.13 C
1717 11-07-2016 23:00:00 19.2 C 73 % 14.25 C
1718 11-07-2016 23:05:00 19.2 C 73 % 14.25 C
1719 11-07-2016 23:10:00 19.1 C 74 % 14.36 C
1720 11-07-2016 23:15:00 19.1 C 74 % 14.36 C
1721 11-07-2016 23:20:00 18.9 C 75 % 14.37 C
1722 11-07-2016 23:25:00 18.9 C 75 % 14.37 C
1723 11-07-2016 23:30:00 18.8 C 76 % 14.48 C
1724 11-07-2016 23:35:00 18.8 C 75 % 14.28 C
1725 11-07-2016 23:40:00 18.7 C 75 % 14.18 C
Sensor: Nr:Datum:Temp:Feuchte:Taupunkt:
Aussen-T/F 1726 11-07-2016 23:45:00 18.7 C 75 % 14.18 C
1727 11-07-2016 23:50:00 18.6 C 76 % 14.29 C
1728 11-07-2016 23:55:00 18.6 C 77 % 14.49 C
1729 12-07-2016 00:00:00 18.6 C 77 % 14.49 C
1730 12-07-2016 00:05:00 18.4 C 77 % 14.3 C
1731 12-07-2016 00:10:00 18.4 C 77 % 14.3 C
1732 12-07-2016 00:15:00 18.3 C 77 % 14.2 C
1733 12-07-2016 00:20:00 18.3 C 79 % 14.6 C
1734 12-07-2016 00:25:00 18.3 C 79 % 14.6 C
1735 12-07-2016 00:30:00 18.3 C 80 % 14.79 C
1736 12-07-2016 00:35:00 18.2 C 79 % 14.5 C
1737 12-07-2016 00:40:00 18.2 C 79 % 14.5 C
1738 12-07-2016 00:45:00 18.1 C 79 % 14.4 C
1739 12-07-2016 00:50:00 18.1 C 78 % 14.21 C
1740 12-07-2016 00:55:00 18.1 C 78 % 14.21 C
1741 12-07-2016 01:00:00 18.1 C 78 % 14.21 C
1742 12-07-2016 01:05:00 18.1 C 77 % 14.01 C
1743 12-07-2016 01:10:00 18.1 C 78 % 14.21 C
1744 12-07-2016 01:15:00 17.9 C 78 % 14.01 C
1745 12-07-2016 01:20:00 17.8 C 78 % 13.91 C
1746 12-07-2016 01:25:00 17.7 C 79 % 14.01 C
1747 12-07-2016 01:30:00 17.5 C 78 % 13.62 C
1748 12-07-2016 01:35:00 17.4 C 78 % 13.53 C
1749 12-07-2016 01:40:00 17.4 C 79 % 13.72 C
1750 12-07-2016 01:45:00 17.4 C 78 % 13.53 C
Sensor: Nr:Datum:Temp:Feuchte:Taupunkt:
Aussen-T/F 1751 12-07-2016 01:50:00 17.3 C 79 % 13.63 C
1752 12-07-2016 01:55:00 17.3 C 80 % 13.82 C
1753 12-07-2016 02:00:00 17.2 C 80 % 13.72 C
1754 12-07-2016 02:05:00 17.1 C 80 % 13.62 C
1755 12-07-2016 02:10:00 16.9 C 81 % 13.62 C
1756 12-07-2016 02:15:00 16.8 C 81 % 13.52 C
1757 12-07-2016 02:20:00 16.6 C 81 % 13.33 C
1758 12-07-2016 02:25:00 16.4 C 82 % 13.32 C
1759 12-07-2016 02:30:00 16.3 C 82 % 13.22 C
1760 12-07-2016 02:35:00 16.1 C 83 % 13.21 C
1761 12-07-2016 02:40:00 15.9 C 83 % 13.02 C
1762 12-07-2016 02:45:00 15.8 C 84 % 13.1 C
1763 12-07-2016 02:50:00 15.7 C 84 % 13.01 C
1764 12-07-2016 02:55:00 15.6 C 85 % 13.09 C
1765 12-07-2016 03:00:00 15.5 C 85 % 12.99 C
1766 12-07-2016 03:05:00 15.4 C 86 % 13.07 C
1767 12-07-2016 03:10:00 15.3 C 86 % 12.97 C
1768 12-07-2016 03:15:00 15.2 C 86 % 12.88 C
1769 12-07-2016 03:20:00 15.1 C 86 % 12.78 C
1770 12-07-2016 03:25:00 15 C 87 % 12.86 C
1771 12-07-2016 03:30:00 14.9 C 87 % 12.76 C
1772 12-07-2016 03:35:00 14.8 C 87 % 12.66 C
1773 12-07-2016 03:40:00 14.8 C 88 % 12.83 C
1774 12-07-2016 03:45:00 14.7 C 88 % 12.73 C
1775 12-07-2016 03:50:00 14.7 C 88 % 12.73 C
Sensor: Nr:Datum:Temp:Feuchte:Taupunkt:
Aussen-T/F 1776 12-07-2016 03:55:00 14.7 C 88 % 12.73 C
1777 12-07-2016 04:00:00 14.6 C 89 % 12.81 C
1778 12-07-2016 04:05:00 14.6 C 89 % 12.81 C
1779 12-07-2016 04:10:00 14.6 C 89 % 12.81 C
1780 12-07-2016 04:15:00 14.6 C 89 % 12.81 C
1781 12-07-2016 04:20:00 14.5 C 89 % 12.71 C
1782 12-07-2016 04:25:00 14.4 C 89 % 12.61 C
1783 12-07-2016 04:30:00 14.4 C 90 % 12.78 C
1784 12-07-2016 04:35:00 14.4 C 90 % 12.78 C
1785 12-07-2016 04:40:00 14.4 C 90 % 12.78 C
1786 12-07-2016 04:45:00 14.4 C 90 % 12.78 C
1787 12-07-2016 04:50:00 14.4 C 90 % 12.78 C
1788 12-07-2016 04:55:00 14.4 C 91 % 12.95 C
1789 12-07-2016 05:00:00 14.4 C 91 % 12.95 C
1790 12-07-2016 05:05:00 14.4 C 91 % 12.95 C
1791 12-07-2016 05:10:00 14.4 C 91 % 12.95 C
1792 12-07-2016 05:15:00 14.3 C 91 % 12.85 C
1793 12-07-2016 05:20:00 14.3 C 91 % 12.85 C
1794 12-07-2016 05:25:00 14.3 C 91 % 12.85 C
1795 12-07-2016 05:30:00 14.3 C 91 % 12.85 C
1796 12-07-2016 05:35:00 14.2 C 91 % 12.75 C
1797 12-07-2016 05:40:00 14.2 C 92 % 12.92 C
1798 12-07-2016 05:45:00 14.2 C 92 % 12.92 C
1799 12-07-2016 05:50:00 14.2 C 92 % 12.92 C
1800 12-07-2016 05:55:00 14.3 C 92 % 13.02 C
Sensor: Nr:Datum:Temp:Feuchte:Taupunkt:
Aussen-T/F 1801 12-07-2016 06:00:00 14.3 C 92 % 13.02 C
1802 12-07-2016 06:05:00 14.3 C 92 % 13.02 C
1803 12-07-2016 06:10:00 14.5 C 92 % 13.22 C
1804 12-07-2016 06:15:00 14.6 C 92 % 13.32 C
1805 12-07-2016 06:20:00 14.7 C 92 % 13.41 C
1806 12-07-2016 06:25:00 14.7 C 91 % 13.25 C
1807 12-07-2016 06:30:00 14.7 C 91 % 13.25 C
1808 12-07-2016 06:35:00 14.8 C 91 % 13.35 C
1809 12-07-2016 06:40:00 14.8 C 91 % 13.35 C
1810 12-07-2016 06:45:00 14.8 C 91 % 13.35 C
1811 12-07-2016 06:50:00 14.8 C 91 % 13.35 C
1812 12-07-2016 06:55:00 14.9 C 91 % 13.44 C
1813 12-07-2016 07:00:00 14.8 C 90 % 13.18 C
1814 12-07-2016 07:05:00 14.9 C 91 % 13.44 C
1815 12-07-2016 07:10:00 14.9 C 90 % 13.28 C
1816 12-07-2016 07:15:00 15 C 91 % 13.54 C
1817 12-07-2016 07:20:00 15.1 C 91 % 13.64 C
1818 12-07-2016 07:25:00 15.2 C 91 % 13.74 C
1819 12-07-2016 07:30:00 15.3 C 90 % 13.67 C
1820 12-07-2016 07:35:00 15.5 C 89 % 13.7 C
1821 12-07-2016 07:40:00 15.6 C 89 % 13.79 C
1822 12-07-2016 07:45:00 15.7 C 89 % 13.89 C
1823 12-07-2016 07:50:00 15.7 C 90 % 14.06 C
1824 12-07-2016 07:55:00 15.8 C 90 % 14.16 C
1825 12-07-2016 08:00:00 15.9 C 89 % 14.09 C
Sensor: Nr:Datum:Temp:Feuchte:Taupunkt:
Aussen-T/F 1826 12-07-2016 08:05:00 16 C 89 % 14.19 C
1827 12-07-2016 08:10:00 16.1 C 87 % 13.94 C
1828 12-07-2016 08:15:00 16.3 C 87 % 14.13 C
1829 12-07-2016 08:20:00 16.4 C 87 % 14.23 C
1830 12-07-2016 08:25:00 16.7 C 87 % 14.53 C
1831 12-07-2016 08:30:00 16.9 C 86 % 14.54 C
1832 12-07-2016 08:35:00 17.1 C 85 % 14.56 C
1833 12-07-2016 08:40:00 17.3 C 83 % 14.39 C
1834 12-07-2016 08:45:00 17.5 C 83 % 14.58 C
1835 12-07-2016 08:50:00 17.7 C 84 % 14.96 C
1836 12-07-2016 08:55:00 17.8 C 85 % 15.25 C
1837 12-07-2016 09:00:00 17.9 C 85 % 15.34 C
1838 12-07-2016 09:05:00 18 C 85 % 15.44 C
1839 12-07-2016 09:10:00 18.1 C 84 % 15.35 C
1840 12-07-2016 09:15:00 18.2 C 82 % 15.08 C
1841 12-07-2016 09:20:00 18.3 C 83 % 15.36 C
1842 12-07-2016 09:25:00 18.3 C 80 % 14.79 C
1843 12-07-2016 09:30:00 18.4 C 82 % 15.27 C
1844 12-07-2016 09:35:00 18.5 C 80 % 14.99 C
1845 12-07-2016 09:40:00 18.6 C 79 % 14.89 C
1846 12-07-2016 09:45:00 18.7 C 77 % 14.59 C
1847 12-07-2016 09:50:00 18.8 C 76 % 14.48 C
1848 12-07-2016 09:55:00 18.9 C 79 % 15.18 C
1849 12-07-2016 10:00:00 19.1 C 79 % 15.37 C
1850 12-07-2016 10:05:00 19.3 C 78 % 15.37 C
Sensor: Nr:Datum:Temp:Feuchte:Taupunkt:
Aussen-T/F 1851 12-07-2016 10:10:00 19.4 C 75 % 14.86 C
1852 12-07-2016 10:15:00 19.7 C 73 % 14.73 C
1853 12-07-2016 10:20:00 19.8 C 73 % 14.82 C
1854 12-07-2016 10:25:00 20.1 C 71 % 14.68 C
1855 12-07-2016 10:30:00 20.2 C 69 % 14.33 C
1856 12-07-2016 10:35:00 20.3 C 73 % 15.3 C
1857 12-07-2016 10:40:00 20.2 C 70 % 14.56 C
1858 12-07-2016 10:45:00 20.2 C 70 % 14.56 C
1859 12-07-2016 10:50:00 20.3 C 69 % 14.43 C
1860 12-07-2016 10:55:00 20.4 C 70 % 14.75 C
1861 12-07-2016 11:00:00 20.6 C 70 % 14.94 C
1862 12-07-2016 11:05:00 20.8 C 67 % 14.45 C
1863 12-07-2016 11:10:00 20.8 C 70 % 15.13 C
1864 12-07-2016 11:15:00 20.9 C 66 % 14.31 C
1865 12-07-2016 11:20:00 20.9 C 67 % 14.55 C
1866 12-07-2016 11:25:00 21 C 65 % 14.17 C
1867 12-07-2016 11:30:00 21.1 C 67 % 14.74 C
1868 12-07-2016 11:35:00 21.1 C 67 % 14.74 C
1869 12-07-2016 11:40:00 21.1 C 69 % 15.19 C
1870 12-07-2016 11:45:00 21 C 71 % 15.54 C
1871 12-07-2016 11:50:00 21.1 C 67 % 14.74 C
1872 12-07-2016 11:55:00 21.3 C 64 % 14.22 C
1873 12-07-2016 12:00:00 21.6 C 63 % 14.26 C
1874 12-07-2016 12:05:00 21.8 C 64 % 14.69 C
1875 12-07-2016 12:10:00 21.9 C 66 % 15.26 C
Sensor: Nr:Datum:Temp:Feuchte:Taupunkt:
Aussen-T/F 1876 12-07-2016 12:15:00 22.1 C 62 % 14.48 C
1877 12-07-2016 12:20:00 22.2 C 63 % 14.82 C
1878 12-07-2016 12:25:00 22.2 C 67 % 15.78 C
1879 12-07-2016 12:30:00 22.1 C 61 % 14.23 C
1880 12-07-2016 12:35:00 21.9 C 63 % 14.54 C
1881 12-07-2016 12:40:00 21.8 C 70 % 16.09 C
1882 12-07-2016 12:45:00 21.7 C 73 % 16.65 C
1883 12-07-2016 12:50:00 21.7 C 69 % 15.77 C
1884 12-07-2016 12:55:00 21.6 C 65 % 14.74 C
1885 12-07-2016 13:00:00 21.7 C 62 % 14.1 C
1886 12-07-2016 13:05:00 21.9 C 68 % 15.73 C
1887 12-07-2016 13:10:00 22.1 C 67 % 15.69 C
1888 12-07-2016 13:15:00 22.2 C 68 % 16.01 C
1889 12-07-2016 13:20:00 22.2 C 69 % 16.24 C
1890 12-07-2016 13:25:00 22.1 C 69 % 16.15 C
1891 12-07-2016 13:30:00 22.1 C 65 % 15.21 C
1892 12-07-2016 13:35:00 22.1 C 62 % 14.48 C
1893 12-07-2016 13:40:00 22.2 C 60 % 14.07 C
1894 12-07-2016 13:45:00 22.3 C 58 % 13.64 C
1895 12-07-2016 13:50:00 22.6 C 58 % 13.92 C
1896 12-07-2016 13:55:00 22.7 C 57 % 13.75 C
1897 12-07-2016 14:00:00 22.8 C 57 % 13.84 C
1898 12-07-2016 14:05:00 22.8 C 56 % 13.57 C
1899 12-07-2016 14:10:00 22.8 C 62 % 15.14 C
1900 12-07-2016 14:15:00 22.7 C 55 % 13.2 C
Sensor: Nr:Datum:Temp:Feuchte:Taupunkt:
Aussen-T/F 1901 12-07-2016 14:20:00 22.8 C 60 % 14.63 C
1902 12-07-2016 14:25:00 22.8 C 56 % 13.57 C
1903 12-07-2016 14:30:00 22.9 C 56 % 13.66 C
1904 12-07-2016 14:35:00 23.2 C 56 % 13.94 C
1905 12-07-2016 14:40:00 23.4 C 52 % 12.99 C
1906 12-07-2016 14:45:00 23.6 C 56 % 14.31 C
1907 12-07-2016 14:50:00 23.8 C 52 % 13.36 C
1908 12-07-2016 14:55:00 23.9 C 52 % 13.45 C
1909 12-07-2016 15:00:00 24.2 C 52 % 13.73 C
1910 12-07-2016 15:05:00 24.3 C 54 % 14.4 C
1911 12-07-2016 15:10:00 24.4 C 49 % 13 C
1912 12-07-2016 15:15:00 24.6 C 48 % 12.87 C
1913 12-07-2016 15:20:00 24.8 C 47 % 12.73 C
1914 12-07-2016 15:25:00 24.9 C 49 % 13.46 C
1915 12-07-2016 15:30:00 25.1 C 49 % 13.64 C
1916 12-07-2016 15:35:00 25.3 C 48 % 13.5 C
1917 12-07-2016 15:40:00 25.4 C 48 % 13.6 C
1918 12-07-2016 15:45:00 25.3 C 48 % 13.5 C
1919 12-07-2016 15:50:00 25.1 C 48 % 13.32 C
1920 12-07-2016 15:55:00 25.1 C 51 % 14.25 C
1921 12-07-2016 16:00:00 25.6 C 51 % 14.71 C
1922 12-07-2016 16:05:00 26 C 45 % 13.15 C
1923 12-07-2016 16:10:00 25.6 C 48 % 13.78 C
1924 12-07-2016 16:15:00 25.3 C 46 % 12.85 C
1925 12-07-2016 16:20:00 24.8 C 47 % 12.73 C
Sensor: Nr:Datum:Temp:Feuchte:Taupunkt:
Aussen-T/F 1926 12-07-2016 16:25:00 24.4 C 52 % 13.91 C
1927 12-07-2016 16:30:00 24.3 C 52 % 13.82 C
1928 12-07-2016 16:35:00 24.2 C 56 % 14.87 C
1929 12-07-2016 16:40:00 24.1 C 53 % 13.93 C
1930 12-07-2016 16:45:00 24.1 C 51 % 13.34 C
1931 12-07-2016 16:50:00 23.8 C 55 % 14.22 C
1932 12-07-2016 16:55:00 23.7 C 58 % 14.95 C
1933 12-07-2016 17:00:00 23.9 C 58 % 15.14 C
1934 12-07-2016 17:05:00 24.2 C 55 % 14.59 C
1935 12-07-2016 17:10:00 24.3 C 54 % 14.4 C
1936 12-07-2016 17:15:00 24.4 C 53 % 14.2 C
1937 12-07-2016 17:20:00 24.1 C 53 % 13.93 C
1938 12-07-2016 17:25:00 23.9 C 54 % 14.03 C
1939 12-07-2016 17:30:00 24 C 55 % 14.41 C
1940 12-07-2016 17:35:00 24 C 55 % 14.41 C
1941 12-07-2016 17:40:00 24.1 C 55 % 14.5 C
1942 12-07-2016 17:45:00 24.2 C 52 % 13.73 C
1943 12-07-2016 17:50:00 24.6 C 53 % 14.39 C
1944 12-07-2016 17:55:00 24.7 C 53 % 14.48 C
1945 12-07-2016 18:00:00 24.6 C 53 % 14.39 C
1946 12-07-2016 18:05:00 24.2 C 54 % 14.31 C
1947 12-07-2016 18:10:00 24.3 C 55 % 14.68 C
1948 12-07-2016 18:15:00 24.2 C 53 % 14.02 C
1949 12-07-2016 18:20:00 23.8 C 54 % 13.94 C
1950 12-07-2016 18:25:00 23.3 C 56 % 14.03 C
Sensor: Nr:Datum:Temp:Feuchte:Taupunkt:
Aussen-T/F 1951 12-07-2016 18:30:00 22.9 C 57 % 13.93 C
1952 12-07-2016 18:35:00 22.8 C 59 % 14.37 C
1953 12-07-2016 18:40:00 22.7 C 64 % 15.54 C
1954 12-07-2016 18:45:00 23.1 C 65 % 16.16 C
1955 12-07-2016 18:50:00 23.1 C 63 % 15.67 C
1956 12-07-2016 18:55:00 23.2 C 63 % 15.77 C
1957 12-07-2016 19:00:00 23.1 C 58 % 14.39 C
1958 12-07-2016 19:05:00 22.6 C 59 % 14.18 C
1959 12-07-2016 19:10:00 22.3 C 59 % 13.9 C
1960 12-07-2016 19:15:00 22.3 C 59 % 13.9 C
1961 12-07-2016 19:20:00 22.2 C 58 % 13.55 C
1962 12-07-2016 19:25:00 22.1 C 60 % 13.98 C
1963 12-07-2016 19:30:00 22.1 C 61 % 14.23 C
1964 12-07-2016 19:35:00 21.9 C 61 % 14.04 C
1965 12-07-2016 19:40:00 21.8 C 62 % 14.2 C
1966 12-07-2016 19:45:00 21.7 C 63 % 14.35 C
1967 12-07-2016 19:50:00 21.6 C 63 % 14.26 C
1968 12-07-2016 19:55:00 21.3 C 64 % 14.22 C
1969 12-07-2016 20:00:00 21.1 C 64 % 14.03 C
1970 12-07-2016 20:05:00 20.8 C 66 % 14.22 C
1971 12-07-2016 20:10:00 20.5 C 69 % 14.62 C
1972 12-07-2016 20:15:00 20.3 C 73 % 15.3 C
1973 12-07-2016 20:20:00 19.9 C 75 % 15.34 C
1974 12-07-2016 20:25:00 19.6 C 77 % 15.46 C
1975 12-07-2016 20:30:00 19.1 C 77 % 14.97 C
Sensor: Nr:Datum:Temp:Feuchte:Taupunkt:
Aussen-T/F 1976 12-07-2016 20:35:00 18.6 C 78 % 14.69 C
1977 12-07-2016 20:40:00 18.2 C 80 % 14.69 C
1978 12-07-2016 20:45:00 17.9 C 80 % 14.4 C
1979 12-07-2016 20:50:00 17.7 C 81 % 14.4 C
1980 12-07-2016 20:55:00 17.6 C 83 % 14.68 C
1981 12-07-2016 21:00:00 17.4 C 81 % 14.11 C
1982 12-07-2016 21:05:00 17.4 C 83 % 14.48 C
1983 12-07-2016 21:10:00 17.3 C 84 % 14.57 C
1984 12-07-2016 21:15:00 17.2 C 84 % 14.47 C
1985 12-07-2016 21:20:00 17.3 C 81 % 14.01 C
1986 12-07-2016 21:25:00 17.4 C 79 % 13.72 C
1987 12-07-2016 21:30:00 17.7 C 78 % 13.82 C
1988 12-07-2016 21:35:00 17.8 C 78 % 13.91 C
1989 12-07-2016 21:40:00 17.9 C 80 % 14.4 C
1990 12-07-2016 21:45:00 17.8 C 83 % 14.88 C
1991 12-07-2016 21:50:00 17.7 C 86 % 15.33 C
1992 12-07-2016 21:55:00 17.5 C 86 % 15.13 C
1993 12-07-2016 22:00:00 17.3 C 87 % 15.12 C
1994 12-07-2016 22:05:00 17 C 87 % 14.82 C
1995 12-07-2016 22:10:00 16.8 C 88 % 14.8 C
1996 12-07-2016 22:15:00 16.6 C 89 % 14.78 C
1997 12-07-2016 22:20:00 16.5 C 90 % 14.85 C
1998 12-07-2016 22:25:00 16.4 C 90 % 14.76 C
1999 12-07-2016 22:30:00 16.3 C 91 % 14.83 C
2000 12-07-2016 22:35:00 16.3 C 91 % 14.83 C
Sensor: Nr:Datum:Temp:Feuchte:Taupunkt:
Aussen-T/F 2001 12-07-2016 22:40:00 16.3 C 92 % 15 C
2002 12-07-2016 22:45:00 16.2 C 92 % 14.9 C
2003 12-07-2016 22:50:00 16.2 C 92 % 14.9 C
2004 12-07-2016 22:55:00 16.1 C 92 % 14.8 C
2005 12-07-2016 23:00:00 16 C 92 % 14.7 C
2006 12-07-2016 23:05:00 15.9 C 92 % 14.6 C
2007 12-07-2016 23:10:00 15.8 C 92 % 14.5 C
2008 12-07-2016 23:15:00 15.7 C 92 % 14.4 C
2009 12-07-2016 23:20:00 15.7 C 92 % 14.4 C
2010 12-07-2016 23:25:00 15.6 C 92 % 14.31 C
2011 12-07-2016 23:30:00 15.5 C 93 % 14.37 C
2012 12-07-2016 23:35:00 15.4 C 93 % 14.27 C
2013 12-07-2016 23:40:00 15.3 C 93 % 14.18 C
2014 12-07-2016 23:45:00 15.3 C 93 % 14.18 C
2015 12-07-2016 23:50:00 15.3 C 93 % 14.18 C
2016 12-07-2016 23:55:00 15.3 C 94 % 14.34 C
2017 13-07-2016 00:00:00 15.3 C 94 % 14.34 C
2018 13-07-2016 00:05:00 15.2 C 94 % 14.24 C
2019 13-07-2016 00:10:00 15.2 C 94 % 14.24 C
2020 13-07-2016 00:15:00 15.1 C 94 % 14.14 C
2021 13-07-2016 00:20:00 15.1 C 93 % 13.98 C
2022 13-07-2016 00:25:00 15 C 93 % 13.88 C
2023 13-07-2016 00:30:00 14.9 C 94 % 13.94 C
2024 13-07-2016 00:35:00 14.9 C 94 % 13.94 C
2025 13-07-2016 00:40:00 14.8 C 94 % 13.84 C
Sensor: Nr:Datum:Temp:Feuchte:Taupunkt:
Aussen-T/F 2026 13-07-2016 00:45:00 14.7 C 93 % 13.58 C
2027 13-07-2016 00:50:00 14.6 C 93 % 13.48 C
2028 13-07-2016 00:55:00 14.5 C 93 % 13.38 C
2029 13-07-2016 01:00:00 14.4 C 93 % 13.28 C
2030 13-07-2016 01:05:00 14.3 C 93 % 13.18 C
2031 13-07-2016 01:10:00 14.2 C 93 % 13.08 C
2032 13-07-2016 01:15:00 14.2 C 94 % 13.25 C
2033 13-07-2016 01:20:00 14.1 C 94 % 13.15 C
2034 13-07-2016 01:25:00 14.1 C 94 % 13.15 C
2035 13-07-2016 01:30:00 14 C 94 % 13.05 C
2036 13-07-2016 01:35:00 13.9 C 94 % 12.95 C
2037 13-07-2016 01:40:00 13.9 C 94 % 12.95 C
2038 13-07-2016 01:45:00 13.9 C 94 % 12.95 C
2039 13-07-2016 01:50:00 13.8 C 94 % 12.85 C
2040 13-07-2016 01:55:00 13.8 C 94 % 12.85 C
2041 13-07-2016 02:00:00 13.8 C 94 % 12.85 C
2042 13-07-2016 02:05:00 13.8 C 94 % 12.85 C
2043 13-07-2016 02:10:00 13.7 C 94 % 12.75 C
2044 13-07-2016 02:15:00 13.7 C 94 % 12.75 C
2045 13-07-2016 02:20:00 13.7 C 94 % 12.75 C
2046 13-07-2016 02:25:00 13.6 C 94 % 12.65 C
2047 13-07-2016 02:30:00 13.6 C 95 % 12.81 C
2048 13-07-2016 02:35:00 13.6 C 95 % 12.81 C
2049 13-07-2016 02:40:00 13.5 C 95 % 12.72 C
2050 13-07-2016 02:45:00 13.4 C 94 % 12.45 C
Sensor: Nr:Datum:Temp:Feuchte:Taupunkt:
Aussen-T/F 2051 13-07-2016 02:50:00 13.4 C 94 % 12.45 C
2052 13-07-2016 02:55:00 13.3 C 94 % 12.36 C
2053 13-07-2016 03:00:00 13.3 C 94 % 12.36 C
2054 13-07-2016 03:05:00 13.3 C 95 % 12.52 C
2055 13-07-2016 03:10:00 13.3 C 95 % 12.52 C
2056 13-07-2016 03:15:00 13.3 C 95 % 12.52 C
2057 13-07-2016 03:20:00 13.3 C 95 % 12.52 C
2058 13-07-2016 03:25:00 13.2 C 95 % 12.42 C
2059 13-07-2016 03:30:00 13.2 C 95 % 12.42 C
2060 13-07-2016 03:35:00 13.2 C 95 % 12.42 C
2061 13-07-2016 03:40:00 13.1 C 95 % 12.32 C
2062 13-07-2016 03:45:00 13.1 C 95 % 12.32 C
2063 13-07-2016 03:50:00 13 C 95 % 12.22 C
2064 13-07-2016 03:55:00 12.9 C 95 % 12.12 C
2065 13-07-2016 04:00:00 12.9 C 95 % 12.12 C
2066 13-07-2016 04:05:00 12.8 C 95 % 12.02 C
2067 13-07-2016 04:10:00 12.8 C 95 % 12.02 C
2068 13-07-2016 04:15:00 12.7 C 95 % 11.92 C
2069 13-07-2016 04:20:00 12.7 C 95 % 11.92 C
2070 13-07-2016 04:25:00 12.6 C 95 % 11.82 C
2071 13-07-2016 04:30:00 12.5 C 95 % 11.72 C
2072 13-07-2016 04:35:00 12.4 C 95 % 11.62 C
2073 13-07-2016 04:40:00 12.4 C 95 % 11.62 C
2074 13-07-2016 04:45:00 12.4 C 95 % 11.62 C
2075 13-07-2016 04:50:00 12.4 C 95 % 11.62 C
Sensor: Nr:Datum:Temp:Feuchte:Taupunkt:
Aussen-T/F 2076 13-07-2016 04:55:00 12.4 C 95 % 11.62 C
2077 13-07-2016 05:00:00 12.3 C 95 % 11.52 C
2078 13-07-2016 05:05:00 12.3 C 95 % 11.52 C
2079 13-07-2016 05:10:00 12.3 C 95 % 11.52 C
2080 13-07-2016 05:15:00 12.4 C 95 % 11.62 C
2081 13-07-2016 05:20:00 12.4 C 95 % 11.62 C
2082 13-07-2016 05:25:00 12.3 C 95 % 11.52 C
2083 13-07-2016 05:30:00 12.3 C 95 % 11.52 C
2084 13-07-2016 05:35:00 12.2 C 95 % 11.42 C
2085 13-07-2016 05:40:00 12.3 C 96 % 11.68 C
2086 13-07-2016 05:45:00 12.3 C 96 % 11.68 C
2087 13-07-2016 05:50:00 12.4 C 96 % 11.78 C
2088 13-07-2016 05:55:00 12.5 C 96 % 11.88 C
2089 13-07-2016 06:00:00 12.6 C 96 % 11.98 C
2090 13-07-2016 06:05:00 12.7 C 96 % 12.08 C
2091 13-07-2016 06:10:00 12.8 C 96 % 12.18 C
2092 13-07-2016 06:15:00 12.8 C 96 % 12.18 C
2093 13-07-2016 06:20:00 12.9 C 96 % 12.28 C
2094 13-07-2016 06:25:00 12.9 C 96 % 12.28 C
2095 13-07-2016 06:30:00 12.9 C 96 % 12.28 C
2096 13-07-2016 06:35:00 12.9 C 96 % 12.28 C
2097 13-07-2016 06:40:00 12.9 C 96 % 12.28 C
2098 13-07-2016 06:45:00 13 C 96 % 12.38 C
2099 13-07-2016 06:50:00 12.9 C 96 % 12.28 C
2100 13-07-2016 06:55:00 12.9 C 96 % 12.28 C
Sensor: Nr:Datum:Temp:Feuchte:Taupunkt:
Aussen-T/F 2101 13-07-2016 07:00:00 12.9 C 96 % 12.28 C
2102 13-07-2016 07:05:00 12.9 C 96 % 12.28 C
2103 13-07-2016 07:10:00 12.9 C 96 % 12.28 C
2104 13-07-2016 07:15:00 12.9 C 96 % 12.28 C
2105 13-07-2016 07:20:00 13.1 C 96 % 12.48 C
2106 13-07-2016 07:25:00 13.1 C 96 % 12.48 C
2107 13-07-2016 07:30:00 13.1 C 96 % 12.48 C
2108 13-07-2016 07:35:00 13.2 C 96 % 12.58 C
2109 13-07-2016 07:40:00 13.3 C 96 % 12.68 C
2110 13-07-2016 07:45:00 13.3 C 96 % 12.68 C
2111 13-07-2016 07:50:00 13.3 C 96 % 12.68 C
2112 13-07-2016 07:55:00 13.3 C 96 % 12.68 C
2113 13-07-2016 08:00:00 13.4 C 96 % 12.78 C
2114 13-07-2016 08:05:00 13.4 C 96 % 12.78 C
2115 13-07-2016 08:10:00 13.4 C 96 % 12.78 C
2116 13-07-2016 08:15:00 13.5 C 96 % 12.87 C
2117 13-07-2016 08:20:00 13.6 C 96 % 12.97 C
2118 13-07-2016 08:25:00 13.7 C 96 % 13.07 C
2119 13-07-2016 08:30:00 13.9 C 96 % 13.27 C
2120 13-07-2016 08:35:00 14 C 96 % 13.37 C
2121 13-07-2016 08:40:00 13.9 C 96 % 13.27 C
2122 13-07-2016 08:45:00 13.9 C 96 % 13.27 C
2123 13-07-2016 08:50:00 14 C 96 % 13.37 C
2124 13-07-2016 08:55:00 14.1 C 96 % 13.47 C
2125 13-07-2016 09:00:00 14.2 C 96 % 13.57 C
Sensor: Nr:Datum:Temp:Feuchte:Taupunkt:
Aussen-T/F 2126 13-07-2016 09:05:00 14.4 C 96 % 13.77 C
2127 13-07-2016 09:10:00 14.6 C 96 % 13.97 C
2128 13-07-2016 09:15:00 14.8 C 96 % 14.17 C
2129 13-07-2016 09:20:00 15 C 95 % 14.21 C
2130 13-07-2016 09:25:00 15.2 C 95 % 14.4 C
2131 13-07-2016 09:30:00 15.4 C 95 % 14.6 C
2132 13-07-2016 09:35:00 15.6 C 94 % 14.64 C
2133 13-07-2016 09:40:00 15.7 C 93 % 14.57 C
2134 13-07-2016 09:45:00 15.8 C 90 % 14.16 C
2135 13-07-2016 09:50:00 15.8 C 90 % 14.16 C
2136 13-07-2016 09:55:00 16 C 89 % 14.19 C
2137 13-07-2016 10:00:00 16.2 C 90 % 14.56 C
2138 13-07-2016 10:05:00 16.3 C 89 % 14.48 C
2139 13-07-2016 10:10:00 16.2 C 88 % 14.21 C
2140 13-07-2016 10:15:00 16.2 C 87 % 14.03 C
2141 13-07-2016 10:20:00 16.1 C 85 % 13.58 C
2142 13-07-2016 10:25:00 16 C 85 % 13.48 C
2143 13-07-2016 10:30:00 15.1 C 85 % 12.6 C
2144 13-07-2016 10:35:00 14.2 C 87 % 12.07 C
2145 13-07-2016 10:40:00 13.7 C 89 % 11.92 C
2146 13-07-2016 10:45:00 13.3 C 91 % 11.86 C
2147 13-07-2016 10:50:00 13.2 C 92 % 11.93 C
2148 13-07-2016 10:55:00 13 C 92 % 11.73 C
2149 13-07-2016 11:00:00 12.9 C 93 % 11.8 C
2150 13-07-2016 11:05:00 12.9 C 93 % 11.8 C
Sensor: Nr:Datum:Temp:Feuchte:Taupunkt:
Aussen-T/F 2151 13-07-2016 11:10:00 12.9 C 94 % 11.96 C
2152 13-07-2016 11:15:00 12.9 C 94 % 11.96 C
2153 13-07-2016 11:20:00 12.9 C 94 % 11.96 C
2154 13-07-2016 11:25:00 12.9 C 94 % 11.96 C
2155 13-07-2016 11:30:00 13 C 94 % 12.06 C
2156 13-07-2016 11:35:00 13.1 C 95 % 12.32 C
2157 13-07-2016 11:40:00 13.3 C 95 % 12.52 C
2158 13-07-2016 11:45:00 13.5 C 95 % 12.72 C
2159 13-07-2016 11:50:00 13.7 C 95 % 12.91 C
2160 13-07-2016 11:55:00 13.9 C 96 % 13.27 C
2161 13-07-2016 12:00:00 14.3 C 96 % 13.67 C
2162 13-07-2016 12:05:00 14.4 C 96 % 13.77 C
2163 13-07-2016 12:10:00 14.5 C 95 % 13.71 C
2164 13-07-2016 12:15:00 14.8 C 96 % 14.17 C
2165 13-07-2016 12:20:00 14.9 C 96 % 14.27 C
2166 13-07-2016 12:25:00 14.7 C 94 % 13.74 C
2167 13-07-2016 12:30:00 14.8 C 95 % 14.01 C
2168 13-07-2016 12:35:00 14.8 C 94 % 13.84 C
2169 13-07-2016 12:40:00 14.9 C 94 % 13.94 C
2170 13-07-2016 12:45:00 15 C 93 % 13.88 C
2171 13-07-2016 12:50:00 15.2 C 93 % 14.08 C
2172 13-07-2016 12:55:00 15.4 C 93 % 14.27 C
2173 13-07-2016 13:00:00 15.4 C 92 % 14.11 C
2174 13-07-2016 13:05:00 15.4 C 92 % 14.11 C
2175 13-07-2016 13:10:00 15.6 C 93 % 14.47 C
Sensor: Nr:Datum:Temp:Feuchte:Taupunkt:
Aussen-T/F 2176 13-07-2016 13:15:00 15.7 C 93 % 14.57 C
2177 13-07-2016 13:20:00 15.8 C 93 % 14.67 C
2178 13-07-2016 13:25:00 15.8 C 93 % 14.67 C
2179 13-07-2016 13:30:00 15.9 C 93 % 14.77 C
2180 13-07-2016 13:35:00 15.9 C 92 % 14.6 C
2181 13-07-2016 13:40:00 16 C 91 % 14.53 C
2182 13-07-2016 13:45:00 15.9 C 89 % 14.09 C
2183 13-07-2016 13:50:00 16.1 C 90 % 14.46 C
2184 13-07-2016 13:55:00 16.1 C 88 % 14.11 C
2185 13-07-2016 14:00:00 16.2 C 89 % 14.39 C
2186 13-07-2016 14:05:00 16.2 C 86 % 13.86 C
2187 13-07-2016 14:10:00 16.5 C 90 % 14.85 C
2188 13-07-2016 14:15:00 16.7 C 90 % 15.05 C
2189 13-07-2016 14:20:00 16.8 C 87 % 14.62 C
2190 13-07-2016 14:25:00 16.9 C 86 % 14.54 C
2191 13-07-2016 14:30:00 17.1 C 81 % 13.82 C
2192 13-07-2016 14:35:00 17.3 C 80 % 13.82 C
2193 13-07-2016 14:40:00 17.5 C 85 % 14.95 C
2194 13-07-2016 14:45:00 17.5 C 81 % 14.2 C
2195 13-07-2016 14:50:00 17.6 C 81 % 14.3 C
2196 13-07-2016 14:55:00 17.6 C 80 % 14.11 C
2197 13-07-2016 15:00:00 17.6 C 79 % 13.92 C
2198 13-07-2016 15:05:00 17.9 C 77 % 13.81 C
2199 13-07-2016 15:10:00 18.1 C 76 % 13.81 C
2200 13-07-2016 15:15:00 18.2 C 81 % 14.89 C
Sensor: Nr:Datum:Temp:Feuchte:Taupunkt:
Aussen-T/F 2201 13-07-2016 15:20:00 18.1 C 80 % 14.6 C
2202 13-07-2016 15:25:00 17.9 C 76 % 13.61 C
2203 13-07-2016 15:30:00 18.1 C 75 % 13.6 C
2204 13-07-2016 15:35:00 18.4 C 73 % 13.48 C
2205 13-07-2016 15:40:00 18.9 C 76 % 14.58 C
2206 13-07-2016 15:45:00 19.4 C 72 % 14.22 C
2207 13-07-2016 15:50:00 19.8 C 72 % 14.61 C
2208 13-07-2016 15:55:00 19.9 C 71 % 14.49 C
2209 13-07-2016 16:00:00 19.8 C 66 % 13.27 C
2210 13-07-2016 16:05:00 19.8 C 66 % 13.27 C
2211 13-07-2016 16:10:00 19.7 C 72 % 14.51 C
2212 13-07-2016 16:15:00 19.9 C 73 % 14.92 C
2213 13-07-2016 16:20:00 20.3 C 70 % 14.65 C
2214 13-07-2016 16:25:00 20.7 C 68 % 14.58 C
2215 13-07-2016 16:30:00 20.8 C 73 % 15.78 C
2216 13-07-2016 16:35:00 20.6 C 78 % 16.63 C
2217 13-07-2016 16:40:00 20.3 C 77 % 16.14 C
2218 13-07-2016 16:45:00 19.8 C 79 % 16.05 C
2219 13-07-2016 16:50:00 18.4 C 72 % 13.26 C
2220 13-07-2016 16:55:00 17.3 C 79 % 13.63 C
2221 13-07-2016 17:00:00 16.4 C 80 % 12.94 C
2222 13-07-2016 17:05:00 15.8 C 83 % 12.92 C
2223 13-07-2016 17:10:00 15.4 C 84 % 12.71 C
2224 13-07-2016 17:15:00 15.2 C 86 % 12.88 C
2225 13-07-2016 17:20:00 15.1 C 87 % 12.95 C
Sensor: Nr:Datum:Temp:Feuchte:Taupunkt:
Aussen-T/F 2226 13-07-2016 17:25:00 15.1 C 89 % 13.3 C
2227 13-07-2016 17:30:00 15.1 C 90 % 13.47 C
2228 13-07-2016 17:35:00 15.1 C 90 % 13.47 C
2229 13-07-2016 17:40:00 15 C 90 % 13.37 C
2230 13-07-2016 17:45:00 15 C 90 % 13.37 C
2231 13-07-2016 17:50:00 15.1 C 90 % 13.47 C
2232 13-07-2016 17:55:00 15.2 C 91 % 13.74 C
2233 13-07-2016 18:00:00 15.3 C 90 % 13.67 C
2234 13-07-2016 18:05:00 15.4 C 90 % 13.77 C
2235 13-07-2016 18:10:00 15.5 C 90 % 13.87 C
2236 13-07-2016 18:15:00 15.8 C 91 % 14.33 C
2237 13-07-2016 18:20:00 16 C 91 % 14.53 C
2238 13-07-2016 18:25:00 16.2 C 91 % 14.73 C
2239 13-07-2016 18:30:00 16.2 C 90 % 14.56 C
2240 13-07-2016 18:35:00 16.1 C 89 % 14.29 C
2241 13-07-2016 18:40:00 15.9 C 88 % 13.92 C
2242 13-07-2016 18:45:00 15.8 C 88 % 13.82 C
2243 13-07-2016 18:50:00 15.9 C 90 % 14.26 C
2244 13-07-2016 18:55:00 16.5 C 92 % 15.2 C
2245 13-07-2016 19:00:00 16.6 C 89 % 14.78 C
2246 13-07-2016 19:05:00 16.7 C 89 % 14.88 C
2247 13-07-2016 19:10:00 16.8 C 90 % 15.15 C
2248 13-07-2016 19:15:00 16.8 C 89 % 14.98 C
2249 13-07-2016 19:20:00 16.7 C 88 % 14.7 C
2250 13-07-2016 19:25:00 16.5 C 89 % 14.68 C
Sensor: Nr:Datum:Temp:Feuchte:Taupunkt:
Aussen-T/F 2251 13-07-2016 19:30:00 16.4 C 89 % 14.58 C
2252 13-07-2016 19:35:00 16.3 C 90 % 14.66 C
2253 13-07-2016 19:40:00 16.1 C 90 % 14.46 C
2254 13-07-2016 19:45:00 16 C 90 % 14.36 C
2255 13-07-2016 19:50:00 15.9 C 91 % 14.43 C
2256 13-07-2016 19:55:00 15.8 C 91 % 14.33 C
2257 13-07-2016 20:00:00 15.7 C 91 % 14.24 C
2258 13-07-2016 20:05:00 15.7 C 91 % 14.24 C
2259 13-07-2016 20:10:00 15.6 C 91 % 14.14 C
2260 13-07-2016 20:15:00 15.6 C 92 % 14.31 C
2261 13-07-2016 20:20:00 15.4 C 92 % 14.11 C
2262 13-07-2016 20:25:00 15.3 C 92 % 14.01 C
2263 13-07-2016 20:30:00 15.2 C 92 % 13.91 C
2264 13-07-2016 20:35:00 15.1 C 92 % 13.81 C
2265 13-07-2016 20:40:00 15 C 93 % 13.88 C
2266 13-07-2016 20:45:00 14.9 C 93 % 13.78 C
2267 13-07-2016 20:50:00 14.7 C 92 % 13.41 C
2268 13-07-2016 20:55:00 14.5 C 92 % 13.22 C
2269 13-07-2016 21:00:00 14.4 C 92 % 13.12 C
2270 13-07-2016 21:05:00 14.3 C 93 % 13.18 C
2271 13-07-2016 21:10:00 14.2 C 93 % 13.08 C
2272 13-07-2016 21:15:00 14.2 C 93 % 13.08 C
2273 13-07-2016 21:20:00 14.2 C 94 % 13.25 C
2274 13-07-2016 21:25:00 14.1 C 94 % 13.15 C
2275 13-07-2016 21:30:00 14 C 94 % 13.05 C
Sensor: Nr:Datum:Temp:Feuchte:Taupunkt:
Aussen-T/F 2276 13-07-2016 21:35:00 13.9 C 94 % 12.95 C
2277 13-07-2016 21:40:00 13.8 C 94 % 12.85 C
2278 13-07-2016 21:45:00 13.8 C 94 % 12.85 C
2279 13-07-2016 21:50:00 13.7 C 94 % 12.75 C
2280 13-07-2016 21:55:00 13.7 C 94 % 12.75 C
2281 13-07-2016 22:00:00 13.6 C 94 % 12.65 C
2282 13-07-2016 22:05:00 13.6 C 94 % 12.65 C
2283 13-07-2016 22:10:00 13.4 C 94 % 12.45 C
2284 13-07-2016 22:15:00 13.4 C 94 % 12.45 C
2285 13-07-2016 22:20:00 13.3 C 94 % 12.36 C
2286 13-07-2016 22:25:00 13.4 C 95 % 12.62 C
2287 13-07-2016 22:30:00 13.4 C 95 % 12.62 C
2288 13-07-2016 22:35:00 13.3 C 95 % 12.52 C
2289 13-07-2016 22:40:00 13.3 C 95 % 12.52 C
2290 13-07-2016 22:45:00 13.3 C 95 % 12.52 C
2291 13-07-2016 22:50:00 13.3 C 95 % 12.52 C
2292 13-07-2016 22:55:00 13.3 C 95 % 12.52 C
2293 13-07-2016 23:00:00 13.3 C 95 % 12.52 C
2294 13-07-2016 23:05:00 13.3 C 95 % 12.52 C
2295 13-07-2016 23:10:00 13.3 C 95 % 12.52 C
2296 13-07-2016 23:15:00 13.3 C 95 % 12.52 C
2297 13-07-2016 23:20:00 13.3 C 95 % 12.52 C
2298 13-07-2016 23:25:00 13.3 C 95 % 12.52 C
2299 13-07-2016 23:30:00 13.3 C 95 % 12.52 C
2300 13-07-2016 23:35:00 13.3 C 95 % 12.52 C
Sensor: Nr:Datum:Temp:Feuchte:Taupunkt:
Aussen-T/F 2301 13-07-2016 23:40:00 13.3 C 96 % 12.68 C
2302 13-07-2016 23:45:00 13.3 C 96 % 12.68 C
2303 13-07-2016 23:50:00 13.4 C 96 % 12.78 C
2304 13-07-2016 23:55:00 13.4 C 96 % 12.78 C
2305 14-07-2016 00:00:00 13.4 C 96 % 12.78 C
2306 14-07-2016 00:05:00 13.4 C 96 % 12.78 C
2307 14-07-2016 00:10:00 13.4 C 96 % 12.78 C
2308 14-07-2016 00:15:00 13.4 C 96 % 12.78 C
2309 14-07-2016 00:20:00 13.3 C 96 % 12.68 C
2310 14-07-2016 00:25:00 13.4 C 96 % 12.78 C
2311 14-07-2016 00:30:00 13.3 C 96 % 12.68 C
2312 14-07-2016 00:35:00 13.4 C 96 % 12.78 C
2313 14-07-2016 00:40:00 13.3 C 96 % 12.68 C
2314 14-07-2016 00:45:00 13.3 C 96 % 12.68 C
2315 14-07-2016 00:50:00 13.4 C 96 % 12.78 C
2316 14-07-2016 00:55:00 13.3 C 96 % 12.68 C
2317 14-07-2016 01:00:00 13.3 C 96 % 12.68 C
2318 14-07-2016 01:05:00 13.2 C 95 % 12.42 C
2319 14-07-2016 01:10:00 13.1 C 95 % 12.32 C
2320 14-07-2016 01:15:00 13.1 C 95 % 12.32 C
2321 14-07-2016 01:20:00 13 C 95 % 12.22 C
2322 14-07-2016 01:25:00 12.9 C 95 % 12.12 C
2323 14-07-2016 01:30:00 12.8 C 95 % 12.02 C
2324 14-07-2016 01:35:00 12.7 C 95 % 11.92 C
2325 14-07-2016 01:40:00 12.6 C 95 % 11.82 C
Sensor: Nr:Datum:Temp:Feuchte:Taupunkt:
Aussen-T/F 2326 14-07-2016 01:45:00 12.5 C 95 % 11.72 C
2327 14-07-2016 01:50:00 12.4 C 95 % 11.62 C
2328 14-07-2016 01:55:00 12.4 C 95 % 11.62 C
2329 14-07-2016 02:00:00 12.3 C 95 % 11.52 C
2330 14-07-2016 02:05:00 12.3 C 95 % 11.52 C
2331 14-07-2016 02:10:00 12.3 C 95 % 11.52 C
2332 14-07-2016 02:15:00 12.3 C 95 % 11.52 C
2333 14-07-2016 02:20:00 12.2 C 95 % 11.42 C
2334 14-07-2016 02:25:00 12.2 C 95 % 11.42 C
2335 14-07-2016 02:30:00 12.2 C 95 % 11.42 C
2336 14-07-2016 02:35:00 12.2 C 95 % 11.42 C
2337 14-07-2016 02:40:00 12.1 C 95 % 11.32 C
2338 14-07-2016 02:45:00 11.9 C 95 % 11.13 C
2339 14-07-2016 02:50:00 11.9 C 95 % 11.13 C
2340 14-07-2016 02:55:00 11.8 C 95 % 11.03 C
2341 14-07-2016 03:00:00 11.7 C 95 % 10.93 C
2342 14-07-2016 03:05:00 11.7 C 95 % 10.93 C
2343 14-07-2016 03:10:00 11.6 C 95 % 10.83 C
2344 14-07-2016 03:15:00 11.6 C 95 % 10.83 C
2345 14-07-2016 03:20:00 11.6 C 95 % 10.83 C
2346 14-07-2016 03:25:00 11.5 C 95 % 10.73 C
2347 14-07-2016 03:30:00 11.5 C 95 % 10.73 C
2348 14-07-2016 03:35:00 11.5 C 95 % 10.73 C
2349 14-07-2016 03:40:00 11.4 C 95 % 10.63 C
2350 14-07-2016 03:45:00 11.4 C 95 % 10.63 C
Sensor: Nr:Datum:Temp:Feuchte:Taupunkt:
Aussen-T/F 2351 14-07-2016 03:50:00 11.4 C 95 % 10.63 C
2352 14-07-2016 03:55:00 11.4 C 95 % 10.63 C
2353 14-07-2016 04:00:00 11.4 C 96 % 10.79 C
2354 14-07-2016 04:05:00 11.4 C 96 % 10.79 C
2355 14-07-2016 04:10:00 11.4 C 96 % 10.79 C
2356 14-07-2016 04:15:00 11.4 C 96 % 10.79 C
2357 14-07-2016 04:20:00 11.4 C 96 % 10.79 C
2358 14-07-2016 04:25:00 11.4 C 96 % 10.79 C
2359 14-07-2016 04:30:00 11.4 C 96 % 10.79 C
2360 14-07-2016 04:35:00 11.3 C 96 % 10.69 C
2361 14-07-2016 04:40:00 11.3 C 96 % 10.69 C
2362 14-07-2016 04:45:00 11.2 C 96 % 10.59 C
2363 14-07-2016 04:50:00 11.2 C 96 % 10.59 C
2364 14-07-2016 04:55:00 11.2 C 95 % 10.43 C
2365 14-07-2016 05:00:00 11.1 C 96 % 10.49 C
2366 14-07-2016 05:05:00 11.1 C 96 % 10.49 C
2367 14-07-2016 05:10:00 11.1 C 96 % 10.49 C
2368 14-07-2016 05:15:00 11.1 C 96 % 10.49 C
2369 14-07-2016 05:20:00 11.1 C 96 % 10.49 C
2370 14-07-2016 05:25:00 11 C 96 % 10.39 C
2371 14-07-2016 05:30:00 10.9 C 96 % 10.29 C
2372 14-07-2016 05:35:00 11 C 96 % 10.39 C
2373 14-07-2016 05:40:00 11 C 96 % 10.39 C
2374 14-07-2016 05:45:00 11.1 C 96 % 10.49 C
2375 14-07-2016 05:50:00 11.1 C 96 % 10.49 C
Sensor: Nr:Datum:Temp:Feuchte:Taupunkt:
Aussen-T/F 2376 14-07-2016 05:55:00 11.1 C 96 % 10.49 C
2377 14-07-2016 06:00:00 11.2 C 96 % 10.59 C
2378 14-07-2016 06:05:00 11.2 C 96 % 10.59 C
2379 14-07-2016 06:10:00 11.2 C 96 % 10.59 C
2380 14-07-2016 06:15:00 11.1 C 96 % 10.49 C
2381 14-07-2016 06:20:00 11.1 C 96 % 10.49 C
2382 14-07-2016 06:25:00 11 C 96 % 10.39 C
2383 14-07-2016 06:30:00 10.9 C 96 % 10.29 C
2384 14-07-2016 06:35:00 10.9 C 96 % 10.29 C
2385 14-07-2016 06:40:00 10.9 C 96 % 10.29 C
2386 14-07-2016 06:45:00 10.9 C 96 % 10.29 C
2387 14-07-2016 06:50:00 10.9 C 96 % 10.29 C
2388 14-07-2016 06:55:00 11 C 96 % 10.39 C
2389 14-07-2016 07:00:00 11.1 C 96 % 10.49 C
2390 14-07-2016 07:05:00 11.2 C 96 % 10.59 C
2391 14-07-2016 07:10:00 11.2 C 96 % 10.59 C
2392 14-07-2016 07:15:00 11.3 C 96 % 10.69 C
2393 14-07-2016 07:20:00 11.3 C 96 % 10.69 C
2394 14-07-2016 07:25:00 11.4 C 96 % 10.79 C
2395 14-07-2016 07:30:00 11.4 C 96 % 10.79 C
2396 14-07-2016 07:35:00 11.5 C 96 % 10.88 C
2397 14-07-2016 07:40:00 11.6 C 96 % 10.98 C
2398 14-07-2016 07:45:00 11.6 C 96 % 10.98 C
2399 14-07-2016 07:50:00 11.7 C 96 % 11.08 C
2400 14-07-2016 07:55:00 11.8 C 96 % 11.18 C
Sensor: Nr:Datum:Temp:Feuchte:Taupunkt:
Aussen-T/F 2401 14-07-2016 08:00:00 12.1 C 97 % 11.64 C
2402 14-07-2016 08:05:00 12.2 C 97 % 11.74 C
2403 14-07-2016 08:10:00 12.3 C 96 % 11.68 C
2404 14-07-2016 08:15:00 12.4 C 97 % 11.94 C
2405 14-07-2016 08:20:00 12.4 C 96 % 11.78 C
2406 14-07-2016 08:25:00 12.6 C 96 % 11.98 C
2407 14-07-2016 08:30:00 12.6 C 95 % 11.82 C
2408 14-07-2016 08:35:00 12.6 C 94 % 11.66 C
2409 14-07-2016 08:40:00 12.6 C 94 % 11.66 C
2410 14-07-2016 08:45:00 12.7 C 93 % 11.6 C
2411 14-07-2016 08:50:00 12.9 C 93 % 11.8 C
2412 14-07-2016 08:55:00 13.2 C 92 % 11.93 C
2413 14-07-2016 09:00:00 13.4 C 91 % 11.96 C
2414 14-07-2016 09:05:00 13.7 C 91 % 12.26 C
2415 14-07-2016 09:10:00 13.8 C 89 % 12.02 C
2416 14-07-2016 09:15:00 13.9 C 87 % 11.77 C
2417 14-07-2016 09:20:00 14 C 86 % 11.7 C
2418 14-07-2016 09:25:00 14.1 C 86 % 11.8 C
2419 14-07-2016 09:30:00 14.1 C 86 % 11.8 C
2420 14-07-2016 09:35:00 14.2 C 86 % 11.89 C
2421 14-07-2016 09:40:00 14.2 C 86 % 11.89 C
2422 14-07-2016 09:45:00 14.3 C 82 % 11.27 C
2423 14-07-2016 09:50:00 14.4 C 85 % 11.91 C
2424 14-07-2016 09:55:00 14.5 C 83 % 11.65 C
2425 14-07-2016 10:00:00 14.6 C 83 % 11.75 C
Sensor: Nr:Datum:Temp:Feuchte:Taupunkt:
Aussen-T/F 2426 14-07-2016 10:05:00 14.7 C 82 % 11.66 C
2427 14-07-2016 10:10:00 14.8 C 84 % 12.12 C
2428 14-07-2016 10:15:00 15.1 C 82 % 12.05 C
2429 14-07-2016 10:20:00 15.2 C 81 % 11.96 C
2430 14-07-2016 10:25:00 15.2 C 77 % 11.2 C
2431 14-07-2016 10:30:00 15.3 C 80 % 11.87 C
2432 14-07-2016 10:35:00 15.4 C 78 % 11.59 C
2433 14-07-2016 10:40:00 15.5 C 79 % 11.88 C
2434 14-07-2016 10:45:00 15.5 C 79 % 11.88 C
2435 14-07-2016 10:50:00 15.5 C 78 % 11.68 C
2436 14-07-2016 10:55:00 15.4 C 79 % 11.78 C
2437 14-07-2016 11:00:00 15.5 C 77 % 11.49 C
2438 14-07-2016 11:05:00 15.7 C 75 % 11.28 C
2439 14-07-2016 11:10:00 15.8 C 74 % 11.18 C
2440 14-07-2016 11:15:00 15.9 C 74 % 11.28 C
2441 14-07-2016 11:20:00 16 C 75 % 11.57 C
2442 14-07-2016 11:25:00 16.1 C 76 % 11.87 C
2443 14-07-2016 11:30:00 16.1 C 72 % 11.06 C
2444 14-07-2016 11:35:00 16.1 C 73 % 11.26 C
2445 14-07-2016 11:40:00 16.1 C 69 % 10.42 C
2446 14-07-2016 11:45:00 16 C 70 % 10.54 C
2447 14-07-2016 11:50:00 16.1 C 68 % 10.2 C
2448 14-07-2016 11:55:00 16.1 C 69 % 10.42 C
2449 14-07-2016 12:00:00 16.1 C 68 % 10.2 C
2450 14-07-2016 12:05:00 16.2 C 68 % 10.29 C
Sensor: Nr:Datum:Temp:Feuchte:Taupunkt:
Aussen-T/F 2451 14-07-2016 12:10:00 16.3 C 68 % 10.39 C
2452 14-07-2016 12:15:00 16.4 C 67 % 10.26 C
2453 14-07-2016 12:20:00 16.4 C 72 % 11.34 C
2454 14-07-2016 12:25:00 16.3 C 69 % 10.61 C
2455 14-07-2016 12:30:00 16.4 C 71 % 11.13 C
2456 14-07-2016 12:35:00 16.7 C 68 % 10.77 C
2457 14-07-2016 12:40:00 16.9 C 67 % 10.74 C
2458 14-07-2016 12:45:00 16.9 C 66 % 10.51 C
2459 14-07-2016 12:50:00 16.9 C 65 % 10.28 C
2460 14-07-2016 12:55:00 17 C 66 % 10.61 C
2461 14-07-2016 13:00:00 17.2 C 66 % 10.8 C
2462 14-07-2016 13:05:00 17.3 C 65 % 10.66 C
2463 14-07-2016 13:10:00 17.4 C 65 % 10.76 C
2464 14-07-2016 13:15:00 17.6 C 61 % 10 C
2465 14-07-2016 13:20:00 17.7 C 58 % 9.34 C
2466 14-07-2016 13:25:00 17.7 C 59 % 9.59 C
2467 14-07-2016 13:30:00 17.6 C 61 % 10 C
2468 14-07-2016 13:35:00 17.5 C 61 % 9.9 C
2469 14-07-2016 13:40:00 17.4 C 64 % 10.53 C
2470 14-07-2016 13:45:00 17.4 C 63 % 10.29 C
2471 14-07-2016 13:50:00 17.6 C 64 % 10.72 C
2472 14-07-2016 13:55:00 17.6 C 61 % 10 C
2473 14-07-2016 14:00:00 17.6 C 62 % 10.24 C
2474 14-07-2016 14:05:00 17.7 C 63 % 10.57 C
2475 14-07-2016 14:10:00 17.9 C 61 % 10.28 C
Sensor: Nr:Datum:Temp:Feuchte:Taupunkt:
Aussen-T/F 2476 14-07-2016 14:15:00 18.2 C 60 % 10.31 C
2477 14-07-2016 14:20:00 18.2 C 59 % 10.06 C
2478 14-07-2016 14:25:00 18.3 C 61 % 10.66 C
2479 14-07-2016 14:30:00 18.3 C 61 % 10.66 C
2480 14-07-2016 14:35:00 18.1 C 61 % 10.47 C
2481 14-07-2016 14:40:00 18.1 C 60 % 10.22 C
2482 14-07-2016 14:45:00 18.1 C 58 % 9.71 C
2483 14-07-2016 14:50:00 18.1 C 59 % 9.97 C
2484 14-07-2016 14:55:00 18.2 C 59 % 10.06 C
2485 14-07-2016 15:00:00 18.2 C 57 % 9.55 C
2486 14-07-2016 15:05:00 18.1 C 56 % 9.19 C
2487 14-07-2016 15:10:00 18.1 C 57 % 9.46 C
2488 14-07-2016 15:15:00 18.1 C 58 % 9.71 C
2489 14-07-2016 15:20:00 18.1 C 59 % 9.97 C
2490 14-07-2016 15:25:00 18.1 C 60 % 10.22 C
2491 14-07-2016 15:30:00 18.3 C 60 % 10.41 C
2492 14-07-2016 15:35:00 18.6 C 60 % 10.69 C
2493 14-07-2016 15:40:00 18.9 C 60 % 10.97 C
2494 14-07-2016 15:45:00 18.7 C 60 % 10.78 C
2495 14-07-2016 15:50:00 18 C 61 % 10.37 C
2496 14-07-2016 15:55:00 17.5 C 62 % 10.15 C
2497 14-07-2016 16:00:00 17.1 C 64 % 10.24 C
2498 14-07-2016 16:05:00 16.9 C 68 % 10.96 C
2499 14-07-2016 16:10:00 16.7 C 70 % 11.21 C
2500 14-07-2016 16:15:00 16.6 C 71 % 11.32 C
Sensor: Nr:Datum:Temp:Feuchte:Taupunkt:
Aussen-T/F 2501 14-07-2016 16:20:00 16.6 C 68 % 10.67 C
2502 14-07-2016 16:25:00 16.7 C 73 % 11.84 C
2503 14-07-2016 16:30:00 17.5 C 69 % 11.75 C
2504 14-07-2016 16:35:00 18.4 C 67 % 12.17 C
2505 14-07-2016 16:40:00 18.8 C 60 % 10.88 C
2506 14-07-2016 16:45:00 19.4 C 59 % 11.19 C
2507 14-07-2016 16:50:00 19.8 C 57 % 11.04 C
2508 14-07-2016 16:55:00 20.1 C 57 % 11.32 C
2509 14-07-2016 17:00:00 20 C 52 % 9.85 C
2510 14-07-2016 17:05:00 19.6 C 56 % 10.59 C
2511 14-07-2016 17:10:00 19.1 C 56 % 10.12 C
2512 14-07-2016 17:15:00 18.5 C 60 % 10.6 C
2513 14-07-2016 17:20:00 17.6 C 65 % 10.95 C
2514 14-07-2016 17:25:00 17 C 67 % 10.83 C
2515 14-07-2016 17:30:00 16.9 C 68 % 10.96 C
2516 14-07-2016 17:35:00 17.1 C 67 % 10.93 C
2517 14-07-2016 17:40:00 17.2 C 64 % 10.34 C
2518 14-07-2016 17:45:00 17.3 C 63 % 10.2 C
2519 14-07-2016 17:50:00 17.5 C 62 % 10.15 C
2520 14-07-2016 17:55:00 17.6 C 66 % 11.18 C
2521 14-07-2016 18:00:00 17.7 C 67 % 11.5 C
2522 14-07-2016 18:05:00 18.1 C 69 % 12.33 C
2523 14-07-2016 18:10:00 18.6 C 66 % 12.13 C
2524 14-07-2016 18:15:00 18.8 C 60 % 10.88 C
2525 14-07-2016 18:20:00 18.7 C 60 % 10.78 C
Sensor: Nr:Datum:Temp:Feuchte:Taupunkt:
Aussen-T/F 2526 14-07-2016 18:25:00 18.6 C 61 % 10.94 C
2527 14-07-2016 18:30:00 18.7 C 60 % 10.78 C
2528 14-07-2016 18:35:00 18.6 C 59 % 10.44 C
2529 14-07-2016 18:40:00 18.4 C 60 % 10.5 C
2530 14-07-2016 18:45:00 18.5 C 63 % 11.33 C
2531 14-07-2016 18:50:00 18.7 C 61 % 11.03 C
2532 14-07-2016 18:55:00 18.9 C 62 % 11.47 C
2533 14-07-2016 19:00:00 19.4 C 58 % 10.93 C
2534 14-07-2016 19:05:00 19.8 C 59 % 11.56 C
2535 14-07-2016 19:10:00 20.1 C 56 % 11.06 C
2536 14-07-2016 19:15:00 20.1 C 54 % 10.51 C
2537 14-07-2016 19:20:00 20.2 C 57 % 11.42 C
2538 14-07-2016 19:25:00 20.1 C 56 % 11.06 C
2539 14-07-2016 19:30:00 19.9 C 58 % 11.4 C
2540 14-07-2016 19:35:00 19.5 C 61 % 11.78 C
2541 14-07-2016 19:40:00 19.3 C 63 % 12.09 C
2542 14-07-2016 19:45:00 18.8 C 59 % 10.63 C
2543 14-07-2016 19:50:00 18.4 C 62 % 10.99 C
2544 14-07-2016 19:55:00 18.2 C 65 % 11.52 C
2545 14-07-2016 20:00:00 18.1 C 65 % 11.42 C
2546 14-07-2016 20:05:00 18.1 C 64 % 11.19 C
2547 14-07-2016 20:10:00 17.8 C 66 % 11.37 C
2548 14-07-2016 20:15:00 17.7 C 69 % 11.95 C
2549 14-07-2016 20:20:00 17.7 C 70 % 12.16 C
2550 14-07-2016 20:25:00 17.6 C 70 % 12.07 C
Sensor: Nr:Datum:Temp:Feuchte:Taupunkt:
Aussen-T/F 2551 14-07-2016 20:30:00 17.4 C 72 % 12.3 C
2552 14-07-2016 20:35:00 17.3 C 72 % 12.21 C
2553 14-07-2016 20:40:00 17.2 C 72 % 12.11 C
2554 14-07-2016 20:45:00 17.1 C 72 % 12.02 C
2555 14-07-2016 20:50:00 16.8 C 73 % 11.94 C
2556 14-07-2016 20:55:00 16.6 C 73 % 11.74 C
2557 14-07-2016 21:00:00 16.3 C 75 % 11.86 C
2558 14-07-2016 21:05:00 16.1 C 75 % 11.67 C
2559 14-07-2016 21:10:00 15.8 C 76 % 11.58 C
2560 14-07-2016 21:15:00 15.6 C 78 % 11.78 C
2561 14-07-2016 21:20:00 15.4 C 78 % 11.59 C
2562 14-07-2016 21:25:00 15.3 C 79 % 11.68 C
2563 14-07-2016 21:30:00 15.2 C 78 % 11.39 C
2564 14-07-2016 21:35:00 15.1 C 79 % 11.49 C
2565 14-07-2016 21:40:00 15.1 C 79 % 11.49 C
2566 14-07-2016 21:45:00 15.1 C 80 % 11.68 C
2567 14-07-2016 21:50:00 15.1 C 81 % 11.87 C
2568 14-07-2016 21:55:00 15.1 C 82 % 12.05 C
2569 14-07-2016 22:00:00 15.1 C 82 % 12.05 C
2570 14-07-2016 22:05:00 15 C 82 % 11.95 C
2571 14-07-2016 22:10:00 14.9 C 82 % 11.86 C
2572 14-07-2016 22:15:00 14.9 C 83 % 12.04 C
2573 14-07-2016 22:20:00 14.9 C 83 % 12.04 C
2574 14-07-2016 22:25:00 14.8 C 83 % 11.94 C
2575 14-07-2016 22:30:00 14.8 C 83 % 11.94 C
Sensor: Nr:Datum:Temp:Feuchte:Taupunkt:
Aussen-T/F 2576 14-07-2016 22:35:00 14.7 C 83 % 11.85 C
2577 14-07-2016 22:40:00 14.7 C 84 % 12.03 C
2578 14-07-2016 22:45:00 14.6 C 84 % 11.93 C
2579 14-07-2016 22:50:00 14.6 C 82 % 11.56 C
2580 14-07-2016 22:55:00 14.6 C 77 % 10.62 C
2581 14-07-2016 23:00:00 14.8 C 76 % 10.61 C
2582 14-07-2016 23:05:00 14.9 C 79 % 11.29 C
2583 14-07-2016 23:10:00 14.8 C 77 % 10.81 C
2584 14-07-2016 23:15:00 14.7 C 78 % 10.91 C
2585 14-07-2016 23:20:00 14.5 C 77 % 10.52 C
2586 14-07-2016 23:25:00 14.3 C 78 % 10.52 C
2587 14-07-2016 23:30:00 14.2 C 77 % 10.23 C
2588 14-07-2016 23:35:00 14.2 C 76 % 10.03 C
2589 14-07-2016 23:40:00 14.2 C 77 % 10.23 C
2590 14-07-2016 23:45:00 14.2 C 79 % 10.61 C
2591 14-07-2016 23:50:00 14.1 C 78 % 10.33 C
2592 14-07-2016 23:55:00 13.9 C 77 % 9.94 C
2593 15-07-2016 00:00:00 13.8 C 78 % 10.03 C
2594 15-07-2016 00:05:00 13.7 C 79 % 10.13 C
2595 15-07-2016 00:10:00 13.6 C 79 % 10.03 C
2596 15-07-2016 00:15:00 13.5 C 80 % 10.12 C
2597 15-07-2016 00:20:00 13.4 C 80 % 10.02 C
2598 15-07-2016 00:25:00 13.4 C 81 % 10.21 C
2599 15-07-2016 00:30:00 13.4 C 81 % 10.21 C
2600 15-07-2016 00:35:00 13.3 C 81 % 10.11 C
Sensor: Nr:Datum:Temp:Feuchte:Taupunkt:
Aussen-T/F 2601 15-07-2016 00:40:00 13.3 C 82 % 10.3 C
2602 15-07-2016 00:45:00 13.2 C 83 % 10.38 C
2603 15-07-2016 00:50:00 13.1 C 83 % 10.28 C
2604 15-07-2016 00:55:00 13.1 C 83 % 10.28 C
2605 15-07-2016 01:00:00 13 C 83 % 10.18 C
2606 15-07-2016 01:05:00 12.9 C 84 % 10.26 C
2607 15-07-2016 01:10:00 12.9 C 84 % 10.26 C
2608 15-07-2016 01:15:00 12.9 C 84 % 10.26 C
2609 15-07-2016 01:20:00 12.9 C 85 % 10.44 C
2610 15-07-2016 01:25:00 13 C 85 % 10.54 C
2611 15-07-2016 01:30:00 13 C 84 % 10.36 C
2612 15-07-2016 01:35:00 13 C 84 % 10.36 C
2613 15-07-2016 01:40:00 13 C 84 % 10.36 C
2614 15-07-2016 01:45:00 13 C 85 % 10.54 C
2615 15-07-2016 01:50:00 12.9 C 85 % 10.44 C
2616 15-07-2016 01:55:00 12.9 C 85 % 10.44 C
2617 15-07-2016 02:00:00 12.9 C 86 % 10.62 C
2618 15-07-2016 02:05:00 12.9 C 87 % 10.79 C
2619 15-07-2016 02:10:00 12.9 C 87 % 10.79 C
2620 15-07-2016 02:15:00 12.9 C 86 % 10.62 C
2621 15-07-2016 02:20:00 12.9 C 87 % 10.79 C
2622 15-07-2016 02:25:00 13 C 87 % 10.89 C
2623 15-07-2016 02:30:00 13.1 C 87 % 10.99 C
2624 15-07-2016 02:35:00 13 C 86 % 10.72 C
2625 15-07-2016 02:40:00 12.9 C 86 % 10.62 C
Sensor: Nr:Datum:Temp:Feuchte:Taupunkt:
Aussen-T/F 2626 15-07-2016 02:45:00 12.9 C 86 % 10.62 C
2627 15-07-2016 02:50:00 12.8 C 86 % 10.52 C
2628 15-07-2016 02:55:00 12.7 C 86 % 10.42 C
2629 15-07-2016 03:00:00 12.6 C 86 % 10.32 C
2630 15-07-2016 03:05:00 12.4 C 87 % 10.3 C
2631 15-07-2016 03:10:00 12.3 C 87 % 10.2 C
2632 15-07-2016 03:15:00 12.2 C 88 % 10.27 C
2633 15-07-2016 03:20:00 12.2 C 88 % 10.27 C
2634 15-07-2016 03:25:00 12.2 C 88 % 10.27 C
2635 15-07-2016 03:30:00 12.2 C 89 % 10.44 C
2636 15-07-2016 03:35:00 12.1 C 89 % 10.34 C
2637 15-07-2016 03:40:00 12 C 88 % 10.08 C
2638 15-07-2016 03:45:00 11.9 C 88 % 9.98 C
2639 15-07-2016 03:50:00 11.9 C 88 % 9.98 C
2640 15-07-2016 03:55:00 11.8 C 88 % 9.88 C
2641 15-07-2016 04:00:00 11.8 C 88 % 9.88 C
2642 15-07-2016 04:05:00 11.7 C 89 % 9.95 C
2643 15-07-2016 04:10:00 11.7 C 89 % 9.95 C
2644 15-07-2016 04:15:00 11.7 C 88 % 9.78 C
2645 15-07-2016 04:20:00 11.7 C 89 % 9.95 C
2646 15-07-2016 04:25:00 11.8 C 89 % 10.05 C
2647 15-07-2016 04:30:00 11.8 C 89 % 10.05 C
2648 15-07-2016 04:35:00 11.8 C 89 % 10.05 C
2649 15-07-2016 04:40:00 11.8 C 89 % 10.05 C
2650 15-07-2016 04:45:00 11.9 C 88 % 9.98 C
Sensor: Nr:Datum:Temp:Feuchte:Taupunkt:
Aussen-T/F 2651 15-07-2016 04:50:00 11.9 C 89 % 10.15 C
2652 15-07-2016 04:55:00 11.9 C 88 % 9.98 C
2653 15-07-2016 05:00:00 11.9 C 88 % 9.98 C
2654 15-07-2016 05:05:00 11.9 C 88 % 9.98 C
2655 15-07-2016 05:10:00 11.9 C 88 % 9.98 C
2656 15-07-2016 05:15:00 11.9 C 87 % 9.81 C
2657 15-07-2016 05:20:00 11.9 C 88 % 9.98 C
2658 15-07-2016 05:25:00 11.9 C 88 % 9.98 C
2659 15-07-2016 05:30:00 12 C 88 % 10.08 C
2660 15-07-2016 05:35:00 12 C 88 % 10.08 C
2661 15-07-2016 05:40:00 12 C 87 % 9.91 C
2662 15-07-2016 05:45:00 12.1 C 88 % 10.17 C
2663 15-07-2016 05:50:00 12.2 C 88 % 10.27 C
2664 15-07-2016 05:55:00 12.2 C 88 % 10.27 C
2665 15-07-2016 06:00:00 12.2 C 88 % 10.27 C
2666 15-07-2016 06:05:00 12.2 C 88 % 10.27 C
2667 15-07-2016 06:10:00 12.3 C 88 % 10.37 C
2668 15-07-2016 06:15:00 12.3 C 89 % 10.54 C
2669 15-07-2016 06:20:00 12.3 C 88 % 10.37 C
2670 15-07-2016 06:25:00 12.3 C 88 % 10.37 C
2671 15-07-2016 06:30:00 12.3 C 88 % 10.37 C
2672 15-07-2016 06:35:00 12.3 C 87 % 10.2 C
2673 15-07-2016 06:40:00 12.2 C 87 % 10.1 C
2674 15-07-2016 06:45:00 12.3 C 87 % 10.2 C
2675 15-07-2016 06:50:00 12.3 C 86 % 10.03 C
Sensor: Nr:Datum:Temp:Feuchte:Taupunkt:
Aussen-T/F 2676 15-07-2016 06:55:00 12.3 C 86 % 10.03 C
2677 15-07-2016 07:00:00 12.3 C 87 % 10.2 C
2678 15-07-2016 07:05:00 12.4 C 87 % 10.3 C
2679 15-07-2016 07:10:00 12.4 C 87 % 10.3 C
2680 15-07-2016 07:15:00 12.4 C 86 % 10.13 C
2681 15-07-2016 07:20:00 12.4 C 86 % 10.13 C
2682 15-07-2016 07:25:00 12.5 C 86 % 10.22 C
2683 15-07-2016 07:30:00 12.5 C 85 % 10.05 C
2684 15-07-2016 07:35:00 12.6 C 86 % 10.32 C
2685 15-07-2016 07:40:00 12.6 C 86 % 10.32 C
2686 15-07-2016 07:45:00 12.6 C 85 % 10.15 C
2687 15-07-2016 07:50:00 12.7 C 85 % 10.25 C
2688 15-07-2016 07:55:00 12.7 C 85 % 10.25 C
2689 15-07-2016 08:00:00 12.7 C 85 % 10.25 C
2690 15-07-2016 08:05:00 12.7 C 85 % 10.25 C
2691 15-07-2016 08:10:00 12.7 C 85 % 10.25 C
2692 15-07-2016 08:15:00 12.7 C 86 % 10.42 C
2693 15-07-2016 08:20:00 12.7 C 85 % 10.25 C
2694 15-07-2016 08:25:00 12.8 C 86 % 10.52 C
2695 15-07-2016 08:30:00 12.9 C 87 % 10.79 C
2696 15-07-2016 08:35:00 13.1 C 86 % 10.81 C
2697 15-07-2016 08:40:00 13.3 C 87 % 11.18 C
2698 15-07-2016 08:45:00 13.4 C 87 % 11.28 C
2699 15-07-2016 08:50:00 13.7 C 86 % 11.4 C
2700 15-07-2016 08:55:00 13.8 C 84 % 11.15 C
Sensor: Nr:Datum:Temp:Feuchte:Taupunkt:
Aussen-T/F 2701 15-07-2016 09:00:00 13.9 C 83 % 11.06 C
2702 15-07-2016 09:05:00 13.9 C 83 % 11.06 C
2703 15-07-2016 09:10:00 14.1 C 83 % 11.26 C
2704 15-07-2016 09:15:00 14.1 C 83 % 11.26 C
2705 15-07-2016 09:20:00 14.1 C 82 % 11.08 C
2706 15-07-2016 09:25:00 14.2 C 82 % 11.17 C
2707 15-07-2016 09:30:00 14.3 C 82 % 11.27 C
2708 15-07-2016 09:35:00 14.4 C 81 % 11.18 C
2709 15-07-2016 09:40:00 14.7 C 81 % 11.48 C
2710 15-07-2016 09:45:00 14.9 C 81 % 11.67 C
2711 15-07-2016 09:50:00 15 C 78 % 11.2 C
2712 15-07-2016 09:55:00 15.1 C 78 % 11.3 C
2713 15-07-2016 10:00:00 15.1 C 76 % 10.9 C
2714 15-07-2016 10:05:00 15.1 C 77 % 11.1 C
2715 15-07-2016 10:10:00 15.1 C 76 % 10.9 C
2716 15-07-2016 10:15:00 15.1 C 77 % 11.1 C
2717 15-07-2016 10:20:00 15.1 C 78 % 11.3 C
2718 15-07-2016 10:25:00 15.1 C 79 % 11.49 C
2719 15-07-2016 10:30:00 15.1 C 78 % 11.3 C
2720 15-07-2016 10:35:00 15.1 C 78 % 11.3 C
2721 15-07-2016 10:40:00 15.2 C 78 % 11.39 C
2722 15-07-2016 10:45:00 15.3 C 77 % 11.3 C
2723 15-07-2016 10:50:00 15.3 C 75 % 10.9 C
2724 15-07-2016 10:55:00 15.2 C 75 % 10.8 C
2725 15-07-2016 11:00:00 15.3 C 75 % 10.9 C
Sensor: Nr:Datum:Temp:Feuchte:Taupunkt:
Aussen-T/F 2726 15-07-2016 11:05:00 15.4 C 73 % 10.59 C
2727 15-07-2016 11:10:00 15.6 C 71 % 10.37 C
2728 15-07-2016 11:15:00 15.8 C 73 % 10.97 C
2729 15-07-2016 11:20:00 16.2 C 70 % 10.73 C
2730 15-07-2016 11:25:00 16.6 C 67 % 10.45 C
2731 15-07-2016 11:30:00 16.8 C 67 % 10.64 C
2732 15-07-2016 11:35:00 16.9 C 65 % 10.28 C
2733 15-07-2016 11:40:00 17.2 C 67 % 11.02 C
2734 15-07-2016 11:45:00 17.3 C 66 % 10.89 C
2735 15-07-2016 11:50:00 17.2 C 67 % 11.02 C
2736 15-07-2016 11:55:00 17.1 C 69 % 11.37 C
2737 15-07-2016 12:00:00 16.9 C 67 % 10.74 C
2738 15-07-2016 12:05:00 16.9 C 68 % 10.96 C
2739 15-07-2016 12:10:00 17.1 C 63 % 10.01 C
2740 15-07-2016 12:15:00 17.3 C 63 % 10.2 C
2741 15-07-2016 12:20:00 17.6 C 63 % 10.48 C
2742 15-07-2016 12:25:00 17.8 C 63 % 10.67 C
2743 15-07-2016 12:30:00 18.1 C 62 % 10.71 C
2744 15-07-2016 12:35:00 18.2 C 63 % 11.05 C
2745 15-07-2016 12:40:00 18.3 C 59 % 10.16 C
2746 15-07-2016 12:45:00 18.2 C 60 % 10.31 C
2747 15-07-2016 12:50:00 18.2 C 62 % 10.81 C
2748 15-07-2016 12:55:00 18.3 C 60 % 10.41 C
2749 15-07-2016 13:00:00 18.4 C 61 % 10.75 C
2750 15-07-2016 13:05:00 18.3 C 59 % 10.16 C
Sensor: Nr:Datum:Temp:Feuchte:Taupunkt:
Aussen-T/F 2751 15-07-2016 13:10:00 18.3 C 61 % 10.66 C
2752 15-07-2016 13:15:00 18.3 C 62 % 10.9 C
2753 15-07-2016 13:20:00 18.3 C 61 % 10.66 C
2754 15-07-2016 13:25:00 18.4 C 62 % 10.99 C
2755 15-07-2016 13:30:00 18.6 C 59 % 10.44 C
2756 15-07-2016 13:35:00 18.6 C 60 % 10.69 C
2757 15-07-2016 13:40:00 18.6 C 61 % 10.94 C
2758 15-07-2016 13:45:00 18.6 C 62 % 11.18 C
2759 15-07-2016 13:50:00 18.6 C 61 % 10.94 C
2760 15-07-2016 13:55:00 18.8 C 62 % 11.37 C
2761 15-07-2016 14:00:00 19.1 C 61 % 11.41 C
2762 15-07-2016 14:05:00 19.2 C 59 % 11 C
2763 15-07-2016 14:10:00 19.1 C 59 % 10.91 C
2764 15-07-2016 14:15:00 19 C 59 % 10.81 C
2765 15-07-2016 14:20:00 18.9 C 60 % 10.97 C
2766 15-07-2016 14:25:00 18.9 C 61 % 11.22 C
2767 15-07-2016 14:30:00 19.2 C 60 % 11.25 C
2768 15-07-2016 14:35:00 19.4 C 59 % 11.19 C
2769 15-07-2016 14:40:00 19.5 C 59 % 11.28 C
2770 15-07-2016 14:45:00 19.6 C 58 % 11.12 C
2771 15-07-2016 14:50:00 19.6 C 58 % 11.12 C
2772 15-07-2016 14:55:00 19.7 C 58 % 11.21 C
2773 15-07-2016 15:00:00 19.8 C 59 % 11.56 C
2774 15-07-2016 15:05:00 19.7 C 60 % 11.72 C
2775 15-07-2016 15:10:00 19.5 C 59 % 11.28 C
Sensor: Nr:Datum:Temp:Feuchte:Taupunkt:
Aussen-T/F 2776 15-07-2016 15:15:00 19.4 C 63 % 12.18 C
2777 15-07-2016 15:20:00 19.3 C 61 % 11.6 C
2778 15-07-2016 15:25:00 19.2 C 63 % 11.99 C
2779 15-07-2016 15:30:00 19.3 C 61 % 11.6 C
2780 15-07-2016 15:35:00 19.6 C 62 % 12.13 C
2781 15-07-2016 15:40:00 20.3 C 60 % 12.29 C
2782 15-07-2016 15:45:00 20.9 C 58 % 12.33 C
2783 15-07-2016 15:50:00 21.2 C 59 % 12.87 C
2784 15-07-2016 15:55:00 21.3 C 61 % 13.48 C
2785 15-07-2016 16:00:00 21.4 C 54 % 11.71 C
2786 15-07-2016 16:05:00 21.3 C 55 % 11.9 C
2787 15-07-2016 16:10:00 21.3 C 56 % 12.17 C
2788 15-07-2016 16:15:00 21.4 C 55 % 11.99 C
2789 15-07-2016 16:20:00 21.3 C 55 % 11.9 C
2790 15-07-2016 16:25:00 20.8 C 57 % 11.97 C
2791 15-07-2016 16:30:00 20.5 C 61 % 12.73 C
2792 15-07-2016 16:35:00 20.2 C 62 % 12.69 C
2793 15-07-2016 16:40:00 19.9 C 61 % 12.16 C
2794 15-07-2016 16:45:00 19.6 C 61 % 11.88 C
2795 15-07-2016 16:50:00 19.6 C 61 % 11.88 C
2796 15-07-2016 16:55:00 19.8 C 69 % 13.95 C
2797 15-07-2016 17:00:00 20.3 C 64 % 13.27 C
2798 15-07-2016 17:05:00 20.7 C 65 % 13.89 C
2799 15-07-2016 17:10:00 20.8 C 63 % 13.5 C
2800 15-07-2016 17:15:00 20.9 C 66 % 14.31 C
Sensor: Nr:Datum:Temp:Feuchte:Taupunkt:
Aussen-T/F 2801 15-07-2016 17:20:00 21 C 66 % 14.41 C
2802 15-07-2016 17:25:00 21.1 C 69 % 15.19 C
2803 15-07-2016 17:30:00 21.2 C 60 % 13.13 C
2804 15-07-2016 17:35:00 21.2 C 57 % 12.35 C
2805 15-07-2016 17:40:00 21.2 C 56 % 12.08 C
2806 15-07-2016 17:45:00 21.4 C 60 % 13.32 C
2807 15-07-2016 17:50:00 21.7 C 59 % 13.34 C
2808 15-07-2016 17:55:00 21.9 C 56 % 12.73 C
2809 15-07-2016 18:00:00 22.2 C 54 % 12.45 C
2810 15-07-2016 18:05:00 21.9 C 52 % 11.61 C
2811 15-07-2016 18:10:00 22 C 49 % 10.8 C
2812 15-07-2016 18:15:00 22.2 C 49 % 10.98 C
2813 15-07-2016 18:20:00 22.3 C 50 % 11.38 C
2814 15-07-2016 18:25:00 22.2 C 49 % 10.98 C
2815 15-07-2016 18:30:00 22.2 C 50 % 11.29 C
2816 15-07-2016 18:35:00 22.1 C 49 % 10.89 C
2817 15-07-2016 18:40:00 22.1 C 48 % 10.58 C
2818 15-07-2016 18:45:00 22 C 49 % 10.8 C
2819 15-07-2016 18:50:00 22.1 C 49 % 10.89 C
2820 15-07-2016 18:55:00 22.2 C 48 % 10.67 C
2821 15-07-2016 19:00:00 22.4 C 48 % 10.86 C
2822 15-07-2016 19:05:00 22.7 C 47 % 10.81 C
2823 15-07-2016 19:10:00 22.9 C 46 % 10.67 C
2824 15-07-2016 19:15:00 23 C 46 % 10.76 C
2825 15-07-2016 19:20:00 22.9 C 44 % 10.01 C
Sensor: Nr:Datum:Temp:Feuchte:Taupunkt:
Aussen-T/F 2826 15-07-2016 19:25:00 22.7 C 45 % 10.16 C
2827 15-07-2016 19:30:00 22.4 C 45 % 9.89 C
2828 15-07-2016 19:35:00 22.2 C 46 % 10.04 C
2829 15-07-2016 19:40:00 22 C 49 % 10.8 C
2830 15-07-2016 19:45:00 21.9 C 56 % 12.73 C
2831 15-07-2016 19:50:00 21.8 C 61 % 13.95 C
2832 15-07-2016 19:55:00 21.6 C 63 % 14.26 C
2833 15-07-2016 20:00:00 21.4 C 65 % 14.55 C
2834 15-07-2016 20:05:00 21.1 C 60 % 13.04 C
2835 15-07-2016 20:10:00 20.9 C 62 % 13.35 C
2836 15-07-2016 20:15:00 20.7 C 56 % 11.61 C
2837 15-07-2016 20:20:00 20.6 C 65 % 13.79 C
2838 15-07-2016 20:25:00 20.2 C 66 % 13.65 C
2839 15-07-2016 20:30:00 19.7 C 67 % 13.4 C
2840 15-07-2016 20:35:00 19.2 C 69 % 13.38 C
2841 15-07-2016 20:40:00 18.7 C 71 % 13.34 C
2842 15-07-2016 20:45:00 18.3 C 71 % 12.95 C
2843 15-07-2016 20:50:00 18 C 72 % 12.88 C
2844 15-07-2016 20:55:00 17.7 C 72 % 12.59 C
2845 15-07-2016 21:00:00 17.5 C 72 % 12.4 C
2846 15-07-2016 21:05:00 17.4 C 74 % 12.72 C
2847 15-07-2016 21:10:00 17.3 C 74 % 12.62 C
2848 15-07-2016 21:15:00 17.2 C 75 % 12.73 C
2849 15-07-2016 21:20:00 17.1 C 75 % 12.64 C
2850 15-07-2016 21:25:00 16.9 C 76 % 12.65 C
Sensor: Nr:Datum:Temp:Feuchte:Taupunkt:
Aussen-T/F 2851 15-07-2016 21:30:00 16.8 C 77 % 12.75 C
2852 15-07-2016 21:35:00 16.7 C 78 % 12.85 C
2853 15-07-2016 21:40:00 16.6 C 77 % 12.55 C
2854 15-07-2016 21:45:00 16.4 C 78 % 12.56 C
2855 15-07-2016 21:50:00 16.3 C 79 % 12.65 C
2856 15-07-2016 21:55:00 16.2 C 79 % 12.56 C
2857 15-07-2016 22:00:00 16 C 79 % 12.36 C
2858 15-07-2016 22:05:00 15.8 C 80 % 12.36 C
2859 15-07-2016 22:10:00 15.6 C 79 % 11.97 C
2860 15-07-2016 22:15:00 15.4 C 80 % 11.97 C
2861 15-07-2016 22:20:00 15.3 C 80 % 11.87 C
2862 15-07-2016 22:25:00 15.2 C 81 % 11.96 C
2863 15-07-2016 22:30:00 15.1 C 82 % 12.05 C
2864 15-07-2016 22:35:00 15 C 83 % 12.14 C
2865 15-07-2016 22:40:00 14.8 C 83 % 11.94 C
2866 15-07-2016 22:45:00 14.7 C 84 % 12.03 C
2867 15-07-2016 22:50:00 14.6 C 84 % 11.93 C
2868 15-07-2016 22:55:00 14.3 C 85 % 11.81 C
2869 15-07-2016 23:00:00 14.2 C 85 % 11.72 C
2870 15-07-2016 23:05:00 14.1 C 86 % 11.8 C
2871 15-07-2016 23:10:00 13.9 C 86 % 11.6 C
2872 15-07-2016 23:15:00 13.8 C 86 % 11.5 C
2873 15-07-2016 23:20:00 13.7 C 86 % 11.4 C
2874 15-07-2016 23:25:00 13.7 C 87 % 11.58 C
2875 15-07-2016 23:30:00 13.6 C 87 % 11.48 C
Sensor: Nr:Datum:Temp:Feuchte:Taupunkt:
Aussen-T/F 2876 15-07-2016 23:35:00 13.4 C 87 % 11.28 C
2877 15-07-2016 23:40:00 13.3 C 87 % 11.18 C
2878 15-07-2016 23:45:00 13.2 C 88 % 11.26 C
2879 15-07-2016 23:50:00 13.1 C 88 % 11.16 C
2880 15-07-2016 23:55:00 13 C 88 % 11.06 C
2881 16-07-2016 00:00:00 12.9 C 88 % 10.96 C
2882 16-07-2016 00:05:00 12.8 C 88 % 10.86 C
2883 16-07-2016 00:10:00 12.8 C 88 % 10.86 C
2884 16-07-2016 00:15:00 12.8 C 89 % 11.03 C
2885 16-07-2016 00:20:00 12.7 C 89 % 10.94 C
2886 16-07-2016 00:25:00 12.7 C 89 % 10.94 C
2887 16-07-2016 00:30:00 12.6 C 89 % 10.84 C
2888 16-07-2016 00:35:00 12.6 C 89 % 10.84 C
2889 16-07-2016 00:40:00 12.6 C 90 % 11 C
2890 16-07-2016 00:45:00 12.6 C 89 % 10.84 C
2891 16-07-2016 00:50:00 12.5 C 89 % 10.74 C
2892 16-07-2016 00:55:00 12.4 C 90 % 10.81 C
2893 16-07-2016 01:00:00 12.3 C 90 % 10.71 C
2894 16-07-2016 01:05:00 12.3 C 90 % 10.71 C
2895 16-07-2016 01:10:00 12.3 C 91 % 10.87 C
2896 16-07-2016 01:15:00 12.2 C 91 % 10.78 C
2897 16-07-2016 01:20:00 12.2 C 91 % 10.78 C
2898 16-07-2016 01:25:00 12.2 C 91 % 10.78 C
2899 16-07-2016 01:30:00 12.1 C 91 % 10.68 C
2900 16-07-2016 01:35:00 12.1 C 91 % 10.68 C
Sensor: Nr:Datum:Temp:Feuchte:Taupunkt:
Aussen-T/F 2901 16-07-2016 01:40:00 12.1 C 91 % 10.68 C
2902 16-07-2016 01:45:00 11.9 C 91 % 10.48 C
2903 16-07-2016 01:50:00 11.9 C 91 % 10.48 C
2904 16-07-2016 01:55:00 11.9 C 92 % 10.64 C
2905 16-07-2016 02:00:00 11.8 C 91 % 10.38 C
2906 16-07-2016 02:05:00 11.8 C 92 % 10.54 C
2907 16-07-2016 02:10:00 11.7 C 92 % 10.44 C
2908 16-07-2016 02:15:00 11.7 C 92 % 10.44 C
2909 16-07-2016 02:20:00 11.7 C 92 % 10.44 C
2910 16-07-2016 02:25:00 11.6 C 92 % 10.35 C
2911 16-07-2016 02:30:00 11.6 C 92 % 10.35 C
2912 16-07-2016 02:35:00 11.6 C 92 % 10.35 C
2913 16-07-2016 02:40:00 11.5 C 92 % 10.25 C
2914 16-07-2016 02:45:00 11.4 C 92 % 10.15 C
2915 16-07-2016 02:50:00 11.4 C 92 % 10.15 C
2916 16-07-2016 02:55:00 11.4 C 93 % 10.31 C
2917 16-07-2016 03:00:00 11.3 C 93 % 10.21 C
2918 16-07-2016 03:05:00 11.3 C 93 % 10.21 C
2919 16-07-2016 03:10:00 11.3 C 93 % 10.21 C
2920 16-07-2016 03:15:00 11.3 C 93 % 10.21 C
2921 16-07-2016 03:20:00 11.2 C 93 % 10.11 C
2922 16-07-2016 03:25:00 11.2 C 93 % 10.11 C
2923 16-07-2016 03:30:00 11.2 C 93 % 10.11 C
2924 16-07-2016 03:35:00 11.2 C 93 % 10.11 C
2925 16-07-2016 03:40:00 11.2 C 93 % 10.11 C
Sensor: Nr:Datum:Temp:Feuchte:Taupunkt:
Aussen-T/F 2926 16-07-2016 03:45:00 11.2 C 94 % 10.27 C
2927 16-07-2016 03:50:00 11.2 C 94 % 10.27 C
2928 16-07-2016 03:55:00 11.2 C 94 % 10.27 C
2929 16-07-2016 04:00:00 11.3 C 94 % 10.37 C
2930 16-07-2016 04:05:00 11.4 C 94 % 10.47 C
2931 16-07-2016 04:10:00 11.4 C 94 % 10.47 C
2932 16-07-2016 04:15:00 11.5 C 94 % 10.57 C
2933 16-07-2016 04:20:00 11.6 C 94 % 10.67 C
2934 16-07-2016 04:25:00 11.6 C 94 % 10.67 C
2935 16-07-2016 04:30:00 11.7 C 94 % 10.77 C
2936 16-07-2016 04:35:00 11.7 C 94 % 10.77 C
2937 16-07-2016 04:40:00 11.7 C 94 % 10.77 C
2938 16-07-2016 04:45:00 11.7 C 94 % 10.77 C
2939 16-07-2016 04:50:00 11.8 C 94 % 10.87 C
2940 16-07-2016 04:55:00 11.8 C 94 % 10.87 C
2941 16-07-2016 05:00:00 11.8 C 94 % 10.87 C
2942 16-07-2016 05:05:00 11.9 C 94 % 10.97 C
2943 16-07-2016 05:10:00 11.9 C 94 % 10.97 C
2944 16-07-2016 05:15:00 11.9 C 94 % 10.97 C
2945 16-07-2016 05:20:00 11.9 C 94 % 10.97 C
2946 16-07-2016 05:25:00 11.9 C 94 % 10.97 C
2947 16-07-2016 05:30:00 11.9 C 93 % 10.81 C
2948 16-07-2016 05:35:00 11.9 C 93 % 10.81 C
2949 16-07-2016 05:40:00 11.9 C 93 % 10.81 C
2950 16-07-2016 05:45:00 11.9 C 93 % 10.81 C
Sensor: Nr:Datum:Temp:Feuchte:Taupunkt:
Aussen-T/F 2951 16-07-2016 05:50:00 11.9 C 93 % 10.81 C
2952 16-07-2016 05:55:00 11.8 C 93 % 10.71 C
2953 16-07-2016 06:00:00 11.9 C 93 % 10.81 C
2954 16-07-2016 06:05:00 11.9 C 94 % 10.97 C
2955 16-07-2016 06:10:00 11.9 C 94 % 10.97 C
2956 16-07-2016 06:15:00 12 C 94 % 11.07 C
2957 16-07-2016 06:20:00 12.1 C 93 % 11 C
2958 16-07-2016 06:25:00 12.1 C 93 % 11 C
2959 16-07-2016 06:30:00 12.2 C 93 % 11.1 C
2960 16-07-2016 06:35:00 12.2 C 93 % 11.1 C
2961 16-07-2016 06:40:00 12.3 C 93 % 11.2 C
2962 16-07-2016 06:45:00 12.3 C 93 % 11.2 C
2963 16-07-2016 06:50:00 12.4 C 93 % 11.3 C
2964 16-07-2016 06:55:00 12.5 C 93 % 11.4 C
2965 16-07-2016 07:00:00 12.6 C 92 % 11.34 C
2966 16-07-2016 07:05:00 12.7 C 92 % 11.43 C
2967 16-07-2016 07:10:00 12.8 C 91 % 11.37 C
2968 16-07-2016 07:15:00 12.9 C 91 % 11.47 C
2969 16-07-2016 07:20:00 12.9 C 91 % 11.47 C
2970 16-07-2016 07:25:00 13.1 C 92 % 11.83 C
2971 16-07-2016 07:30:00 13.2 C 92 % 11.93 C
2972 16-07-2016 07:35:00 13.3 C 91 % 11.86 C
2973 16-07-2016 07:40:00 13.3 C 90 % 11.7 C
2974 16-07-2016 07:45:00 13.4 C 90 % 11.79 C
2975 16-07-2016 07:50:00 13.6 C 90 % 11.99 C
Sensor: Nr:Datum:Temp:Feuchte:Taupunkt:
Aussen-T/F 2976 16-07-2016 07:55:00 13.7 C 89 % 11.92 C
2977 16-07-2016 08:00:00 13.7 C 89 % 11.92 C
2978 16-07-2016 08:05:00 13.8 C 89 % 12.02 C
2979 16-07-2016 08:10:00 13.9 C 88 % 11.95 C
2980 16-07-2016 08:15:00 13.9 C 88 % 11.95 C
2981 16-07-2016 08:20:00 14.1 C 89 % 12.32 C
2982 16-07-2016 08:25:00 14.2 C 88 % 12.24 C
2983 16-07-2016 08:30:00 14.3 C 89 % 12.51 C
2984 16-07-2016 08:35:00 14.5 C 89 % 12.71 C
2985 16-07-2016 08:40:00 14.7 C 88 % 12.73 C
2986 16-07-2016 08:45:00 14.8 C 86 % 12.48 C
2987 16-07-2016 08:50:00 14.9 C 86 % 12.58 C
2988 16-07-2016 08:55:00 15.1 C 86 % 12.78 C
2989 16-07-2016 09:00:00 15.2 C 85 % 12.7 C
2990 16-07-2016 09:05:00 15.3 C 84 % 12.61 C
2991 16-07-2016 09:10:00 15.4 C 84 % 12.71 C
2992 16-07-2016 09:15:00 15.6 C 85 % 13.09 C
2993 16-07-2016 09:20:00 15.7 C 83 % 12.82 C
2994 16-07-2016 09:25:00 15.8 C 84 % 13.1 C
2995 16-07-2016 09:30:00 15.9 C 84 % 13.2 C
2996 16-07-2016 09:35:00 16 C 83 % 13.12 C
2997 16-07-2016 09:40:00 16.1 C 82 % 13.03 C
2998 16-07-2016 09:45:00 16.2 C 83 % 13.31 C
2999 16-07-2016 09:50:00 16.3 C 82 % 13.22 C
3000 16-07-2016 09:55:00 16.3 C 82 % 13.22 C
Sensor: Nr:Datum:Temp:Feuchte:Taupunkt:
Aussen-T/F 3001 16-07-2016 10:00:00 16.4 C 81 % 13.13 C
3002 16-07-2016 10:05:00 16.7 C 80 % 13.23 C
3003 16-07-2016 10:10:00 16.8 C 79 % 13.14 C
3004 16-07-2016 10:15:00 17 C 81 % 13.72 C
3005 16-07-2016 10:20:00 17.2 C 79 % 13.53 C
3006 16-07-2016 10:25:00 17.4 C 78 % 13.53 C
3007 16-07-2016 10:30:00 17.5 C 78 % 13.62 C
3008 16-07-2016 10:35:00 17.6 C 78 % 13.72 C
3009 16-07-2016 10:40:00 17.8 C 77 % 13.72 C
3010 16-07-2016 10:45:00 17.9 C 76 % 13.61 C
3011 16-07-2016 10:50:00 18.1 C 76 % 13.81 C
3012 16-07-2016 10:55:00 18.2 C 74 % 13.49 C
3013 16-07-2016 11:00:00 18.3 C 74 % 13.59 C
3014 16-07-2016 11:05:00 18.3 C 75 % 13.79 C
3015 16-07-2016 11:10:00 18.4 C 76 % 14.1 C
3016 16-07-2016 11:15:00 18.5 C 76 % 14.19 C
3017 16-07-2016 11:20:00 18.6 C 76 % 14.29 C
3018 16-07-2016 11:25:00 18.7 C 77 % 14.59 C
3019 16-07-2016 11:30:00 18.8 C 76 % 14.48 C
3020 16-07-2016 11:35:00 18.9 C 74 % 14.17 C
3021 16-07-2016 11:40:00 19.1 C 78 % 15.18 C
3022 16-07-2016 11:45:00 19.1 C 77 % 14.97 C
3023 16-07-2016 11:50:00 19.1 C 76 % 14.77 C
3024 16-07-2016 11:55:00 19 C 71 % 13.63 C
3025 16-07-2016 12:00:00 19.1 C 69 % 13.28 C
Sensor: Nr:Datum:Temp:Feuchte:Taupunkt:
Aussen-T/F 3026 16-07-2016 12:05:00 19.3 C 69 % 13.47 C
3027 16-07-2016 12:10:00 19.5 C 66 % 12.98 C
3028 16-07-2016 12:15:00 19.7 C 66 % 13.17 C
3029 16-07-2016 12:20:00 19.8 C 65 % 13.03 C
3030 16-07-2016 12:25:00 19.9 C 65 % 13.13 C
3031 16-07-2016 12:30:00 20.1 C 66 % 13.55 C
3032 16-07-2016 12:35:00 20.3 C 68 % 14.2 C
3033 16-07-2016 12:40:00 20.6 C 68 % 14.49 C
3034 16-07-2016 12:45:00 20.8 C 68 % 14.68 C
3035 16-07-2016 12:50:00 20.9 C 67 % 14.55 C
3036 16-07-2016 12:55:00 20.9 C 67 % 14.55 C
3037 16-07-2016 13:00:00 20.9 C 65 % 14.08 C
3038 16-07-2016 13:05:00 21.1 C 65 % 14.27 C
3039 16-07-2016 13:10:00 21.1 C 65 % 14.27 C
3040 16-07-2016 13:15:00 21.1 C 66 % 14.5 C
3041 16-07-2016 13:20:00 21.1 C 71 % 15.64 C
3042 16-07-2016 13:25:00 21.1 C 65 % 14.27 C
3043 16-07-2016 13:30:00 21.2 C 66 % 14.6 C
3044 16-07-2016 13:35:00 21.3 C 67 % 14.93 C
3045 16-07-2016 13:40:00 21.4 C 67 % 15.02 C
3046 16-07-2016 13:45:00 21.4 C 65 % 14.55 C
3047 16-07-2016 13:50:00 21.6 C 69 % 15.67 C
3048 16-07-2016 13:55:00 21.5 C 67 % 15.12 C
3049 16-07-2016 14:00:00 21.4 C 66 % 14.79 C
3050 16-07-2016 14:05:00 21.4 C 68 % 15.25 C
Sensor: Nr:Datum:Temp:Feuchte:Taupunkt:
Aussen-T/F 3051 16-07-2016 14:10:00 21.3 C 69 % 15.38 C
3052 16-07-2016 14:15:00 21.4 C 72 % 16.14 C
3053 16-07-2016 14:20:00 21.3 C 71 % 15.83 C
3054 16-07-2016 14:25:00 21.3 C 71 % 15.83 C
3055 16-07-2016 14:30:00 21.2 C 71 % 15.73 C
3056 16-07-2016 14:35:00 21.2 C 68 % 15.06 C
3057 16-07-2016 14:40:00 21.1 C 69 % 15.19 C
3058 16-07-2016 14:45:00 21.1 C 69 % 15.19 C
3059 16-07-2016 14:50:00 21.1 C 70 % 15.42 C
3060 16-07-2016 14:55:00 21.2 C 70 % 15.51 C
3061 16-07-2016 15:00:00 21.2 C 70 % 15.51 C
3062 16-07-2016 15:05:00 21.3 C 69 % 15.38 C
3063 16-07-2016 15:10:00 21.4 C 69 % 15.48 C
3064 16-07-2016 15:15:00 21.5 C 69 % 15.57 C
3065 16-07-2016 15:20:00 21.6 C 69 % 15.67 C
3066 16-07-2016 15:25:00 21.7 C 69 % 15.77 C
3067 16-07-2016 15:30:00 21.7 C 70 % 15.99 C
3068 16-07-2016 15:35:00 21.8 C 70 % 16.09 C
3069 16-07-2016 15:40:00 21.9 C 69 % 15.96 C
3070 16-07-2016 15:45:00 21.9 C 68 % 15.73 C
3071 16-07-2016 15:50:00 21.9 C 69 % 15.96 C
3072 16-07-2016 15:55:00 22 C 70 % 16.28 C
3073 16-07-2016 16:00:00 22.1 C 70 % 16.37 C
3074 16-07-2016 16:05:00 22 C 70 % 16.28 C
3075 16-07-2016 16:10:00 22.1 C 74 % 17.25 C
Sensor: Nr:Datum:Temp:Feuchte:Taupunkt:
Aussen-T/F 3076 16-07-2016 16:15:00 22.1 C 71 % 16.6 C
3077 16-07-2016 16:20:00 22.2 C 73 % 17.13 C
3078 16-07-2016 16:25:00 22.3 C 75 % 17.65 C
3079 16-07-2016 16:30:00 22.3 C 73 % 17.23 C
3080 16-07-2016 16:35:00 22.3 C 75 % 17.65 C
3081 16-07-2016 16:40:00 22.3 C 73 % 17.23 C
3082 16-07-2016 16:45:00 22.4 C 76 % 17.96 C
3083 16-07-2016 16:50:00 22.3 C 76 % 17.86 C
3084 16-07-2016 16:55:00 22.3 C 77 % 18.07 C
3085 16-07-2016 17:00:00 22.2 C 77 % 17.98 C
3086 16-07-2016 17:05:00 22.1 C 76 % 17.67 C
3087 16-07-2016 17:10:00 21.9 C 77 % 17.68 C
3088 16-07-2016 17:15:00 21.7 C 79 % 17.9 C
3089 16-07-2016 17:20:00 21.5 C 79 % 17.7 C
3090 16-07-2016 17:25:00 21.4 C 80 % 17.81 C
3091 16-07-2016 17:30:00 21.3 C 80 % 17.71 C
3092 16-07-2016 17:35:00 21.3 C 81 % 17.91 C
3093 16-07-2016 17:40:00 21.3 C 81 % 17.91 C
3094 16-07-2016 17:45:00 21.3 C 81 % 17.91 C
3095 16-07-2016 17:50:00 21.3 C 76 % 16.9 C
3096 16-07-2016 17:55:00 21.3 C 80 % 17.71 C
3097 16-07-2016 18:00:00 21.4 C 80 % 17.81 C
3098 16-07-2016 18:05:00 21.3 C 75 % 16.69 C
3099 16-07-2016 18:10:00 21.3 C 81 % 17.91 C
3100 16-07-2016 18:15:00 21.4 C 80 % 17.81 C
Sensor: Nr:Datum:Temp:Feuchte:Taupunkt:
Aussen-T/F 3101 16-07-2016 18:20:00 21.3 C 78 % 17.31 C
3102 16-07-2016 18:25:00 21.3 C 80 % 17.71 C
3103 16-07-2016 18:30:00 21.2 C 81 % 17.81 C
3104 16-07-2016 18:35:00 21.2 C 81 % 17.81 C
3105 16-07-2016 18:40:00 21 C 82 % 17.81 C
3106 16-07-2016 18:45:00 20.9 C 82 % 17.71 C
3107 16-07-2016 18:50:00 20.8 C 83 % 17.81 C
3108 16-07-2016 18:55:00 20.7 C 83 % 17.71 C
3109 16-07-2016 19:00:00 20.7 C 83 % 17.71 C
3110 16-07-2016 19:05:00 20.6 C 83 % 17.61 C
3111 16-07-2016 19:10:00 20.6 C 83 % 17.61 C
3112 16-07-2016 19:15:00 20.6 C 83 % 17.61 C
3113 16-07-2016 19:20:00 20.5 C 83 % 17.51 C
3114 16-07-2016 19:25:00 20.5 C 83 % 17.51 C
3115 16-07-2016 19:30:00 20.5 C 83 % 17.51 C
3116 16-07-2016 19:35:00 20.4 C 82 % 17.22 C
3117 16-07-2016 19:40:00 20.4 C 82 % 17.22 C
3118 16-07-2016 19:45:00 20.5 C 83 % 17.51 C
3119 16-07-2016 19:50:00 20.5 C 83 % 17.51 C
3120 16-07-2016 19:55:00 20.5 C 83 % 17.51 C
3121 16-07-2016 20:00:00 20.4 C 83 % 17.42 C
3122 16-07-2016 20:05:00 20.4 C 83 % 17.42 C
3123 16-07-2016 20:10:00 20.4 C 83 % 17.42 C
3124 16-07-2016 20:15:00 20.3 C 83 % 17.32 C
3125 16-07-2016 20:20:00 20.3 C 83 % 17.32 C
Sensor: Nr:Datum:Temp:Feuchte:Taupunkt:
Aussen-T/F 3126 16-07-2016 20:25:00 20.2 C 83 % 17.22 C
3127 16-07-2016 20:30:00 20.3 C 83 % 17.32 C
3128 16-07-2016 20:35:00 20.4 C 82 % 17.22 C
3129 16-07-2016 20:40:00 20.4 C 81 % 17.03 C
3130 16-07-2016 20:45:00 20.3 C 81 % 16.93 C
3131 16-07-2016 20:50:00 20.2 C 81 % 16.84 C
3132 16-07-2016 20:55:00 20.1 C 82 % 16.93 C
3133 16-07-2016 21:00:00 19.9 C 82 % 16.74 C
3134 16-07-2016 21:05:00 19.7 C 82 % 16.54 C
3135 16-07-2016 21:10:00 19.6 C 83 % 16.63 C
3136 16-07-2016 21:15:00 19.4 C 84 % 16.63 C
3137 16-07-2016 21:20:00 19.3 C 84 % 16.53 C
3138 16-07-2016 21:25:00 19.2 C 85 % 16.62 C
3139 16-07-2016 21:30:00 19 C 85 % 16.42 C
3140 16-07-2016 21:35:00 18.8 C 85 % 16.23 C
3141 16-07-2016 21:40:00 18.7 C 85 % 16.13 C
3142 16-07-2016 21:45:00 18.6 C 85 % 16.03 C
3143 16-07-2016 21:50:00 18.5 C 85 % 15.93 C
3144 16-07-2016 21:55:00 18.5 C 85 % 15.93 C
3145 16-07-2016 22:00:00 18.4 C 85 % 15.83 C
3146 16-07-2016 22:05:00 18.5 C 85 % 15.93 C
3147 16-07-2016 22:10:00 18.5 C 86 % 16.11 C
3148 16-07-2016 22:15:00 18.5 C 86 % 16.11 C
3149 16-07-2016 22:20:00 18.5 C 86 % 16.11 C
3150 16-07-2016 22:25:00 18.5 C 87 % 16.3 C
Sensor: Nr:Datum:Temp:Feuchte:Taupunkt:
Aussen-T/F 3151 16-07-2016 22:30:00 18.4 C 87 % 16.2 C
3152 16-07-2016 22:35:00 18.3 C 87 % 16.1 C
3153 16-07-2016 22:40:00 18.3 C 88 % 16.28 C
3154 16-07-2016 22:45:00 18.2 C 88 % 16.18 C
3155 16-07-2016 22:50:00 18.1 C 88 % 16.08 C
3156 16-07-2016 22:55:00 18.1 C 89 % 16.26 C
3157 16-07-2016 23:00:00 18 C 89 % 16.16 C
3158 16-07-2016 23:05:00 17.9 C 89 % 16.06 C
3159 16-07-2016 23:10:00 17.9 C 90 % 16.24 C
3160 16-07-2016 23:15:00 17.8 C 90 % 16.14 C
3161 16-07-2016 23:20:00 17.8 C 90 % 16.14 C
3162 16-07-2016 23:25:00 17.7 C 90 % 16.04 C
3163 16-07-2016 23:30:00 17.6 C 90 % 15.94 C
3164 16-07-2016 23:35:00 17.5 C 90 % 15.84 C
3165 16-07-2016 23:40:00 17.4 C 90 % 15.74 C
3166 16-07-2016 23:45:00 17.2 C 90 % 15.55 C
3167 16-07-2016 23:50:00 17.1 C 91 % 15.62 C
3168 16-07-2016 23:55:00 17 C 91 % 15.52 C
3169 17-07-2016 00:00:00 16.9 C 91 % 15.42 C
3170 17-07-2016 00:05:00 16.8 C 92 % 15.49 C
3171 17-07-2016 00:10:00 16.8 C 92 % 15.49 C
3172 17-07-2016 00:15:00 16.7 C 92 % 15.39 C
3173 17-07-2016 00:20:00 16.6 C 92 % 15.3 C
3174 17-07-2016 00:25:00 16.5 C 92 % 15.2 C
3175 17-07-2016 00:30:00 16.4 C 92 % 15.1 C
Sensor: Nr:Datum:Temp:Feuchte:Taupunkt:
Aussen-T/F 3176 17-07-2016 00:35:00 16.3 C 92 % 15 C
3177 17-07-2016 00:40:00 16.2 C 92 % 14.9 C
3178 17-07-2016 00:45:00 16.2 C 93 % 15.07 C
3179 17-07-2016 00:50:00 16.2 C 93 % 15.07 C
3180 17-07-2016 00:55:00 16.2 C 93 % 15.07 C
3181 17-07-2016 01:00:00 16.3 C 94 % 15.33 C
3182 17-07-2016 01:05:00 16.3 C 94 % 15.33 C
3183 17-07-2016 01:10:00 16.4 C 94 % 15.43 C
3184 17-07-2016 01:15:00 16.5 C 94 % 15.53 C
3185 17-07-2016 01:20:00 16.5 C 94 % 15.53 C
3186 17-07-2016 01:25:00 16.6 C 94 % 15.63 C
3187 17-07-2016 01:30:00 16.6 C 94 % 15.63 C
3188 17-07-2016 01:35:00 16.7 C 94 % 15.73 C
3189 17-07-2016 01:40:00 16.7 C 94 % 15.73 C
3190 17-07-2016 01:45:00 16.7 C 94 % 15.73 C
3191 17-07-2016 01:50:00 16.7 C 94 % 15.73 C
3192 17-07-2016 01:55:00 16.8 C 94 % 15.83 C
3193 17-07-2016 02:00:00 16.8 C 94 % 15.83 C
3194 17-07-2016 02:05:00 16.9 C 94 % 15.93 C
3195 17-07-2016 02:10:00 16.9 C 94 % 15.93 C
3196 17-07-2016 02:15:00 16.9 C 94 % 15.93 C
3197 17-07-2016 02:20:00 17 C 94 % 16.03 C
3198 17-07-2016 02:25:00 17.1 C 94 % 16.13 C
3199 17-07-2016 02:30:00 17.1 C 94 % 16.13 C
3200 17-07-2016 02:35:00 17.1 C 94 % 16.13 C
Sensor: Nr:Datum:Temp:Feuchte:Taupunkt:
Aussen-T/F 3201 17-07-2016 02:40:00 17.1 C 94 % 16.13 C
3202 17-07-2016 02:45:00 17.2 C 94 % 16.23 C
3203 17-07-2016 02:50:00 17.2 C 93 % 16.06 C
3204 17-07-2016 02:55:00 17.2 C 93 % 16.06 C
3205 17-07-2016 03:00:00 17.2 C 93 % 16.06 C
3206 17-07-2016 03:05:00 17.3 C 93 % 16.16 C
3207 17-07-2016 03:10:00 17.3 C 93 % 16.16 C
3208 17-07-2016 03:15:00 17.3 C 93 % 16.16 C
3209 17-07-2016 03:20:00 17.2 C 93 % 16.06 C
3210 17-07-2016 03:25:00 17.2 C 93 % 16.06 C
3211 17-07-2016 03:30:00 17.2 C 93 % 16.06 C
3212 17-07-2016 03:35:00 17.2 C 93 % 16.06 C
3213 17-07-2016 03:40:00 17.2 C 93 % 16.06 C
3214 17-07-2016 03:45:00 17.2 C 93 % 16.06 C
3215 17-07-2016 03:50:00 17.2 C 93 % 16.06 C
3216 17-07-2016 03:55:00 17.1 C 93 % 15.96 C
3217 17-07-2016 04:00:00 17.1 C 93 % 15.96 C
3218 17-07-2016 04:05:00 17.1 C 94 % 16.13 C
3219 17-07-2016 04:10:00 17.1 C 94 % 16.13 C
3220 17-07-2016 04:15:00 17.2 C 94 % 16.23 C
3221 17-07-2016 04:20:00 17.2 C 94 % 16.23 C
3222 17-07-2016 04:25:00 17.2 C 94 % 16.23 C
3223 17-07-2016 04:30:00 17.2 C 94 % 16.23 C
3224 17-07-2016 04:35:00 17.1 C 94 % 16.13 C
3225 17-07-2016 04:40:00 17.1 C 94 % 16.13 C
Sensor: Nr:Datum:Temp:Feuchte:Taupunkt:
Aussen-T/F 3226 17-07-2016 04:45:00 17 C 93 % 15.86 C
3227 17-07-2016 04:50:00 16.9 C 93 % 15.76 C
3228 17-07-2016 04:55:00 16.7 C 93 % 15.56 C
3229 17-07-2016 05:00:00 16.6 C 93 % 15.46 C
3230 17-07-2016 05:05:00 16.5 C 93 % 15.36 C
3231 17-07-2016 05:10:00 16.5 C 93 % 15.36 C
3232 17-07-2016 05:15:00 16.5 C 94 % 15.53 C
3233 17-07-2016 05:20:00 16.5 C 94 % 15.53 C
3234 17-07-2016 05:25:00 16.5 C 94 % 15.53 C
3235 17-07-2016 05:30:00 16.5 C 94 % 15.53 C
3236 17-07-2016 05:35:00 16.5 C 94 % 15.53 C
3237 17-07-2016 05:40:00 16.4 C 94 % 15.43 C
3238 17-07-2016 05:45:00 16.4 C 94 % 15.43 C
3239 17-07-2016 05:50:00 16.4 C 94 % 15.43 C
3240 17-07-2016 05:55:00 16.5 C 95 % 15.7 C
3241 17-07-2016 06:00:00 16.6 C 95 % 15.8 C
3242 17-07-2016 06:05:00 16.6 C 95 % 15.8 C
3243 17-07-2016 06:10:00 16.6 C 95 % 15.8 C
3244 17-07-2016 06:15:00 16.7 C 95 % 15.9 C
3245 17-07-2016 06:20:00 16.7 C 95 % 15.9 C
3246 17-07-2016 06:25:00 16.8 C 95 % 15.99 C
3247 17-07-2016 06:30:00 16.8 C 95 % 15.99 C
3248 17-07-2016 06:35:00 16.9 C 95 % 16.09 C
3249 17-07-2016 06:40:00 17 C 95 % 16.19 C
3250 17-07-2016 06:45:00 17.1 C 95 % 16.29 C
Sensor: Nr:Datum:Temp:Feuchte:Taupunkt:
Aussen-T/F 3251 17-07-2016 06:50:00 17.1 C 95 % 16.29 C
3252 17-07-2016 06:55:00 17.1 C 95 % 16.29 C
3253 17-07-2016 07:00:00 17.2 C 95 % 16.39 C
3254 17-07-2016 07:05:00 17.2 C 95 % 16.39 C
3255 17-07-2016 07:10:00 17.3 C 95 % 16.49 C
3256 17-07-2016 07:15:00 17.4 C 95 % 16.59 C
3257 17-07-2016 07:20:00 17.4 C 95 % 16.59 C
3258 17-07-2016 07:25:00 17.5 C 95 % 16.69 C
3259 17-07-2016 07:30:00 17.6 C 95 % 16.79 C
3260 17-07-2016 07:35:00 17.7 C 95 % 16.89 C
3261 17-07-2016 07:40:00 17.7 C 94 % 16.72 C
3262 17-07-2016 07:45:00 17.8 C 94 % 16.82 C
3263 17-07-2016 07:50:00 17.9 C 94 % 16.92 C
3264 17-07-2016 07:55:00 18.1 C 93 % 16.95 C
3265 17-07-2016 08:00:00 18.2 C 93 % 17.05 C
3266 17-07-2016 08:05:00 18.3 C 92 % 16.98 C
3267 17-07-2016 08:10:00 18.4 C 92 % 17.08 C
3268 17-07-2016 08:15:00 18.5 C 92 % 17.18 C
3269 17-07-2016 08:20:00 18.6 C 92 % 17.27 C
3270 17-07-2016 08:25:00 18.8 C 92 % 17.47 C
3271 17-07-2016 08:30:00 18.8 C 92 % 17.47 C
3272 17-07-2016 08:35:00 18.9 C 91 % 17.4 C
3273 17-07-2016 08:40:00 19.1 C 90 % 17.42 C
3274 17-07-2016 08:45:00 19.1 C 90 % 17.42 C
3275 17-07-2016 08:50:00 19.3 C 90 % 17.62 C
Sensor: Nr:Datum:Temp:Feuchte:Taupunkt:
Aussen-T/F 3276 17-07-2016 08:55:00 19.4 C 89 % 17.54 C
3277 17-07-2016 09:00:00 19.5 C 88 % 17.46 C
3278 17-07-2016 09:05:00 19.6 C 88 % 17.56 C
3279 17-07-2016 09:10:00 19.7 C 88 % 17.66 C
3280 17-07-2016 09:15:00 19.8 C 88 % 17.75 C
3281 17-07-2016 09:20:00 20 C 88 % 17.95 C
3282 17-07-2016 09:25:00 20.2 C 87 % 17.97 C
3283 17-07-2016 09:30:00 20.3 C 87 % 18.06 C
3284 17-07-2016 09:35:00 20.4 C 86 % 17.98 C
3285 17-07-2016 09:40:00 20.6 C 87 % 18.36 C
3286 17-07-2016 09:45:00 20.8 C 85 % 18.18 C
3287 17-07-2016 09:50:00 20.9 C 84 % 18.09 C
3288 17-07-2016 09:55:00 21.2 C 84 % 18.39 C
3289 17-07-2016 10:00:00 21.4 C 83 % 18.39 C
3290 17-07-2016 10:05:00 21.7 C 82 % 18.49 C
3291 17-07-2016 10:10:00 21.9 C 81 % 18.49 C
3292 17-07-2016 10:15:00 22.1 C 80 % 18.49 C
3293 17-07-2016 10:20:00 22.2 C 80 % 18.58 C
3294 17-07-2016 10:25:00 22.3 C 80 % 18.68 C
3295 17-07-2016 10:30:00 22.5 C 79 % 18.67 C
3296 17-07-2016 10:35:00 22.7 C 77 % 18.46 C
3297 17-07-2016 10:40:00 22.8 C 74 % 17.92 C
3298 17-07-2016 10:45:00 22.9 C 74 % 18.02 C
3299 17-07-2016 10:50:00 23.1 C 75 % 18.43 C
3300 17-07-2016 10:55:00 23.3 C 73 % 18.19 C
Sensor: Nr:Datum:Temp:Feuchte:Taupunkt:
Aussen-T/F 3301 17-07-2016 11:00:00 23.4 C 73 % 18.28 C
3302 17-07-2016 11:05:00 23.5 C 72 % 18.16 C
3303 17-07-2016 11:10:00 23.6 C 73 % 18.48 C
3304 17-07-2016 11:15:00 23.7 C 72 % 18.35 C
3305 17-07-2016 11:20:00 23.8 C 69 % 17.77 C
3306 17-07-2016 11:25:00 23.8 C 74 % 18.89 C
3307 17-07-2016 11:30:00 23.7 C 70 % 17.9 C
3308 17-07-2016 11:35:00 23.7 C 70 % 17.9 C
3309 17-07-2016 11:40:00 23.7 C 73 % 18.57 C
3310 17-07-2016 11:45:00 23.7 C 73 % 18.57 C
3311 17-07-2016 11:50:00 23.8 C 73 % 18.67 C
3312 17-07-2016 11:55:00 24 C 71 % 18.42 C
3313 17-07-2016 12:00:00 24.2 C 73 % 19.05 C
3314 17-07-2016 12:05:00 24.3 C 72 % 18.93 C
3315 17-07-2016 12:10:00 24.4 C 72 % 19.02 C
3316 17-07-2016 12:15:00 24.6 C 76 % 20.09 C
3317 17-07-2016 12:20:00 24.5 C 74 % 19.56 C
3318 17-07-2016 12:25:00 24.6 C 69 % 18.53 C
3319 17-07-2016 12:30:00 24.7 C 74 % 19.75 C
3320 17-07-2016 12:35:00 24.7 C 74 % 19.75 C
3321 17-07-2016 12:40:00 24.4 C 75 % 19.68 C
3322 17-07-2016 12:45:00 24.2 C 76 % 19.7 C
3323 17-07-2016 12:50:00 23.9 C 78 % 19.83 C
3324 17-07-2016 12:55:00 23.7 C 79 % 19.84 C
3325 17-07-2016 13:00:00 23.5 C 79 % 19.65 C
Sensor: Nr:Datum:Temp:Feuchte:Taupunkt:
Aussen-T/F 3326 17-07-2016 13:05:00 23.4 C 81 % 19.95 C
3327 17-07-2016 13:10:00 23.4 C 82 % 20.15 C
3328 17-07-2016 13:15:00 23.7 C 75 % 19 C
3329 17-07-2016 13:20:00 24.2 C 76 % 19.7 C
3330 17-07-2016 13:25:00 24.4 C 70 % 18.57 C
3331 17-07-2016 13:30:00 24.7 C 70 % 18.86 C
3332 17-07-2016 13:35:00 24.9 C 69 % 18.82 C
3333 17-07-2016 13:40:00 24.9 C 71 % 19.28 C
3334 17-07-2016 13:45:00 25 C 70 % 19.15 C
3335 17-07-2016 13:50:00 25.2 C 71 % 19.56 C
3336 17-07-2016 13:55:00 25.3 C 69 % 19.2 C
3337 17-07-2016 14:00:00 25.4 C 71 % 19.76 C
3338 17-07-2016 14:05:00 25.4 C 72 % 19.98 C
3339 17-07-2016 14:10:00 25.6 C 75 % 20.84 C
3340 17-07-2016 14:15:00 25.5 C 75 % 20.74 C
3341 17-07-2016 14:20:00 25.3 C 75 % 20.55 C
3342 17-07-2016 14:25:00 25.2 C 76 % 20.67 C
3343 17-07-2016 14:30:00 25.2 C 77 % 20.88 C
3344 17-07-2016 14:35:00 25.2 C 77 % 20.88 C
3345 17-07-2016 14:40:00 25.3 C 75 % 20.55 C
3346 17-07-2016 14:45:00 25.4 C 75 % 20.64 C
3347 17-07-2016 14:50:00 25.5 C 73 % 20.3 C
3348 17-07-2016 14:55:00 25.6 C 75 % 20.84 C
3349 17-07-2016 15:00:00 25.7 C 75 % 20.93 C
3350 17-07-2016 15:05:00 25.7 C 75 % 20.93 C
Sensor: Nr:Datum:Temp:Feuchte:Taupunkt:
Aussen-T/F 3351 17-07-2016 15:10:00 25.7 C 77 % 21.36 C
3352 17-07-2016 15:15:00 25.7 C 78 % 21.57 C
3353 17-07-2016 15:20:00 25.7 C 69 % 19.58 C
3354 17-07-2016 15:25:00 25.8 C 73 % 20.59 C
3355 17-07-2016 15:30:00 25.7 C 71 % 20.04 C
3356 17-07-2016 15:35:00 25.3 C 64 % 18 C
3357 17-07-2016 15:40:00 25.1 C 65 % 18.06 C
3358 17-07-2016 15:45:00 25.1 C 66 % 18.3 C
3359 17-07-2016 15:50:00 25.2 C 66 % 18.39 C
3360 17-07-2016 15:55:00 25.7 C 66 % 18.87 C
3361 17-07-2016 16:00:00 26.3 C 62 % 18.44 C
3362 17-07-2016 16:05:00 26.7 C 60 % 18.29 C
3363 17-07-2016 16:10:00 26.7 C 61 % 18.55 C
3364 17-07-2016 16:15:00 26.4 C 62 % 18.53 C
3365 17-07-2016 16:20:00 26.1 C 62 % 18.25 C
3366 17-07-2016 16:25:00 26.1 C 62 % 18.25 C
3367 17-07-2016 16:30:00 26.2 C 63 % 18.6 C
3368 17-07-2016 16:35:00 26.6 C 62 % 18.72 C
3369 17-07-2016 16:40:00 27.1 C 60 % 18.66 C
3370 17-07-2016 16:45:00 27.1 C 58 % 18.12 C
3371 17-07-2016 16:50:00 26.8 C 60 % 18.38 C
3372 17-07-2016 16:55:00 26.8 C 61 % 18.65 C
3373 17-07-2016 17:00:00 26.7 C 60 % 18.29 C
3374 17-07-2016 17:05:00 26.4 C 61 % 18.27 C
3375 17-07-2016 17:10:00 26.2 C 61 % 18.08 C
Sensor: Nr:Datum:Temp:Feuchte:Taupunkt:
Aussen-T/F 3376 17-07-2016 17:15:00 26.2 C 61 % 18.08 C
3377 17-07-2016 17:20:00 26.3 C 60 % 17.91 C
3378 17-07-2016 17:25:00 26.2 C 60 % 17.82 C
3379 17-07-2016 17:30:00 26.4 C 59 % 17.74 C
3380 17-07-2016 17:35:00 26.5 C 59 % 17.83 C
3381 17-07-2016 17:40:00 26.4 C 58 % 17.47 C
3382 17-07-2016 17:45:00 26.2 C 59 % 17.55 C
3383 17-07-2016 17:50:00 26.2 C 58 % 17.28 C
3384 17-07-2016 17:55:00 26.4 C 57 % 17.19 C
3385 17-07-2016 18:00:00 26.4 C 56 % 16.92 C
3386 17-07-2016 18:05:00 26.1 C 56 % 16.64 C
3387 17-07-2016 18:10:00 25.9 C 59 % 17.27 C
3388 17-07-2016 18:15:00 25.9 C 58 % 17 C
3389 17-07-2016 18:20:00 26.1 C 58 % 17.19 C
3390 17-07-2016 18:25:00 26.1 C 58 % 17.19 C
3391 17-07-2016 18:30:00 25.8 C 59 % 17.18 C
3392 17-07-2016 18:35:00 25.7 C 60 % 17.35 C
3393 17-07-2016 18:40:00 25.6 C 60 % 17.26 C
3394 17-07-2016 18:45:00 25.7 C 61 % 17.61 C
3395 17-07-2016 18:50:00 25.7 C 65 % 18.62 C
3396 17-07-2016 18:55:00 25.7 C 60 % 17.35 C
3397 17-07-2016 19:00:00 25.6 C 59 % 16.99 C
3398 17-07-2016 19:05:00 25.6 C 62 % 17.78 C
3399 17-07-2016 19:10:00 25.4 C 61 % 17.33 C
3400 17-07-2016 19:15:00 25.3 C 60 % 16.98 C
Sensor: Nr:Datum:Temp:Feuchte:Taupunkt:
Aussen-T/F 3401 17-07-2016 19:20:00 25.1 C 60 % 16.79 C
3402 17-07-2016 19:25:00 25 C 61 % 16.96 C
3403 17-07-2016 19:30:00 25 C 70 % 19.15 C
3404 17-07-2016 19:35:00 24.8 C 68 % 18.49 C
3405 17-07-2016 19:40:00 24.7 C 69 % 18.63 C
3406 17-07-2016 19:45:00 24.8 C 63 % 17.28 C
3407 17-07-2016 19:50:00 25.1 C 65 % 18.06 C
3408 17-07-2016 19:55:00 25.4 C 62 % 17.59 C
3409 17-07-2016 20:00:00 25.6 C 61 % 17.52 C
3410 17-07-2016 20:05:00 25.6 C 61 % 17.52 C
3411 17-07-2016 20:10:00 25.6 C 60 % 17.26 C
3412 17-07-2016 20:15:00 25.4 C 62 % 17.59 C
3413 17-07-2016 20:20:00 25.2 C 62 % 17.4 C
3414 17-07-2016 20:25:00 25 C 64 % 17.72 C
3415 17-07-2016 20:30:00 24.8 C 69 % 18.72 C
3416 17-07-2016 20:35:00 24.5 C 70 % 18.67 C
3417 17-07-2016 20:40:00 24.3 C 71 % 18.7 C
3418 17-07-2016 20:45:00 24.1 C 72 % 18.73 C
3419 17-07-2016 20:50:00 23.8 C 71 % 18.22 C
3420 17-07-2016 20:55:00 23.7 C 70 % 17.9 C
3421 17-07-2016 21:00:00 23.6 C 72 % 18.26 C
3422 17-07-2016 21:05:00 23.5 C 75 % 18.81 C
3423 17-07-2016 21:10:00 23.3 C 75 % 18.62 C
3424 17-07-2016 21:15:00 23 C 76 % 18.54 C
3425 17-07-2016 21:20:00 22.7 C 76 % 18.25 C
Sensor: Nr:Datum:Temp:Feuchte:Taupunkt:
Aussen-T/F 3426 17-07-2016 21:25:00 22.5 C 77 % 18.27 C
3427 17-07-2016 21:30:00 22.3 C 78 % 18.28 C
3428 17-07-2016 21:35:00 22.2 C 79 % 18.38 C
3429 17-07-2016 21:40:00 21.9 C 80 % 18.29 C
3430 17-07-2016 21:45:00 21.7 C 81 % 18.3 C
3431 17-07-2016 21:50:00 21.6 C 82 % 18.39 C
3432 17-07-2016 21:55:00 21.4 C 82 % 18.2 C
3433 17-07-2016 22:00:00 21.3 C 83 % 18.29 C
3434 17-07-2016 22:05:00 21.2 C 83 % 18.2 C
3435 17-07-2016 22:10:00 21.1 C 84 % 18.29 C
3436 17-07-2016 22:15:00 21 C 84 % 18.19 C
3437 17-07-2016 22:20:00 20.9 C 84 % 18.09 C
3438 17-07-2016 22:25:00 20.8 C 85 % 18.18 C
3439 17-07-2016 22:30:00 20.8 C 85 % 18.18 C
3440 17-07-2016 22:35:00 20.7 C 85 % 18.09 C
3441 17-07-2016 22:40:00 20.7 C 86 % 18.27 C
3442 17-07-2016 22:45:00 20.6 C 86 % 18.18 C
3443 17-07-2016 22:50:00 20.6 C 86 % 18.18 C
3444 17-07-2016 22:55:00 20.6 C 86 % 18.18 C
3445 17-07-2016 23:00:00 20.5 C 86 % 18.08 C
3446 17-07-2016 23:05:00 20.4 C 87 % 18.16 C
3447 17-07-2016 23:10:00 20.4 C 87 % 18.16 C
3448 17-07-2016 23:15:00 20.3 C 87 % 18.06 C
3449 17-07-2016 23:20:00 20.3 C 87 % 18.06 C
3450 17-07-2016 23:25:00 20.3 C 87 % 18.06 C
Sensor: Nr:Datum:Temp:Feuchte:Taupunkt:
Aussen-T/F 3451 17-07-2016 23:30:00 20.2 C 87 % 17.97 C
3452 17-07-2016 23:35:00 20.2 C 87 % 17.97 C
3453 17-07-2016 23:40:00 20.1 C 88 % 18.05 C
3454 17-07-2016 23:45:00 19.9 C 88 % 17.85 C
3455 17-07-2016 23:50:00 19.9 C 88 % 17.85 C
3456 17-07-2016 23:55:00 19.8 C 88 % 17.75 C
3457 18-07-2016 00:00:00 19.8 C 88 % 17.75 C
3458 18-07-2016 00:05:00 19.8 C 88 % 17.75 C
3459 18-07-2016 00:10:00 19.7 C 89 % 17.84 C
3460 18-07-2016 00:15:00 19.6 C 89 % 17.74 C
3461 18-07-2016 00:20:00 19.5 C 89 % 17.64 C
3462 18-07-2016 00:25:00 19.4 C 89 % 17.54 C
3463 18-07-2016 00:30:00 19.4 C 89 % 17.54 C
3464 18-07-2016 00:35:00 19.3 C 89 % 17.44 C
3465 18-07-2016 00:40:00 19.3 C 89 % 17.44 C
3466 18-07-2016 00:45:00 19.2 C 90 % 17.52 C
3467 18-07-2016 00:50:00 19.1 C 90 % 17.42 C
3468 18-07-2016 00:55:00 19.1 C 90 % 17.42 C
3469 18-07-2016 01:00:00 19 C 90 % 17.32 C
3470 18-07-2016 01:05:00 18.9 C 90 % 17.22 C
3471 18-07-2016 01:10:00 18.9 C 91 % 17.4 C
3472 18-07-2016 01:15:00 18.8 C 91 % 17.3 C
3473 18-07-2016 01:20:00 18.8 C 91 % 17.3 C
3474 18-07-2016 01:25:00 18.7 C 91 % 17.2 C
3475 18-07-2016 01:30:00 18.7 C 92 % 17.37 C
Sensor: Nr:Datum:Temp:Feuchte:Taupunkt:
Aussen-T/F 3476 18-07-2016 01:35:00 18.7 C 92 % 17.37 C
3477 18-07-2016 01:40:00 18.7 C 92 % 17.37 C
3478 18-07-2016 01:45:00 18.7 C 92 % 17.37 C
3479 18-07-2016 01:50:00 18.6 C 92 % 17.27 C
3480 18-07-2016 01:55:00 18.6 C 92 % 17.27 C
3481 18-07-2016 02:00:00 18.4 C 92 % 17.08 C
3482 18-07-2016 02:05:00 18.4 C 92 % 17.08 C
3483 18-07-2016 02:10:00 18.3 C 92 % 16.98 C
3484 18-07-2016 02:15:00 18.3 C 92 % 16.98 C
3485 18-07-2016 02:20:00 18.2 C 92 % 16.88 C
3486 18-07-2016 02:25:00 18.2 C 92 % 16.88 C
3487 18-07-2016 02:30:00 18.1 C 92 % 16.78 C
3488 18-07-2016 02:35:00 18 C 93 % 16.85 C
3489 18-07-2016 02:40:00 17.9 C 93 % 16.75 C
3490 18-07-2016 02:45:00 17.9 C 93 % 16.75 C
3491 18-07-2016 02:50:00 17.9 C 93 % 16.75 C
3492 18-07-2016 02:55:00 17.8 C 93 % 16.65 C
3493 18-07-2016 03:00:00 17.8 C 93 % 16.65 C
3494 18-07-2016 03:05:00 17.7 C 93 % 16.55 C
3495 18-07-2016 03:10:00 17.7 C 93 % 16.55 C
3496 18-07-2016 03:15:00 17.6 C 93 % 16.45 C
3497 18-07-2016 03:20:00 17.6 C 93 % 16.45 C
3498 18-07-2016 03:25:00 17.6 C 93 % 16.45 C
3499 18-07-2016 03:30:00 17.6 C 93 % 16.45 C
3500 18-07-2016 03:35:00 17.6 C 93 % 16.45 C
Sensor: Nr:Datum:Temp:Feuchte:Taupunkt:
Aussen-T/F 3501 18-07-2016 03:40:00 17.6 C 94 % 16.62 C
3502 18-07-2016 03:45:00 17.6 C 94 % 16.62 C
3503 18-07-2016 03:50:00 17.6 C 94 % 16.62 C
3504 18-07-2016 03:55:00 17.6 C 94 % 16.62 C
3505 18-07-2016 04:00:00 17.5 C 94 % 16.52 C
3506 18-07-2016 04:05:00 17.5 C 94 % 16.52 C
3507 18-07-2016 04:10:00 17.4 C 94 % 16.42 C
3508 18-07-2016 04:15:00 17.4 C 94 % 16.42 C
3509 18-07-2016 04:20:00 17.4 C 94 % 16.42 C
3510 18-07-2016 04:25:00 17.3 C 94 % 16.33 C
3511 18-07-2016 04:30:00 17.3 C 93 % 16.16 C
3512 18-07-2016 04:35:00 17.3 C 94 % 16.33 C
3513 18-07-2016 04:40:00 17.3 C 94 % 16.33 C
3514 18-07-2016 04:45:00 17.3 C 94 % 16.33 C
3515 18-07-2016 04:50:00 17.2 C 94 % 16.23 C
3516 18-07-2016 04:55:00 17.2 C 94 % 16.23 C
3517 18-07-2016 05:00:00 17.1 C 94 % 16.13 C
3518 18-07-2016 05:05:00 16.9 C 93 % 15.76 C
3519 18-07-2016 05:10:00 16.8 C 93 % 15.66 C
3520 18-07-2016 05:15:00 16.8 C 94 % 15.83 C
3521 18-07-2016 05:20:00 16.7 C 94 % 15.73 C
3522 18-07-2016 05:25:00 16.6 C 94 % 15.63 C
3523 18-07-2016 05:30:00 16.5 C 94 % 15.53 C
3524 18-07-2016 05:35:00 16.4 C 94 % 15.43 C
3525 18-07-2016 05:40:00 16.4 C 94 % 15.43 C
Sensor: Nr:Datum:Temp:Feuchte:Taupunkt:
Aussen-T/F 3526 18-07-2016 05:45:00 16.3 C 94 % 15.33 C
3527 18-07-2016 05:50:00 16.3 C 94 % 15.33 C
3528 18-07-2016 05:55:00 16.2 C 94 % 15.23 C
3529 18-07-2016 06:00:00 16.2 C 94 % 15.23 C
3530 18-07-2016 06:05:00 16.2 C 94 % 15.23 C
3531 18-07-2016 06:10:00 16.1 C 94 % 15.13 C
3532 18-07-2016 06:15:00 16.2 C 95 % 15.4 C
3533 18-07-2016 06:20:00 16.2 C 95 % 15.4 C
3534 18-07-2016 06:25:00 16.3 C 95 % 15.5 C
3535 18-07-2016 06:30:00 16.3 C 95 % 15.5 C
3536 18-07-2016 06:35:00 16.3 C 95 % 15.5 C
3537 18-07-2016 06:40:00 16.3 C 95 % 15.5 C
3538 18-07-2016 06:45:00 16.3 C 95 % 15.5 C
3539 18-07-2016 06:50:00 16.4 C 95 % 15.6 C
3540 18-07-2016 06:55:00 16.4 C 95 % 15.6 C
3541 18-07-2016 07:00:00 16.4 C 95 % 15.6 C
3542 18-07-2016 07:05:00 16.3 C 95 % 15.5 C
3543 18-07-2016 07:10:00 16.3 C 95 % 15.5 C
3544 18-07-2016 07:15:00 16.3 C 95 % 15.5 C
3545 18-07-2016 07:20:00 16.3 C 95 % 15.5 C
3546 18-07-2016 07:25:00 16.3 C 95 % 15.5 C
3547 18-07-2016 07:30:00 16.3 C 95 % 15.5 C
3548 18-07-2016 07:35:00 16.3 C 95 % 15.5 C
3549 18-07-2016 07:40:00 16.4 C 95 % 15.6 C
3550 18-07-2016 07:45:00 16.4 C 95 % 15.6 C
Sensor: Nr:Datum:Temp:Feuchte:Taupunkt:
Aussen-T/F 3551 18-07-2016 07:50:00 16.4 C 95 % 15.6 C
3552 18-07-2016 07:55:00 16.5 C 95 % 15.7 C
3553 18-07-2016 08:00:00 16.6 C 95 % 15.8 C
3554 18-07-2016 08:05:00 16.6 C 95 % 15.8 C
3555 18-07-2016 08:10:00 16.7 C 95 % 15.9 C
3556 18-07-2016 08:15:00 16.7 C 95 % 15.9 C
3557 18-07-2016 08:20:00 16.8 C 95 % 15.99 C
3558 18-07-2016 08:25:00 16.9 C 96 % 16.26 C
3559 18-07-2016 08:30:00 17 C 96 % 16.36 C
3560 18-07-2016 08:35:00 17.1 C 95 % 16.29 C
3561 18-07-2016 08:40:00 17.2 C 95 % 16.39 C
3562 18-07-2016 08:45:00 17.2 C 96 % 16.56 C
3563 18-07-2016 08:50:00 17.3 C 96 % 16.66 C
3564 18-07-2016 08:55:00 17.4 C 96 % 16.76 C
3565 18-07-2016 09:00:00 17.5 C 96 % 16.85 C
3566 18-07-2016 09:05:00 17.6 C 96 % 16.95 C
3567 18-07-2016 09:10:00 17.7 C 96 % 17.05 C
3568 18-07-2016 09:15:00 17.8 C 95 % 16.99 C
3569 18-07-2016 09:20:00 17.8 C 95 % 16.99 C
3570 18-07-2016 09:25:00 18 C 96 % 17.35 C
3571 18-07-2016 09:30:00 18.2 C 95 % 17.39 C
3572 18-07-2016 09:35:00 18.3 C 96 % 17.65 C
3573 18-07-2016 09:40:00 18.5 C 95 % 17.68 C
3574 18-07-2016 09:45:00 18.6 C 95 % 17.78 C
3575 18-07-2016 09:50:00 18.7 C 95 % 17.88 C
Sensor: Nr:Datum:Temp:Feuchte:Taupunkt:
Aussen-T/F 3576 18-07-2016 09:55:00 18.7 C 95 % 17.88 C
3577 18-07-2016 10:00:00 18.9 C 94 % 17.91 C
3578 18-07-2016 10:05:00 19 C 94 % 18.01 C
3579 18-07-2016 10:10:00 19.2 C 94 % 18.21 C
3580 18-07-2016 10:15:00 19.3 C 93 % 18.14 C
3581 18-07-2016 10:20:00 19.7 C 92 % 18.36 C
3582 18-07-2016 10:25:00 20.1 C 91 % 18.58 C
3583 18-07-2016 10:30:00 20.6 C 88 % 18.54 C
3584 18-07-2016 10:35:00 21.2 C 86 % 18.76 C
3585 18-07-2016 10:40:00 21.8 C 84 % 18.97 C
3586 18-07-2016 10:45:00 22.4 C 80 % 18.78 C
3587 18-07-2016 10:50:00 22.8 C 77 % 18.56 C
3588 18-07-2016 10:55:00 23.1 C 76 % 18.64 C
3589 18-07-2016 11:00:00 23.2 C 78 % 19.15 C
3590 18-07-2016 11:05:00 23 C 77 % 18.75 C
3591 18-07-2016 11:10:00 22.8 C 78 % 18.76 C
3592 18-07-2016 11:15:00 22.7 C 76 % 18.25 C
3593 18-07-2016 11:20:00 22.6 C 77 % 18.36 C
3594 18-07-2016 11:25:00 22.7 C 73 % 17.61 C
3595 18-07-2016 11:30:00 22.9 C 73 % 17.8 C
3596 18-07-2016 11:35:00 23.1 C 72 % 17.78 C
3597 18-07-2016 11:40:00 23.2 C 72 % 17.87 C
3598 18-07-2016 11:45:00 23.3 C 72 % 17.97 C
3599 18-07-2016 11:50:00 23.4 C 71 % 17.84 C
3600 18-07-2016 11:55:00 23.5 C 67 % 17.02 C
Sensor: Nr:Datum:Temp:Feuchte:Taupunkt:
Aussen-T/F 3601 18-07-2016 12:00:00 23.6 C 69 % 17.58 C
3602 18-07-2016 12:05:00 23.7 C 68 % 17.44 C
3603 18-07-2016 12:10:00 23.7 C 68 % 17.44 C
3604 18-07-2016 12:15:00 23.7 C 68 % 17.44 C
3605 18-07-2016 12:20:00 23.7 C 69 % 17.67 C
3606 18-07-2016 12:25:00 23.7 C 67 % 17.21 C
3607 18-07-2016 12:30:00 23.8 C 66 % 17.07 C
3608 18-07-2016 12:35:00 23.9 C 65 % 16.92 C
3609 18-07-2016 12:40:00 24 C 66 % 17.26 C
3610 18-07-2016 12:45:00 24 C 67 % 17.49 C
3611 18-07-2016 12:50:00 24.1 C 65 % 17.11 C
3612 18-07-2016 12:55:00 24.2 C 63 % 16.71 C
3613 18-07-2016 13:00:00 24.3 C 66 % 17.54 C
3614 18-07-2016 13:05:00 24.3 C 71 % 18.7 C
3615 18-07-2016 13:10:00 24.2 C 64 % 16.96 C
3616 18-07-2016 13:15:00 24.3 C 65 % 17.3 C
3617 18-07-2016 13:20:00 24.4 C 64 % 17.15 C
3618 18-07-2016 13:25:00 24.5 C 68 % 18.2 C
3619 18-07-2016 13:30:00 24.4 C 65 % 17.39 C
3620 18-07-2016 13:35:00 24.3 C 61 % 16.3 C
3621 18-07-2016 13:40:00 24.3 C 61 % 16.3 C
3622 18-07-2016 13:45:00 24.5 C 63 % 16.99 C
3623 18-07-2016 13:50:00 24.5 C 58 % 15.7 C
3624 18-07-2016 13:55:00 24.7 C 59 % 16.15 C
3625 18-07-2016 14:00:00 24.9 C 56 % 15.52 C
Sensor: Nr:Datum:Temp:Feuchte:Taupunkt:
Aussen-T/F 3626 18-07-2016 14:05:00 24.9 C 54 % 14.95 C
3627 18-07-2016 14:10:00 24.9 C 57 % 15.8 C
3628 18-07-2016 14:15:00 24.9 C 53 % 14.66 C
3629 18-07-2016 14:20:00 25 C 56 % 15.61 C
3630 18-07-2016 14:25:00 25.2 C 56 % 15.8 C
3631 18-07-2016 14:30:00 25.3 C 53 % 15.03 C
3632 18-07-2016 14:35:00 25.6 C 53 % 15.31 C
3633 18-07-2016 14:40:00 25.7 C 48 % 13.87 C
3634 18-07-2016 14:45:00 25.8 C 52 % 15.2 C
3635 18-07-2016 14:50:00 25.8 C 52 % 15.2 C
3636 18-07-2016 14:55:00 25.9 C 52 % 15.29 C
3637 18-07-2016 15:00:00 26 C 55 % 16.26 C
3638 18-07-2016 15:05:00 26 C 52 % 15.38 C
3639 18-07-2016 15:10:00 26.1 C 54 % 16.07 C
3640 18-07-2016 15:15:00 26.4 C 51 % 15.45 C
3641 18-07-2016 15:20:00 26.8 C 51 % 15.82 C
3642 18-07-2016 15:25:00 26.9 C 49 % 15.28 C
3643 18-07-2016 15:30:00 26.9 C 49 % 15.28 C
3644 18-07-2016 15:35:00 27.3 C 46 % 14.67 C
3645 18-07-2016 15:40:00 27.8 C 45 % 14.78 C
3646 18-07-2016 15:45:00 28.1 C 46 % 15.39 C
3647 18-07-2016 15:50:00 28.2 C 53 % 17.71 C
3648 18-07-2016 15:55:00 28.3 C 55 % 18.39 C
3649 18-07-2016 16:00:00 28.5 C 43 % 14.71 C
3650 18-07-2016 16:05:00 28.7 C 45 % 15.59 C
Sensor: Nr:Datum:Temp:Feuchte:Taupunkt:
Aussen-T/F 3651 18-07-2016 16:10:00 29.1 C 44 % 15.6 C
3652 18-07-2016 16:15:00 29.3 C 49 % 17.48 C
3653 18-07-2016 16:20:00 29.5 C 44 % 15.96 C
3654 18-07-2016 16:25:00 29.4 C 43 % 15.51 C
3655 18-07-2016 16:30:00 29.2 C 43 % 15.33 C
3656 18-07-2016 16:35:00 29.1 C 44 % 15.6 C
3657 18-07-2016 16:40:00 28.9 C 43 % 15.06 C
3658 18-07-2016 16:45:00 28.7 C 46 % 15.94 C
3659 18-07-2016 16:50:00 28.7 C 46 % 15.94 C
3660 18-07-2016 16:55:00 28.9 C 47 % 16.45 C
3661 18-07-2016 17:00:00 29.1 C 42 % 14.88 C
3662 18-07-2016 17:05:00 29.4 C 48 % 17.24 C
3663 18-07-2016 17:10:00 29.5 C 44 % 15.96 C
3664 18-07-2016 17:15:00 29.7 C 46 % 16.84 C
3665 18-07-2016 17:20:00 29.7 C 44 % 16.14 C
3666 18-07-2016 17:25:00 29.8 C 47 % 17.27 C
3667 18-07-2016 17:30:00 29.9 C 47 % 17.36 C
3668 18-07-2016 17:35:00 30 C 45 % 16.77 C
3669 18-07-2016 17:40:00 30.2 C 44 % 16.59 C
3670 18-07-2016 17:45:00 30.2 C 43 % 16.23 C
3671 18-07-2016 17:50:00 30.2 C 43 % 16.23 C
3672 18-07-2016 17:55:00 30.1 C 44 % 16.5 C
3673 18-07-2016 18:00:00 30 C 43 % 16.05 C
3674 18-07-2016 18:05:00 29.9 C 41 % 15.22 C
3675 18-07-2016 18:10:00 29.8 C 42 % 15.51 C
Sensor: Nr:Datum:Temp:Feuchte:Taupunkt:
Aussen-T/F 3676 18-07-2016 18:15:00 29.8 C 41 % 15.13 C
3677 18-07-2016 18:20:00 29.9 C 42 % 15.6 C
3678 18-07-2016 18:25:00 29.9 C 44 % 16.32 C
3679 18-07-2016 18:30:00 30 C 50 % 18.44 C
3680 18-07-2016 18:35:00 30.3 C 53 % 19.65 C
3681 18-07-2016 18:40:00 30.6 C 42 % 16.22 C
3682 18-07-2016 18:45:00 30.7 C 40 % 15.55 C
3683 18-07-2016 18:50:00 30.3 C 42 % 15.95 C
3684 18-07-2016 18:55:00 30.1 C 40 % 15.01 C
3685 18-07-2016 19:00:00 30.1 C 43 % 16.14 C
3686 18-07-2016 19:05:00 30.2 C 46 % 17.3 C
3687 18-07-2016 19:10:00 30.3 C 42 % 15.95 C
3688 18-07-2016 19:15:00 30.2 C 42 % 15.86 C
3689 18-07-2016 19:20:00 30.1 C 49 % 18.21 C
3690 18-07-2016 19:25:00 29.8 C 52 % 18.88 C
3691 18-07-2016 19:30:00 29.4 C 54 % 19.12 C
3692 18-07-2016 19:35:00 29 C 55 % 19.04 C
3693 18-07-2016 19:40:00 28.6 C 56 % 18.96 C
3694 18-07-2016 19:45:00 28.2 C 57 % 18.87 C
3695 18-07-2016 19:50:00 27.7 C 58 % 18.68 C
3696 18-07-2016 19:55:00 27.2 C 60 % 18.76 C
3697 18-07-2016 20:00:00 26.7 C 61 % 18.55 C
3698 18-07-2016 20:05:00 26.4 C 62 % 18.53 C
3699 18-07-2016 20:10:00 26.2 C 63 % 18.6 C
3700 18-07-2016 20:15:00 25.9 C 63 % 18.31 C
Sensor: Nr:Datum:Temp:Feuchte:Taupunkt:
Aussen-T/F 3701 18-07-2016 20:20:00 25.7 C 64 % 18.38 C
3702 18-07-2016 20:25:00 25.5 C 64 % 18.19 C
3703 18-07-2016 20:30:00 25.3 C 65 % 18.25 C
3704 18-07-2016 20:35:00 25.1 C 64 % 17.81 C
3705 18-07-2016 20:40:00 24.9 C 65 % 17.87 C
3706 18-07-2016 20:45:00 24.6 C 65 % 17.58 C
3707 18-07-2016 20:50:00 24.3 C 66 % 17.54 C
3708 18-07-2016 20:55:00 24.1 C 67 % 17.59 C
3709 18-07-2016 21:00:00 23.7 C 67 % 17.21 C
3710 18-07-2016 21:05:00 23.4 C 68 % 17.16 C
3711 18-07-2016 21:10:00 23.2 C 69 % 17.2 C
3712 18-07-2016 21:15:00 22.8 C 70 % 17.04 C
3713 18-07-2016 21:20:00 22.6 C 71 % 17.07 C
3714 18-07-2016 21:25:00 22.2 C 71 % 16.69 C
3715 18-07-2016 21:30:00 22.1 C 71 % 16.6 C
3716 18-07-2016 21:35:00 21.8 C 72 % 16.53 C
3717 18-07-2016 21:40:00 21.7 C 72 % 16.43 C
3718 18-07-2016 21:45:00 21.6 C 73 % 16.55 C
3719 18-07-2016 21:50:00 21.4 C 74 % 16.57 C
3720 18-07-2016 21:55:00 21.2 C 74 % 16.38 C
3721 18-07-2016 22:00:00 20.9 C 75 % 16.3 C
3722 18-07-2016 22:05:00 20.8 C 75 % 16.21 C
3723 18-07-2016 22:10:00 20.7 C 76 % 16.32 C
3724 18-07-2016 22:15:00 20.6 C 77 % 16.43 C
3725 18-07-2016 22:20:00 20.4 C 77 % 16.23 C
Sensor: Nr:Datum:Temp:Feuchte:Taupunkt:
Aussen-T/F 3726 18-07-2016 22:25:00 20.2 C 78 % 16.24 C
3727 18-07-2016 22:30:00 20 C 78 % 16.05 C
3728 18-07-2016 22:35:00 19.8 C 79 % 16.05 C
3729 18-07-2016 22:40:00 19.7 C 80 % 16.15 C
3730 18-07-2016 22:45:00 19.5 C 79 % 15.76 C
3731 18-07-2016 22:50:00 19.4 C 80 % 15.86 C
3732 18-07-2016 22:55:00 19.3 C 80 % 15.76 C
3733 18-07-2016 23:00:00 19.2 C 80 % 15.67 C
3734 18-07-2016 23:05:00 19 C 81 % 15.67 C
3735 18-07-2016 23:10:00 18.9 C 81 % 15.57 C
3736 18-07-2016 23:15:00 18.8 C 81 % 15.47 C
3737 18-07-2016 23:20:00 18.7 C 82 % 15.57 C
3738 18-07-2016 23:25:00 18.6 C 83 % 15.66 C
3739 18-07-2016 23:30:00 18.4 C 83 % 15.46 C
3740 18-07-2016 23:35:00 18.3 C 83 % 15.36 C
3741 18-07-2016 23:40:00 18.3 C 83 % 15.36 C
3742 18-07-2016 23:45:00 18.2 C 83 % 15.27 C
3743 18-07-2016 23:50:00 18.2 C 83 % 15.27 C
3744 18-07-2016 23:55:00 18.1 C 84 % 15.35 C
3745 19-07-2016 00:00:00 18 C 84 % 15.26 C
3746 19-07-2016 00:05:00 17.8 C 85 % 15.25 C
3747 19-07-2016 00:10:00 17.8 C 85 % 15.25 C
3748 19-07-2016 00:15:00 17.7 C 85 % 15.15 C
3749 19-07-2016 00:20:00 17.6 C 86 % 15.23 C
3750 19-07-2016 00:25:00 17.4 C 86 % 15.03 C
Sensor: Nr:Datum:Temp:Feuchte:Taupunkt:
Aussen-T/F 3751 19-07-2016 00:30:00 17.4 C 86 % 15.03 C
3752 19-07-2016 00:35:00 17.3 C 86 % 14.94 C
3753 19-07-2016 00:40:00 17.3 C 86 % 14.94 C
3754 19-07-2016 00:45:00 17.3 C 86 % 14.94 C
3755 19-07-2016 00:50:00 17.2 C 87 % 15.02 C
3756 19-07-2016 00:55:00 17.1 C 87 % 14.92 C
3757 19-07-2016 01:00:00 17 C 87 % 14.82 C
3758 19-07-2016 01:05:00 16.9 C 87 % 14.72 C
3759 19-07-2016 01:10:00 16.8 C 88 % 14.8 C
3760 19-07-2016 01:15:00 16.8 C 88 % 14.8 C
3761 19-07-2016 01:20:00 16.7 C 88 % 14.7 C
3762 19-07-2016 01:25:00 16.7 C 88 % 14.7 C
3763 19-07-2016 01:30:00 16.7 C 89 % 14.88 C
3764 19-07-2016 01:35:00 16.6 C 89 % 14.78 C
3765 19-07-2016 01:40:00 16.6 C 89 % 14.78 C
3766 19-07-2016 01:45:00 16.5 C 89 % 14.68 C
3767 19-07-2016 01:50:00 16.4 C 89 % 14.58 C
3768 19-07-2016 01:55:00 16.4 C 90 % 14.76 C
3769 19-07-2016 02:00:00 16.4 C 90 % 14.76 C
3770 19-07-2016 02:05:00 16.3 C 90 % 14.66 C
3771 19-07-2016 02:10:00 16.3 C 90 % 14.66 C
3772 19-07-2016 02:15:00 16.3 C 90 % 14.66 C
3773 19-07-2016 02:20:00 16.2 C 90 % 14.56 C
3774 19-07-2016 02:25:00 16.2 C 90 % 14.56 C
3775 19-07-2016 02:30:00 16.1 C 90 % 14.46 C
Sensor: Nr:Datum:Temp:Feuchte:Taupunkt:
Aussen-T/F 3776 19-07-2016 02:35:00 16 C 90 % 14.36 C
3777 19-07-2016 02:40:00 15.9 C 91 % 14.43 C
3778 19-07-2016 02:45:00 15.9 C 91 % 14.43 C
3779 19-07-2016 02:50:00 15.8 C 91 % 14.33 C
3780 19-07-2016 02:55:00 15.8 C 91 % 14.33 C
3781 19-07-2016 03:00:00 15.8 C 92 % 14.5 C
3782 19-07-2016 03:05:00 15.7 C 92 % 14.4 C
3783 19-07-2016 03:10:00 15.6 C 92 % 14.31 C
3784 19-07-2016 03:15:00 15.6 C 92 % 14.31 C
3785 19-07-2016 03:20:00 15.5 C 92 % 14.21 C
3786 19-07-2016 03:25:00 15.4 C 92 % 14.11 C
3787 19-07-2016 03:30:00 15.4 C 92 % 14.11 C
3788 19-07-2016 03:35:00 15.4 C 93 % 14.27 C
3789 19-07-2016 03:40:00 15.4 C 93 % 14.27 C
3790 19-07-2016 03:45:00 15.3 C 93 % 14.18 C
3791 19-07-2016 03:50:00 15.3 C 93 % 14.18 C
3792 19-07-2016 03:55:00 15.3 C 93 % 14.18 C
3793 19-07-2016 04:00:00 15.2 C 93 % 14.08 C
3794 19-07-2016 04:05:00 15.2 C 93 % 14.08 C
3795 19-07-2016 04:10:00 15.2 C 93 % 14.08 C
3796 19-07-2016 04:15:00 15.2 C 93 % 14.08 C
3797 19-07-2016 04:20:00 15.1 C 93 % 13.98 C
3798 19-07-2016 04:25:00 15.1 C 93 % 13.98 C
3799 19-07-2016 04:30:00 14.9 C 93 % 13.78 C
3800 19-07-2016 04:35:00 15 C 93 % 13.88 C
Sensor: Nr:Datum:Temp:Feuchte:Taupunkt:
Aussen-T/F 3801 19-07-2016 04:40:00 14.9 C 93 % 13.78 C
3802 19-07-2016 04:45:00 14.9 C 94 % 13.94 C
3803 19-07-2016 04:50:00 14.9 C 94 % 13.94 C
3804 19-07-2016 04:55:00 14.9 C 94 % 13.94 C
3805 19-07-2016 05:00:00 14.8 C 94 % 13.84 C
3806 19-07-2016 05:05:00 14.8 C 94 % 13.84 C
3807 19-07-2016 05:10:00 14.7 C 94 % 13.74 C
3808 19-07-2016 05:15:00 14.7 C 94 % 13.74 C
3809 19-07-2016 05:20:00 14.7 C 94 % 13.74 C
3810 19-07-2016 05:25:00 14.7 C 94 % 13.74 C
3811 19-07-2016 05:30:00 14.7 C 94 % 13.74 C
3812 19-07-2016 05:35:00 14.6 C 94 % 13.65 C
3813 19-07-2016 05:40:00 14.5 C 94 % 13.55 C
3814 19-07-2016 05:45:00 14.4 C 94 % 13.45 C
3815 19-07-2016 05:50:00 14.4 C 94 % 13.45 C
3816 19-07-2016 05:55:00 14.4 C 94 % 13.45 C
3817 19-07-2016 06:00:00 14.5 C 94 % 13.55 C
3818 19-07-2016 06:05:00 14.5 C 94 % 13.55 C
3819 19-07-2016 06:10:00 14.6 C 95 % 13.81 C
3820 19-07-2016 06:15:00 14.6 C 95 % 13.81 C
3821 19-07-2016 06:20:00 14.6 C 95 % 13.81 C
3822 19-07-2016 06:25:00 14.6 C 95 % 13.81 C
3823 19-07-2016 06:30:00 14.6 C 95 % 13.81 C
3824 19-07-2016 06:35:00 14.6 C 95 % 13.81 C
3825 19-07-2016 06:40:00 14.7 C 95 % 13.91 C
Sensor: Nr:Datum:Temp:Feuchte:Taupunkt:
Aussen-T/F 3826 19-07-2016 06:45:00 14.7 C 95 % 13.91 C
3827 19-07-2016 06:50:00 14.7 C 95 % 13.91 C
3828 19-07-2016 06:55:00 14.7 C 95 % 13.91 C
3829 19-07-2016 07:00:00 14.7 C 95 % 13.91 C
3830 19-07-2016 07:05:00 14.7 C 95 % 13.91 C
3831 19-07-2016 07:10:00 14.8 C 95 % 14.01 C
3832 19-07-2016 07:15:00 14.8 C 95 % 14.01 C
3833 19-07-2016 07:20:00 14.9 C 95 % 14.11 C
3834 19-07-2016 07:25:00 14.9 C 95 % 14.11 C
3835 19-07-2016 07:30:00 15 C 95 % 14.21 C
3836 19-07-2016 07:35:00 15.1 C 95 % 14.31 C
3837 19-07-2016 07:40:00 15.1 C 95 % 14.31 C
3838 19-07-2016 07:45:00 15.2 C 95 % 14.4 C
3839 19-07-2016 07:50:00 15.3 C 95 % 14.5 C
3840 19-07-2016 07:55:00 15.3 C 95 % 14.5 C
3841 19-07-2016 08:00:00 15.4 C 95 % 14.6 C
3842 19-07-2016 08:05:00 15.5 C 95 % 14.7 C
3843 19-07-2016 08:10:00 15.6 C 95 % 14.8 C
3844 19-07-2016 08:15:00 15.7 C 95 % 14.9 C
3845 19-07-2016 08:20:00 15.8 C 95 % 15 C
3846 19-07-2016 08:25:00 15.8 C 95 % 15 C
3847 19-07-2016 08:30:00 15.9 C 95 % 15.1 C
3848 19-07-2016 08:35:00 16 C 95 % 15.2 C
3849 19-07-2016 08:40:00 16.1 C 95 % 15.3 C
3850 19-07-2016 08:45:00 16.2 C 95 % 15.4 C
Sensor: Nr:Datum:Temp:Feuchte:Taupunkt:
Aussen-T/F 3851 19-07-2016 08:50:00 16.3 C 95 % 15.5 C
3852 19-07-2016 08:55:00 16.4 C 95 % 15.6 C
3853 19-07-2016 09:00:00 16.6 C 95 % 15.8 C
3854 19-07-2016 09:05:00 16.7 C 95 % 15.9 C
3855 19-07-2016 09:10:00 16.8 C 95 % 15.99 C
3856 19-07-2016 09:15:00 16.9 C 95 % 16.09 C
3857 19-07-2016 09:20:00 17 C 95 % 16.19 C
3858 19-07-2016 09:25:00 17.2 C 95 % 16.39 C
3859 19-07-2016 09:30:00 17.3 C 95 % 16.49 C
3860 19-07-2016 09:35:00 17.4 C 95 % 16.59 C
3861 19-07-2016 09:40:00 17.6 C 95 % 16.79 C
3862 19-07-2016 09:45:00 17.7 C 94 % 16.72 C
3863 19-07-2016 09:50:00 17.9 C 94 % 16.92 C
3864 19-07-2016 09:55:00 18 C 94 % 17.02 C
3865 19-07-2016 10:00:00 18.2 C 94 % 17.22 C
3866 19-07-2016 10:05:00 18.3 C 94 % 17.32 C
3867 19-07-2016 10:10:00 18.6 C 94 % 17.62 C
3868 19-07-2016 10:15:00 18.8 C 94 % 17.81 C
3869 19-07-2016 10:20:00 19 C 93 % 17.84 C
3870 19-07-2016 10:25:00 19.3 C 93 % 18.14 C
3871 19-07-2016 10:30:00 19.7 C 92 % 18.36 C
3872 19-07-2016 10:35:00 20.1 C 91 % 18.58 C
3873 19-07-2016 10:40:00 20.5 C 90 % 18.8 C
3874 19-07-2016 10:45:00 20.8 C 89 % 18.92 C
3875 19-07-2016 10:50:00 21.2 C 88 % 19.13 C
Sensor: Nr:Datum:Temp:Feuchte:Taupunkt:
Aussen-T/F 3876 19-07-2016 10:55:00 21.3 C 87 % 19.05 C
387